PWSweather.com
Personal Weather Stations
Station Observations
KCOFALCO8
Falcon Hills, Falcon, CO 80831

Falcon HillsFalcon, CO 80831

Lat: 38.979792, Lon: -104.61195

Elevation: 7170

Station Type: AcuRite Pro 5-in-1

http://wx.frazierhome.net/

High Low Average
Temperature 52.6°F11.4°C 30.5°F-0.8°C 37.6°F3.1°C
Dew Point 37.1°F2.8°C 30.1°F-1.1°C 33.5°F0.8°C
Winds 16.0 mph 25.7 kmh Calm Calm 5.0 mph SSE8.0 kmh SSE
Wind Gusts -- -- --
Humidity 98% 55% 86%
Pressure 30.07 in1018.3 mb 29.67 in1004.7 mb -
Precipitation 0.00 in0.0 mm - -
Hour Temp Dew Point Humidity Winds Wind Gusts Pressure Precip Precip Rate Daily Precip Total
12:00 AM 31.7°F-0.2°C 31.1°F-0.5°C 98% Calm Calm -- 29.68 in1005.1 mb 0.00 in0.0 mm 0.00 in0.0 mm 0.00 in0.0 mm
12:01 AM 31.7°F-0.2°C 31.1°F-0.5°C 98% Calm Calm -- 29.68 in1005.1 mb 0.00 in0.0 mm 0.00 in0.0 mm 0.00 in0.0 mm
12:02 AM 31.7°F-0.2°C 31.1°F-0.5°C 98% Calm Calm -- 29.68 in1005.1 mb 0.00 in0.0 mm 0.00 in0.0 mm 0.00 in0.0 mm
12:03 AM 31.7°F-0.2°C 31.1°F-0.5°C 98% Calm Calm -- 29.68 in1005.1 mb 0.00 in0.0 mm 0.00 in0.0 mm 0.00 in0.0 mm
12:04 AM 31.7°F-0.2°C 31.1°F-0.5°C 98% Calm Calm -- 29.68 in1005.1 mb 0.00 in0.0 mm 0.00 in0.0 mm 0.00 in0.0 mm
12:05 AM 31.7°F-0.2°C 31.1°F-0.5°C 98% Calm Calm -- 29.68 in1005.1 mb 0.00 in0.0 mm 0.00 in0.0 mm 0.00 in0.0 mm
12:06 AM 31.7°F-0.2°C 31.1°F-0.5°C 98% Calm Calm -- 29.68 in1005.1 mb 0.00 in0.0 mm 0.00 in0.0 mm 0.00 in0.0 mm
12:07 AM 31.7°F-0.2°C 31.1°F-0.5°C 98% Calm Calm -- 29.68 in1005.1 mb 0.00 in0.0 mm 0.00 in0.0 mm 0.00 in0.0 mm
12:09 AM 31.7°F-0.2°C 31.1°F-0.5°C 98% Calm Calm -- 29.68 in1005.1 mb 0.00 in0.0 mm 0.00 in0.0 mm 0.00 in0.0 mm
12:10 AM 31.7°F-0.2°C 31.1°F-0.5°C 98% Calm Calm -- 29.68 in1005.1 mb 0.00 in0.0 mm 0.00 in0.0 mm 0.00 in0.0 mm
12:12 AM 31.7°F-0.2°C 31.1°F-0.5°C 98% Calm Calm -- 29.68 in1005.1 mb 0.00 in0.0 mm 0.00 in0.0 mm 0.00 in0.0 mm
12:13 AM 31.9°F-0.1°C 31.3°F-0.4°C 98% Calm Calm -- 29.68 in1005.1 mb 0.00 in0.0 mm 0.00 in0.0 mm 0.00 in0.0 mm
12:14 AM 31.9°F-0.1°C 31.3°F-0.4°C 98% Calm Calm -- 29.68 in1005.1 mb 0.00 in0.0 mm 0.00 in0.0 mm 0.00 in0.0 mm
12:15 AM 31.9°F-0.1°C 31.3°F-0.4°C 98% Calm Calm -- 29.68 in1005.1 mb 0.00 in0.0 mm 0.00 in0.0 mm 0.00 in0.0 mm
12:16 AM 31.9°F-0.1°C 31.3°F-0.4°C 98% Calm Calm -- 29.68 in1005.1 mb 0.00 in0.0 mm 0.00 in0.0 mm 0.00 in0.0 mm
12:17 AM 31.9°F-0.1°C 31.3°F-0.4°C 98% Calm Calm -- 29.68 in1005.1 mb 0.00 in0.0 mm 0.00 in0.0 mm 0.00 in0.0 mm
12:18 AM 31.9°F-0.1°C 31.3°F-0.4°C 98% Calm Calm -- 29.68 in1005.1 mb 0.00 in0.0 mm 0.00 in0.0 mm 0.00 in0.0 mm
12:22 AM 31.9°F-0.1°C 31.3°F-0.4°C 98% Calm Calm -- 29.68 in1005.1 mb 0.00 in0.0 mm 0.00 in0.0 mm 0.00 in0.0 mm
12:23 AM 31.9°F-0.1°C 31.3°F-0.4°C 98% Calm Calm -- 29.68 in1005.1 mb 0.00 in0.0 mm 0.00 in0.0 mm 0.00 in0.0 mm
12:24 AM 31.9°F-0.1°C 31.3°F-0.4°C 98% Calm Calm -- 29.68 in1005.1 mb 0.00 in0.0 mm 0.00 in0.0 mm 0.00 in0.0 mm
12:26 AM 31.9°F-0.1°C 31.3°F-0.4°C 98% Calm Calm -- 29.68 in1005.1 mb 0.00 in0.0 mm 0.00 in0.0 mm 0.00 in0.0 mm
12:27 AM 31.9°F-0.1°C 31.3°F-0.4°C 98% Calm Calm -- 29.68 in1005.1 mb 0.00 in0.0 mm 0.00 in0.0 mm 0.00 in0.0 mm
12:28 AM 32.2°F0.1°C 31.7°F-0.2°C 98% 1.0 mph S1.6 kmh S -- 29.68 in1005.1 mb 0.00 in0.0 mm 0.00 in0.0 mm 0.00 in0.0 mm
12:29 AM 32.2°F0.1°C 31.7°F-0.2°C 98% Calm Calm -- 29.68 in1005.1 mb 0.00 in0.0 mm 0.00 in0.0 mm 0.00 in0.0 mm
12:30 AM 32.2°F0.1°C 31.7°F-0.2°C 98% Calm Calm -- 29.68 in1005.1 mb 0.00 in0.0 mm 0.00 in0.0 mm 0.00 in0.0 mm
12:31 AM 32.4°F0.2°C 31.9°F-0.1°C 98% Calm Calm -- 29.68 in1005.1 mb 0.00 in0.0 mm 0.00 in0.0 mm 0.00 in0.0 mm
12:33 AM 32.4°F0.2°C 31.9°F-0.1°C 98% Calm Calm -- 29.68 in1005.1 mb 0.00 in0.0 mm 0.00 in0.0 mm 0.00 in0.0 mm
12:34 AM 32.4°F0.2°C 31.9°F-0.1°C 98% Calm Calm -- 29.68 in1005.1 mb 0.00 in0.0 mm 0.00 in0.0 mm 0.00 in0.0 mm
12:35 AM 32.4°F0.2°C 31.9°F-0.1°C 98% Calm Calm -- 29.68 in1005.1 mb 0.00 in0.0 mm 0.00 in0.0 mm 0.00 in0.0 mm
12:36 AM 32.4°F0.2°C 31.9°F-0.1°C 98% 2.0 mph SSW3.2 kmh SSW -- 29.68 in1005.1 mb 0.00 in0.0 mm 0.00 in0.0 mm 0.00 in0.0 mm
12:37 AM 32.4°F0.2°C 31.9°F-0.1°C 98% 2.0 mph S3.2 kmh S -- 29.68 in1005.1 mb 0.00 in0.0 mm 0.00 in0.0 mm 0.00 in0.0 mm
12:38 AM 32.5°F0.3°C 32.0°F0.0°C 98% 2.0 mph SSW3.2 kmh SSW -- 29.68 in1005.1 mb 0.00 in0.0 mm 0.00 in0.0 mm 0.00 in0.0 mm
12:42 AM 32.5°F0.3°C 32.0°F0.0°C 98% 2.0 mph SSW3.2 kmh SSW -- 29.68 in1005.1 mb 0.00 in0.0 mm 0.00 in0.0 mm 0.00 in0.0 mm
12:43 AM 32.5°F0.3°C 32.0°F0.0°C 98% 2.0 mph S3.2 kmh S -- 29.68 in1005.1 mb 0.00 in0.0 mm 0.00 in0.0 mm 0.00 in0.0 mm
12:44 AM 32.5°F0.3°C 32.0°F0.0°C 98% 3.0 mph S4.8 kmh S -- 29.68 in1005.1 mb 0.00 in0.0 mm 0.00 in0.0 mm 0.00 in0.0 mm
12:45 AM 32.5°F0.3°C 32.0°F0.0°C 98% 3.0 mph SSW4.8 kmh SSW -- 29.68 in1005.1 mb 0.00 in0.0 mm 0.00 in0.0 mm 0.00 in0.0 mm
12:46 AM 32.5°F0.3°C 32.0°F0.0°C 98% 5.0 mph S8.0 kmh S -- 29.68 in1005.1 mb 0.00 in0.0 mm 0.00 in0.0 mm 0.00 in0.0 mm
12:47 AM 32.5°F0.3°C 32.0°F0.0°C 98% 3.0 mph SSW4.8 kmh SSW -- 29.68 in1005.1 mb 0.00 in0.0 mm 0.00 in0.0 mm 0.00 in0.0 mm
12:48 AM 32.5°F0.3°C 32.0°F0.0°C 98% 4.0 mph S6.4 kmh S -- 29.68 in1005.1 mb 0.00 in0.0 mm 0.00 in0.0 mm 0.00 in0.0 mm
12:49 AM 32.5°F0.3°C 32.0°F0.0°C 98% 3.0 mph SSW4.8 kmh SSW -- 29.68 in1005.1 mb 0.00 in0.0 mm 0.00 in0.0 mm 0.00 in0.0 mm
12:50 AM 32.5°F0.3°C 32.0°F0.0°C 98% 3.0 mph S4.8 kmh S -- 29.68 in1005.1 mb 0.00 in0.0 mm 0.00 in0.0 mm 0.00 in0.0 mm
12:51 AM 32.5°F0.3°C 32.0°F0.0°C 98% 1.0 mph SW1.6 kmh SW -- 29.68 in1005.1 mb 0.00 in0.0 mm 0.00 in0.0 mm 0.00 in0.0 mm
12:52 AM 32.5°F0.3°C 32.0°F0.0°C 98% 4.0 mph SW6.4 kmh SW -- 29.68 in1005.1 mb 0.00 in0.0 mm 0.00 in0.0 mm 0.00 in0.0 mm
12:53 AM 32.4°F0.2°C 31.9°F-0.1°C 98% 5.0 mph SSE8.0 kmh SSE -- 29.68 in1005.1 mb 0.00 in0.0 mm 0.00 in0.0 mm 0.00 in0.0 mm
12:54 AM 32.4°F0.2°C 31.9°F-0.1°C 98% 3.0 mph S4.8 kmh S -- 29.68 in1005.1 mb 0.00 in0.0 mm 0.00 in0.0 mm 0.00 in0.0 mm
12:57 AM 32.4°F0.2°C 31.9°F-0.1°C 98% 5.0 mph SSW8.0 kmh SSW -- 29.68 in1005.1 mb 0.00 in0.0 mm 0.00 in0.0 mm 0.00 in0.0 mm
12:58 AM 32.4°F0.2°C 31.9°F-0.1°C 98% 2.0 mph S3.2 kmh S -- 29.68 in1005.1 mb 0.00 in0.0 mm 0.00 in0.0 mm 0.00 in0.0 mm
12:59 AM 32.4°F0.2°C 31.9°F-0.1°C 98% 3.0 mph SE4.8 kmh SE -- 29.68 in1005.1 mb 0.00 in0.0 mm 0.00 in0.0 mm 0.00 in0.0 mm
01:00 AM 32.2°F0.1°C 31.7°F-0.2°C 98% 4.0 mph S6.4 kmh S -- 29.68 in1005.1 mb 0.00 in0.0 mm 0.00 in0.0 mm 0.00 in0.0 mm
01:01 AM 32.2°F0.1°C 31.7°F-0.2°C 98% 2.0 mph SSW3.2 kmh SSW -- 29.68 in1005.1 mb 0.00 in0.0 mm 0.00 in0.0 mm 0.00 in0.0 mm
01:02 AM 32.2°F0.1°C 31.7°F-0.2°C 98% 2.0 mph S3.2 kmh S -- 29.68 in1005.1 mb 0.00 in0.0 mm 0.00 in0.0 mm 0.00 in0.0 mm
01:04 AM 32.2°F0.1°C 31.7°F-0.2°C 98% 1.0 mph SSW1.6 kmh SSW -- 29.68 in1005.1 mb 0.00 in0.0 mm 0.00 in0.0 mm 0.00 in0.0 mm
01:05 AM 32.2°F0.1°C 31.7°F-0.2°C 98% 2.0 mph S3.2 kmh S -- 29.68 in1005.1 mb 0.00 in0.0 mm 0.00 in0.0 mm 0.00 in0.0 mm
01:07 AM 32.2°F0.1°C 31.7°F-0.2°C 98% 1.0 mph S1.6 kmh S -- 29.68 in1005.1 mb 0.00 in0.0 mm 0.00 in0.0 mm 0.00 in0.0 mm
01:08 AM 32.2°F0.1°C 31.7°F-0.2°C 98% 2.0 mph SSW3.2 kmh SSW -- 29.68 in1005.1 mb 0.00 in0.0 mm 0.00 in0.0 mm 0.00 in0.0 mm
01:09 AM 32.2°F0.1°C 31.7°F-0.2°C 98% 1.0 mph WSW1.6 kmh WSW -- 29.69 in1005.4 mb 0.00 in0.0 mm 0.00 in0.0 mm 0.00 in0.0 mm
01:10 AM 32.2°F0.1°C 31.7°F-0.2°C 98% 1.0 mph SW1.6 kmh SW -- 29.69 in1005.4 mb 0.00 in0.0 mm 0.00 in0.0 mm 0.00 in0.0 mm
01:11 AM 32.2°F0.1°C 31.7°F-0.2°C 98% 3.0 mph S4.8 kmh S -- 29.68 in1005.1 mb 0.00 in0.0 mm 0.00 in0.0 mm 0.00 in0.0 mm
01:12 AM 32.2°F0.1°C 31.7°F-0.2°C 98% 3.0 mph SSW4.8 kmh SSW -- 29.68 in1005.1 mb 0.00 in0.0 mm 0.00 in0.0 mm 0.00 in0.0 mm
01:13 AM 32.2°F0.1°C 31.7°F-0.2°C 98% 2.0 mph S3.2 kmh S -- 29.68 in1005.1 mb 0.00 in0.0 mm 0.00 in0.0 mm 0.00 in0.0 mm
01:15 AM 32.2°F0.1°C 31.7°F-0.2°C 98% 3.0 mph SSW4.8 kmh SSW -- 29.68 in1005.1 mb 0.00 in0.0 mm 0.00 in0.0 mm 0.00 in0.0 mm
01:16 AM 32.2°F0.1°C 31.7°F-0.2°C 98% 1.0 mph SE1.6 kmh SE -- 29.68 in1005.1 mb 0.00 in0.0 mm 0.00 in0.0 mm 0.00 in0.0 mm
01:17 AM 32.2°F0.1°C 31.7°F-0.2°C 98% 3.0 mph W4.8 kmh W -- 29.68 in1005.1 mb 0.00 in0.0 mm 0.00 in0.0 mm 0.00 in0.0 mm
01:18 AM 32.2°F0.1°C 31.7°F-0.2°C 98% 3.0 mph S4.8 kmh S -- 29.68 in1005.1 mb 0.00 in0.0 mm 0.00 in0.0 mm 0.00 in0.0 mm
01:21 AM 32.2°F0.1°C 31.7°F-0.2°C 98% 4.0 mph S6.4 kmh S -- 29.68 in1005.1 mb 0.00 in0.0 mm 0.00 in0.0 mm 0.00 in0.0 mm
01:22 AM 32.2°F0.1°C 31.7°F-0.2°C 98% 3.0 mph SSE4.8 kmh SSE -- 29.67 in1004.7 mb 0.00 in0.0 mm 0.00 in0.0 mm 0.00 in0.0 mm
01:23 AM 32.2°F0.1°C 31.7°F-0.2°C 98% 2.0 mph WSW3.2 kmh WSW -- 29.67 in1004.7 mb 0.00 in0.0 mm 0.00 in0.0 mm 0.00 in0.0 mm
01:24 AM 32.2°F0.1°C 31.7°F-0.2°C 98% 3.0 mph S4.8 kmh S -- 29.67 in1004.7 mb 0.00 in0.0 mm 0.00 in0.0 mm 0.00 in0.0 mm
01:25 AM 32.2°F0.1°C 31.7°F-0.2°C 98% 3.0 mph SSW4.8 kmh SSW -- 29.68 in1005.1 mb 0.00 in0.0 mm 0.00 in0.0 mm 0.00 in0.0 mm
01:26 AM 32.2°F0.1°C 31.7°F-0.2°C 98% 4.0 mph SSW6.4 kmh SSW -- 29.68 in1005.1 mb 0.00 in0.0 mm 0.00 in0.0 mm 0.00 in0.0 mm
01:27 AM 32.2°F0.1°C 31.7°F-0.2°C 98% 3.0 mph S4.8 kmh S -- 29.68 in1005.1 mb 0.00 in0.0 mm 0.00 in0.0 mm 0.00 in0.0 mm
01:28 AM 32.2°F0.1°C 31.7°F-0.2°C 98% 2.0 mph NNE3.2 kmh NNE -- 29.67 in1004.7 mb 0.00 in0.0 mm 0.00 in0.0 mm 0.00 in0.0 mm
01:29 AM 32.2°F0.1°C 31.7°F-0.2°C 98% 3.0 mph S4.8 kmh S -- 29.68 in1005.1 mb 0.00 in0.0 mm 0.00 in0.0 mm 0.00 in0.0 mm
01:30 AM 32.2°F0.1°C 31.7°F-0.2°C 98% 2.0 mph SW3.2 kmh SW -- 29.68 in1005.1 mb 0.00 in0.0 mm 0.00 in0.0 mm 0.00 in0.0 mm
01:31 AM 32.2°F0.1°C 31.7°F-0.2°C 98% 3.0 mph SW4.8 kmh SW -- 29.68 in1005.1 mb 0.00 in0.0 mm 0.00 in0.0 mm 0.00 in0.0 mm
01:32 AM 32.2°F0.1°C 31.7°F-0.2°C 98% 3.0 mph S4.8 kmh S -- 29.67 in1004.7 mb 0.00 in0.0 mm 0.00 in0.0 mm 0.00 in0.0 mm
01:33 AM 32.2°F0.1°C 31.7°F-0.2°C 98% 4.0 mph NW6.4 kmh NW -- 29.67 in1004.7 mb 0.00 in0.0 mm 0.00 in0.0 mm 0.00 in0.0 mm
01:34 AM 32.2°F0.1°C 31.7°F-0.2°C 98% 4.0 mph SSW6.4 kmh SSW -- 29.67 in1004.7 mb 0.00 in0.0 mm 0.00 in0.0 mm 0.00 in0.0 mm
01:35 AM 32.2°F0.1°C 31.7°F-0.2°C 98% 2.0 mph S3.2 kmh S -- 29.67 in1004.7 mb 0.00 in0.0 mm 0.00 in0.0 mm 0.00 in0.0 mm
01:36 AM 32.2°F0.1°C 31.7°F-0.2°C 98% 2.0 mph SSW3.2 kmh SSW -- 29.67 in1004.7 mb 0.00 in0.0 mm 0.00 in0.0 mm 0.00 in0.0 mm
01:37 AM 32.2°F0.1°C 31.7°F-0.2°C 98% 4.0 mph S6.4 kmh S -- 29.68 in1005.1 mb 0.00 in0.0 mm 0.00 in0.0 mm 0.00 in0.0 mm
01:38 AM 32.2°F0.1°C 31.7°F-0.2°C 98% 3.0 mph S4.8 kmh S -- 29.68 in1005.1 mb 0.00 in0.0 mm 0.00 in0.0 mm 0.00 in0.0 mm
01:39 AM 32.2°F0.1°C 31.7°F-0.2°C 98% 3.0 mph SSW4.8 kmh SSW -- 29.68 in1005.1 mb 0.00 in0.0 mm 0.00 in0.0 mm 0.00 in0.0 mm
01:40 AM 31.9°F-0.1°C 31.3°F-0.4°C 98% 3.0 mph W4.8 kmh W -- 29.68 in1005.1 mb 0.00 in0.0 mm 0.00 in0.0 mm 0.00 in0.0 mm
01:41 AM 31.9°F-0.1°C 31.3°F-0.4°C 98% 2.0 mph WSW3.2 kmh WSW -- 29.68 in1005.1 mb 0.00 in0.0 mm 0.00 in0.0 mm 0.00 in0.0 mm
01:42 AM 31.9°F-0.1°C 31.3°F-0.4°C 98% 2.0 mph S3.2 kmh S -- 29.68 in1005.1 mb 0.00 in0.0 mm 0.00 in0.0 mm 0.00 in0.0 mm
01:43 AM 31.9°F-0.1°C 31.3°F-0.4°C 98% 4.0 mph SW6.4 kmh SW -- 29.68 in1005.1 mb 0.00 in0.0 mm 0.00 in0.0 mm 0.00 in0.0 mm
01:44 AM 31.9°F-0.1°C 31.3°F-0.4°C 98% 3.0 mph SW4.8 kmh SW -- 29.68 in1005.1 mb 0.00 in0.0 mm 0.00 in0.0 mm 0.00 in0.0 mm
01:45 AM 31.9°F-0.1°C 31.3°F-0.4°C 98% 4.0 mph SSW6.4 kmh SSW -- 29.68 in1005.1 mb 0.00 in0.0 mm 0.00 in0.0 mm 0.00 in0.0 mm
01:46 AM 31.9°F-0.1°C 31.3°F-0.4°C 98% 3.0 mph SSW4.8 kmh SSW -- 29.68 in1005.1 mb 0.00 in0.0 mm 0.00 in0.0 mm 0.00 in0.0 mm
01:47 AM 31.9°F-0.1°C 31.3°F-0.4°C 98% 4.0 mph S6.4 kmh S -- 29.68 in1005.1 mb 0.00 in0.0 mm 0.00 in0.0 mm 0.00 in0.0 mm
01:49 AM 31.9°F-0.1°C 31.3°F-0.4°C 98% 4.0 mph SSE6.4 kmh SSE -- 29.68 in1005.1 mb 0.00 in0.0 mm 0.00 in0.0 mm 0.00 in0.0 mm
01:50 AM 31.9°F-0.1°C 31.3°F-0.4°C 98% 4.0 mph S6.4 kmh S -- 29.68 in1005.1 mb 0.00 in0.0 mm 0.00 in0.0 mm 0.00 in0.0 mm
01:51 AM 31.9°F-0.1°C 31.3°F-0.4°C 98% 4.0 mph SSW6.4 kmh SSW -- 29.68 in1005.1 mb 0.00 in0.0 mm 0.00 in0.0 mm 0.00 in0.0 mm
01:52 AM 31.7°F-0.2°C 31.1°F-0.5°C 98% 3.0 mph S4.8 kmh S -- 29.68 in1005.1 mb 0.00 in0.0 mm 0.00 in0.0 mm 0.00 in0.0 mm
01:53 AM 31.7°F-0.2°C 31.1°F-0.5°C 98% 6.0 mph SSW9.7 kmh SSW -- 29.68 in1005.1 mb 0.00 in0.0 mm 0.00 in0.0 mm 0.00 in0.0 mm
01:54 AM 31.7°F-0.2°C 31.1°F-0.5°C 98% 5.0 mph SW8.0 kmh SW -- 29.67 in1004.7 mb 0.00 in0.0 mm 0.00 in0.0 mm 0.00 in0.0 mm
01:55 AM 31.7°F-0.2°C 31.1°F-0.5°C 98% 4.0 mph SSW6.4 kmh SSW -- 29.67 in1004.7 mb 0.00 in0.0 mm 0.00 in0.0 mm 0.00 in0.0 mm
01:56 AM 31.7°F-0.2°C 31.1°F-0.5°C 98% 6.0 mph S9.7 kmh S -- 29.67 in1004.7 mb 0.00 in0.0 mm 0.00 in0.0 mm 0.00 in0.0 mm
01:57 AM 31.7°F-0.2°C 31.1°F-0.5°C 98% 5.0 mph S8.0 kmh S -- 29.67 in1004.7 mb 0.00 in0.0 mm 0.00 in0.0 mm 0.00 in0.0 mm
01:58 AM 31.7°F-0.2°C 31.1°F-0.5°C 98% 4.0 mph SSW6.4 kmh SSW -- 29.67 in1004.7 mb 0.00 in0.0 mm 0.00 in0.0 mm 0.00 in0.0 mm
01:59 AM 31.7°F-0.2°C 31.1°F-0.5°C 98% 7.0 mph S11.3 kmh S -- 29.68 in1005.1 mb 0.00 in0.0 mm 0.00 in0.0 mm 0.00 in0.0 mm
02:00 AM 31.6°F-0.2°C 31.1°F-0.5°C 98% 7.0 mph SW11.3 kmh SW -- 29.68 in1005.1 mb 0.00 in0.0 mm 0.00 in0.0 mm 0.00 in0.0 mm
02:01 AM 31.6°F-0.2°C 31.1°F-0.5°C 98% 3.0 mph SSW4.8 kmh SSW -- 29.68 in1005.1 mb 0.00 in0.0 mm 0.00 in0.0 mm 0.00 in0.0 mm
02:02 AM 31.6°F-0.2°C 31.1°F-0.5°C 98% 5.0 mph WSW8.0 kmh WSW -- 29.68 in1005.1 mb 0.00 in0.0 mm 0.00 in0.0 mm 0.00 in0.0 mm
02:03 AM 31.6°F-0.2°C 31.1°F-0.5°C 98% 4.0 mph SW6.4 kmh SW -- 29.68 in1005.1 mb 0.00 in0.0 mm 0.00 in0.0 mm 0.00 in0.0 mm
02:04 AM 31.6°F-0.2°C 31.1°F-0.5°C 98% 4.0 mph SSW6.4 kmh SSW -- 29.68 in1005.1 mb 0.00 in0.0 mm 0.00 in0.0 mm 0.00 in0.0 mm
02:05 AM 31.6°F-0.2°C 31.1°F-0.5°C 98% 2.0 mph W3.2 kmh W -- 29.68 in1005.1 mb 0.00 in0.0 mm 0.00 in0.0 mm 0.00 in0.0 mm
02:06 AM 31.6°F-0.2°C 31.1°F-0.5°C 98% 5.0 mph S8.0 kmh S -- 29.68 in1005.1 mb 0.00 in0.0 mm 0.00 in0.0 mm 0.00 in0.0 mm
02:07 AM 31.6°F-0.2°C 31.1°F-0.5°C 98% 5.0 mph E8.0 kmh E -- 29.68 in1005.1 mb 0.00 in0.0 mm 0.00 in0.0 mm 0.00 in0.0 mm
02:08 AM 31.6°F-0.2°C 31.1°F-0.5°C 98% 4.0 mph WSW6.4 kmh WSW -- 29.68 in1005.1 mb 0.00 in0.0 mm 0.00 in0.0 mm 0.00 in0.0 mm
02:09 AM 31.6°F-0.2°C 31.1°F-0.5°C 98% 2.0 mph W3.2 kmh W -- 29.68 in1005.1 mb 0.00 in0.0 mm 0.00 in0.0 mm 0.00 in0.0 mm
02:10 AM 31.6°F-0.2°C 31.1°F-0.5°C 98% 3.0 mph S4.8 kmh S -- 29.68 in1005.1 mb 0.00 in0.0 mm 0.00 in0.0 mm 0.00 in0.0 mm
02:12 AM 31.6°F-0.2°C 31.1°F-0.5°C 98% 2.0 mph WSW3.2 kmh WSW -- 29.68 in1005.1 mb 0.00 in0.0 mm 0.00 in0.0 mm 0.00 in0.0 mm
02:13 AM 31.6°F-0.2°C 31.1°F-0.5°C 98% 4.0 mph SSW6.4 kmh SSW -- 29.68 in1005.1 mb 0.00 in0.0 mm 0.00 in0.0 mm 0.00 in0.0 mm
02:14 AM 31.6°F-0.2°C 31.1°F-0.5°C 98% 2.0 mph WSW3.2 kmh WSW -- 29.68 in1005.1 mb 0.00 in0.0 mm 0.00 in0.0 mm 0.00 in0.0 mm
02:15 AM 31.6°F-0.2°C 31.1°F-0.5°C 98% 4.0 mph S6.4 kmh S -- 29.68 in1005.1 mb 0.00 in0.0 mm 0.00 in0.0 mm 0.00 in0.0 mm
02:17 AM 31.6°F-0.2°C 31.1°F-0.5°C 98% 5.0 mph SSE8.0 kmh SSE -- 29.67 in1004.7 mb 0.00 in0.0 mm 0.00 in0.0 mm 0.00 in0.0 mm
02:18 AM 31.6°F-0.2°C 31.1°F-0.5°C 98% 6.0 mph ESE9.7 kmh ESE -- 29.68 in1005.1 mb 0.00 in0.0 mm 0.00 in0.0 mm 0.00 in0.0 mm
02:19 AM 31.6°F-0.2°C 31.1°F-0.5°C 98% 2.0 mph S3.2 kmh S -- 29.68 in1005.1 mb 0.00 in0.0 mm 0.00 in0.0 mm 0.00 in0.0 mm
02:20 AM 31.6°F-0.2°C 31.1°F-0.5°C 98% 3.0 mph S4.8 kmh S -- 29.68 in1005.1 mb 0.00 in0.0 mm 0.00 in0.0 mm 0.00 in0.0 mm
02:21 AM 31.6°F-0.2°C 31.1°F-0.5°C 98% 4.0 mph NW6.4 kmh NW -- 29.68 in1005.1 mb 0.00 in0.0 mm 0.00 in0.0 mm 0.00 in0.0 mm
02:22 AM 31.6°F-0.2°C 31.1°F-0.5°C 98% 5.0 mph WSW8.0 kmh WSW -- 29.68 in1005.1 mb 0.00 in0.0 mm 0.00 in0.0 mm 0.00 in0.0 mm
02:23 AM 31.5°F-0.3°C 31.0°F-0.6°C 98% 4.0 mph SSW6.4 kmh SSW -- 29.68 in1005.1 mb 0.00 in0.0 mm 0.00 in0.0 mm 0.00 in0.0 mm
02:24 AM 31.5°F-0.3°C 31.0°F-0.6°C 98% 2.0 mph SW3.2 kmh SW -- 29.68 in1005.1 mb 0.00 in0.0 mm 0.00 in0.0 mm 0.00 in0.0 mm
02:25 AM 31.5°F-0.3°C 31.0°F-0.6°C 98% 5.0 mph SSE8.0 kmh SSE -- 29.68 in1005.1 mb 0.00 in0.0 mm 0.00 in0.0 mm 0.00 in0.0 mm
02:26 AM 31.5°F-0.3°C 31.0°F-0.6°C 98% 4.0 mph SSE6.4 kmh SSE -- 29.68 in1005.1 mb 0.00 in0.0 mm 0.00 in0.0 mm 0.00 in0.0 mm
02:27 AM 31.5°F-0.3°C 31.0°F-0.6°C 98% Calm Calm -- 29.68 in1005.1 mb 0.00 in0.0 mm 0.00 in0.0 mm 0.00 in0.0 mm
02:28 AM 31.5°F-0.3°C 31.0°F-0.6°C 98% 2.0 mph WNW3.2 kmh WNW -- 29.68 in1005.1 mb 0.00 in0.0 mm 0.00 in0.0 mm 0.00 in0.0 mm
02:29 AM 31.5°F-0.3°C 31.0°F-0.6°C 98% 4.0 mph W6.4 kmh W -- 29.68 in1005.1 mb 0.00 in0.0 mm 0.00 in0.0 mm 0.00 in0.0 mm
02:30 AM 31.5°F-0.3°C 31.0°F-0.6°C 98% 3.0 mph SSW4.8 kmh SSW -- 29.68 in1005.1 mb 0.00 in0.0 mm 0.00 in0.0 mm 0.00 in0.0 mm
02:31 AM 31.5°F-0.3°C 31.0°F-0.6°C 98% 2.0 mph W3.2 kmh W -- 29.68 in1005.1 mb 0.00 in0.0 mm 0.00 in0.0 mm 0.00 in0.0 mm
02:32 AM 31.5°F-0.3°C 31.0°F-0.6°C 98% 4.0 mph SW6.4 kmh SW -- 29.68 in1005.1 mb 0.00 in0.0 mm 0.00 in0.0 mm 0.00 in0.0 mm
02:33 AM 31.5°F-0.3°C 31.0°F-0.6°C 98% 3.0 mph W4.8 kmh W -- 29.68 in1005.1 mb 0.00 in0.0 mm 0.00 in0.0 mm 0.00 in0.0 mm
02:34 AM 31.5°F-0.3°C 31.0°F-0.6°C 98% 2.0 mph SW3.2 kmh SW -- 29.68 in1005.1 mb 0.00 in0.0 mm 0.00 in0.0 mm 0.00 in0.0 mm
02:35 AM 31.5°F-0.3°C 31.0°F-0.6°C 98% 3.0 mph WSW4.8 kmh WSW -- 29.68 in1005.1 mb 0.00 in0.0 mm 0.00 in0.0 mm 0.00 in0.0 mm
02:36 AM 31.5°F-0.3°C 31.0°F-0.6°C 98% 2.0 mph SW3.2 kmh SW -- 29.68 in1005.1 mb 0.00 in0.0 mm 0.00 in0.0 mm 0.00 in0.0 mm
02:37 AM 31.5°F-0.3°C 31.0°F-0.6°C 98% 1.0 mph SSE1.6 kmh SSE -- 29.68 in1005.1 mb 0.00 in0.0 mm 0.00 in0.0 mm 0.00 in0.0 mm
02:38 AM 31.5°F-0.3°C 31.0°F-0.6°C 98% 1.0 mph S1.6 kmh S -- 29.68 in1005.1 mb 0.00 in0.0 mm 0.00 in0.0 mm 0.00 in0.0 mm
02:39 AM 31.5°F-0.3°C 31.0°F-0.6°C 98% 2.0 mph SW3.2 kmh SW -- 29.69 in1005.4 mb 0.00 in0.0 mm 0.00 in0.0 mm 0.00 in0.0 mm
02:40 AM 31.5°F-0.3°C 31.0°F-0.6°C 98% Calm Calm -- 29.69 in1005.4 mb 0.00 in0.0 mm 0.00 in0.0 mm 0.00 in0.0 mm
02:41 AM 31.5°F-0.3°C 31.0°F-0.6°C 98% 3.0 mph SSW4.8 kmh SSW -- 29.68 in1005.1 mb 0.00 in0.0 mm 0.00 in0.0 mm 0.00 in0.0 mm
02:42 AM 31.2°F-0.4°C 30.8°F-0.7°C 98% 3.0 mph S4.8 kmh S -- 29.68 in1005.1 mb 0.00 in0.0 mm 0.00 in0.0 mm 0.00 in0.0 mm
02:43 AM 31.2°F-0.4°C 30.8°F-0.7°C 98% 1.0 mph S1.6 kmh S -- 29.68 in1005.1 mb 0.00 in0.0 mm 0.00 in0.0 mm 0.00 in0.0 mm
02:44 AM 31.2°F-0.4°C 30.8°F-0.7°C 98% 2.0 mph S3.2 kmh S -- 29.68 in1005.1 mb 0.00 in0.0 mm 0.00 in0.0 mm 0.00 in0.0 mm
02:45 AM 31.2°F-0.4°C 30.8°F-0.7°C 98% 1.0 mph SSW1.6 kmh SSW -- 29.68 in1005.1 mb 0.00 in0.0 mm 0.00 in0.0 mm 0.00 in0.0 mm
02:46 AM 31.2°F-0.4°C 30.8°F-0.7°C 98% 3.0 mph S4.8 kmh S -- 29.68 in1005.1 mb 0.00 in0.0 mm 0.00 in0.0 mm 0.00 in0.0 mm
02:47 AM 31.2°F-0.4°C 30.8°F-0.7°C 98% 4.0 mph SSW6.4 kmh SSW -- 29.68 in1005.1 mb 0.00 in0.0 mm 0.00 in0.0 mm 0.00 in0.0 mm
02:48 AM 31.2°F-0.4°C 30.8°F-0.7°C 98% 4.0 mph SSE6.4 kmh SSE -- 29.68 in1005.1 mb 0.00 in0.0 mm 0.00 in0.0 mm 0.00 in0.0 mm
02:49 AM 31.2°F-0.4°C 30.8°F-0.7°C 98% 2.0 mph S3.2 kmh S -- 29.68 in1005.1 mb 0.00 in0.0 mm 0.00 in0.0 mm 0.00 in0.0 mm
02:50 AM 31.2°F-0.4°C 30.8°F-0.7°C 98% 2.0 mph SSW3.2 kmh SSW -- 29.69 in1005.4 mb 0.00 in0.0 mm 0.00 in0.0 mm 0.00 in0.0 mm
02:51 AM 31.2°F-0.4°C 30.8°F-0.7°C 98% 3.0 mph S4.8 kmh S -- 29.68 in1005.1 mb 0.00 in0.0 mm 0.00 in0.0 mm 0.00 in0.0 mm
02:52 AM 31.2°F-0.4°C 30.8°F-0.7°C 98% 2.0 mph S3.2 kmh S -- 29.68 in1005.1 mb 0.00 in0.0 mm 0.00 in0.0 mm 0.00 in0.0 mm
02:53 AM 31.2°F-0.4°C 30.8°F-0.7°C 98% 3.0 mph S4.8 kmh S -- 29.68 in1005.1 mb 0.00 in0.0 mm 0.00 in0.0 mm 0.00 in0.0 mm
02:54 AM 31.2°F-0.4°C 30.8°F-0.7°C 98% 3.0 mph SSW4.8 kmh SSW -- 29.69 in1005.4 mb 0.00 in0.0 mm 0.00 in0.0 mm 0.00 in0.0 mm
02:55 AM 31.2°F-0.4°C 30.8°F-0.7°C 98% 4.0 mph SSW6.4 kmh SSW -- 29.69 in1005.4 mb 0.00 in0.0 mm 0.00 in0.0 mm 0.00 in0.0 mm
02:56 AM 31.2°F-0.4°C 30.8°F-0.7°C 98% 3.0 mph SSW4.8 kmh SSW -- 29.69 in1005.4 mb 0.00 in0.0 mm 0.00 in0.0 mm 0.00 in0.0 mm
02:57 AM 31.2°F-0.4°C 30.8°F-0.7°C 98% 4.0 mph SW6.4 kmh SW -- 29.68 in1005.1 mb 0.00 in0.0 mm 0.00 in0.0 mm 0.00 in0.0 mm
02:58 AM 31.2°F-0.4°C 30.8°F-0.7°C 98% 3.0 mph S4.8 kmh S -- 29.68 in1005.1 mb 0.00 in0.0 mm 0.00 in0.0 mm 0.00 in0.0 mm
02:59 AM 31.2°F-0.4°C 30.8°F-0.7°C 98% 3.0 mph SW4.8 kmh SW -- 29.68 in1005.1 mb 0.00 in0.0 mm 0.00 in0.0 mm 0.00 in0.0 mm
03:00 AM 31.2°F-0.4°C 30.8°F-0.7°C 98% 3.0 mph SSW4.8 kmh SSW -- 29.68 in1005.1 mb 0.00 in0.0 mm 0.00 in0.0 mm 0.00 in0.0 mm
03:01 AM 31.2°F-0.4°C 30.8°F-0.7°C 98% 2.0 mph SW3.2 kmh SW -- 29.69 in1005.4 mb 0.00 in0.0 mm 0.00 in0.0 mm 0.00 in0.0 mm
03:02 AM 31.2°F-0.4°C 30.8°F-0.7°C 98% 3.0 mph SSW4.8 kmh SSW -- 29.69 in1005.4 mb 0.00 in0.0 mm 0.00 in0.0 mm 0.00 in0.0 mm
03:04 AM 31.2°F-0.4°C 30.8°F-0.7°C 98% 4.0 mph S6.4 kmh S -- 29.68 in1005.1 mb 0.00 in0.0 mm 0.00 in0.0 mm 0.00 in0.0 mm
03:05 AM 31.2°F-0.4°C 30.8°F-0.7°C 98% 4.0 mph SSW6.4 kmh SSW -- 29.68 in1005.1 mb 0.00 in0.0 mm 0.00 in0.0 mm 0.00 in0.0 mm
03:06 AM 31.2°F-0.4°C 30.8°F-0.7°C 98% 3.0 mph SW4.8 kmh SW -- 29.68 in1005.1 mb 0.00 in0.0 mm 0.00 in0.0 mm 0.00 in0.0 mm
03:07 AM 31.2°F-0.4°C 30.8°F-0.7°C 98% 3.0 mph SSE4.8 kmh SSE -- 29.69 in1005.4 mb 0.00 in0.0 mm 0.00 in0.0 mm 0.00 in0.0 mm
03:08 AM 31.2°F-0.4°C 30.8°F-0.7°C 98% 4.0 mph S6.4 kmh S -- 29.68 in1005.1 mb 0.00 in0.0 mm 0.00 in0.0 mm 0.00 in0.0 mm
03:09 AM 31.2°F-0.4°C 30.8°F-0.7°C 98% 5.0 mph S8.0 kmh S -- 29.69 in1005.4 mb 0.00 in0.0 mm 0.00 in0.0 mm 0.00 in0.0 mm
03:10 AM 31.2°F-0.4°C 30.8°F-0.7°C 98% 4.0 mph S6.4 kmh S -- 29.69 in1005.4 mb 0.00 in0.0 mm 0.00 in0.0 mm 0.00 in0.0 mm
03:11 AM 31.2°F-0.4°C 30.8°F-0.7°C 98% 2.0 mph SE3.2 kmh SE -- 29.69 in1005.4 mb 0.00 in0.0 mm 0.00 in0.0 mm 0.00 in0.0 mm
03:12 AM 31.2°F-0.4°C 30.8°F-0.7°C 98% 2.0 mph S3.2 kmh S -- 29.69 in1005.4 mb 0.00 in0.0 mm 0.00 in0.0 mm 0.00 in0.0 mm
03:13 AM 31.2°F-0.4°C 30.8°F-0.7°C 98% 2.0 mph SSE3.2 kmh SSE -- 29.69 in1005.4 mb 0.00 in0.0 mm 0.00 in0.0 mm 0.00 in0.0 mm
03:16 AM 31.2°F-0.4°C 30.8°F-0.7°C 98% 2.0 mph S3.2 kmh S -- 29.69 in1005.4 mb 0.00 in0.0 mm 0.00 in0.0 mm 0.00 in0.0 mm
03:17 AM 31.2°F-0.4°C 30.8°F-0.7°C 98% Calm Calm -- 29.69 in1005.4 mb 0.00 in0.0 mm 0.00 in0.0 mm 0.00 in0.0 mm
03:18 AM 31.2°F-0.4°C 30.8°F-0.7°C 98% Calm Calm -- 29.68 in1005.1 mb 0.00 in0.0 mm 0.00 in0.0 mm 0.00 in0.0 mm
03:19 AM 31.2°F-0.4°C 30.8°F-0.7°C 98% Calm Calm -- 29.69 in1005.4 mb 0.00 in0.0 mm 0.00 in0.0 mm 0.00 in0.0 mm
03:20 AM 31.1°F-0.5°C 30.6°F-0.8°C 98% Calm Calm -- 29.69 in1005.4 mb 0.00 in0.0 mm 0.00 in0.0 mm 0.00 in0.0 mm
03:21 AM 31.1°F-0.5°C 30.6°F-0.8°C 98% 3.0 mph SSW4.8 kmh SSW -- 29.69 in1005.4 mb 0.00 in0.0 mm 0.00 in0.0 mm 0.00 in0.0 mm
03:22 AM 31.1°F-0.5°C 30.6°F-0.8°C 98% 3.0 mph SSE4.8 kmh SSE -- 29.69 in1005.4 mb 0.00 in0.0 mm 0.00 in0.0 mm 0.00 in0.0 mm
03:23 AM 31.1°F-0.5°C 30.6°F-0.8°C 98% 2.0 mph S3.2 kmh S -- 29.69 in1005.4 mb 0.00 in0.0 mm 0.00 in0.0 mm 0.00 in0.0 mm
03:26 AM 31.1°F-0.5°C 30.6°F-0.8°C 98% 3.0 mph S4.8 kmh S -- 29.69 in1005.4 mb 0.00 in0.0 mm 0.00 in0.0 mm 0.00 in0.0 mm
03:28 AM 31.1°F-0.5°C 30.6°F-0.8°C 98% 2.0 mph S3.2 kmh S -- 29.69 in1005.4 mb 0.00 in0.0 mm 0.00 in0.0 mm 0.00 in0.0 mm
03:29 AM 31.1°F-0.5°C 30.6°F-0.8°C 98% 3.0 mph SSW4.8 kmh SSW -- 29.69 in1005.4 mb 0.00 in0.0 mm 0.00 in0.0 mm 0.00 in0.0 mm
03:30 AM 31.1°F-0.5°C 30.6°F-0.8°C 98% 3.0 mph S4.8 kmh S -- 29.69 in1005.4 mb 0.00 in0.0 mm 0.00 in0.0 mm 0.00 in0.0 mm
03:31 AM 31.1°F-0.5°C 30.6°F-0.8°C 98% 4.0 mph SSE6.4 kmh SSE -- 29.69 in1005.4 mb 0.00 in0.0 mm 0.00 in0.0 mm 0.00 in0.0 mm
03:32 AM 31.1°F-0.5°C 30.6°F-0.8°C 98% 2.0 mph S3.2 kmh S -- 29.69 in1005.4 mb 0.00 in0.0 mm 0.00 in0.0 mm 0.00 in0.0 mm
03:33 AM 31.1°F-0.5°C 30.6°F-0.8°C 98% Calm Calm -- 29.69 in1005.4 mb 0.00 in0.0 mm 0.00 in0.0 mm 0.00 in0.0 mm
03:34 AM 31.1°F-0.5°C 30.6°F-0.8°C 98% 1.0 mph S1.6 kmh S -- 29.69 in1005.4 mb 0.00 in0.0 mm 0.00 in0.0 mm 0.00 in0.0 mm
03:35 AM 31.1°F-0.5°C 30.6°F-0.8°C 98% 2.0 mph SSW3.2 kmh SSW -- 29.69 in1005.4 mb 0.00 in0.0 mm 0.00 in0.0 mm 0.00 in0.0 mm
03:36 AM 31.1°F-0.5°C 30.6°F-0.8°C 98% Calm Calm -- 29.69 in1005.4 mb 0.00 in0.0 mm 0.00 in0.0 mm 0.00 in0.0 mm
03:37 AM 31.1°F-0.5°C 30.6°F-0.8°C 98% Calm Calm -- 29.69 in1005.4 mb 0.00 in0.0 mm 0.00 in0.0 mm 0.00 in0.0 mm
03:39 AM 31.1°F-0.5°C 30.6°F-0.8°C 98% Calm Calm -- 29.69 in1005.4 mb 0.00 in0.0 mm 0.00 in0.0 mm 0.00 in0.0 mm
03:40 AM 31.1°F-0.5°C 30.6°F-0.8°C 98% 1.0 mph S1.6 kmh S -- 29.69 in1005.4 mb 0.00 in0.0 mm 0.00 in0.0 mm 0.00 in0.0 mm
03:41 AM 31.1°F-0.5°C 30.6°F-0.8°C 98% 2.0 mph S3.2 kmh S -- 29.69 in1005.4 mb 0.00 in0.0 mm 0.00 in0.0 mm 0.00 in0.0 mm
03:42 AM 30.8°F-0.7°C 30.2°F-1.0°C 98% 3.0 mph SSE4.8 kmh SSE -- 29.69 in1005.4 mb 0.00 in0.0 mm 0.00 in0.0 mm 0.00 in0.0 mm
03:44 AM 30.8°F-0.7°C 30.2°F-1.0°C 98% 2.0 mph S3.2 kmh S -- 29.69 in1005.4 mb 0.00 in0.0 mm 0.00 in0.0 mm 0.00 in0.0 mm
03:45 AM 30.8°F-0.7°C 30.2°F-1.0°C 98% 1.0 mph SSW1.6 kmh SSW -- 29.69 in1005.4 mb 0.00 in0.0 mm 0.00 in0.0 mm 0.00 in0.0 mm
03:46 AM 30.8°F-0.7°C 30.2°F-1.0°C 98% 2.0 mph S3.2 kmh S -- 29.69 in1005.4 mb 0.00 in0.0 mm 0.00 in0.0 mm 0.00 in0.0 mm
03:47 AM 30.8°F-0.7°C 30.2°F-1.0°C 98% 4.0 mph S6.4 kmh S -- 29.70 in1005.8 mb 0.00 in0.0 mm 0.00 in0.0 mm 0.00 in0.0 mm
03:49 AM 30.8°F-0.7°C 30.2°F-1.0°C 98% 3.0 mph SSE4.8 kmh SSE -- 29.70 in1005.8 mb 0.00 in0.0 mm 0.00 in0.0 mm 0.00 in0.0 mm
03:50 AM 30.8°F-0.7°C 30.2°F-1.0°C 98% 2.0 mph S3.2 kmh S -- 29.70 in1005.8 mb 0.00 in0.0 mm 0.00 in0.0 mm 0.00 in0.0 mm
03:51 AM 30.8°F-0.7°C 30.2°F-1.0°C 98% 3.0 mph S4.8 kmh S -- 29.70 in1005.8 mb 0.00 in0.0 mm 0.00 in0.0 mm 0.00 in0.0 mm
03:52 AM 30.8°F-0.7°C 30.2°F-1.0°C 98% 2.0 mph SSW3.2 kmh SSW -- 29.69 in1005.4 mb 0.00 in0.0 mm 0.00 in0.0 mm 0.00 in0.0 mm
03:53 AM 30.8°F-0.7°C 30.2°F-1.0°C 98% 1.0 mph SW1.6 kmh SW -- 29.70 in1005.8 mb 0.00 in0.0 mm 0.00 in0.0 mm 0.00 in0.0 mm
03:54 AM 30.8°F-0.7°C 30.2°F-1.0°C 98% 1.0 mph SSW1.6 kmh SSW -- 29.70 in1005.8 mb 0.00 in0.0 mm 0.00 in0.0 mm 0.00 in0.0 mm
03:55 AM 30.8°F-0.7°C 30.2°F-1.0°C 98% 3.0 mph SSE4.8 kmh SSE -- 29.70 in1005.8 mb 0.00 in0.0 mm 0.00 in0.0 mm 0.00 in0.0 mm
03:56 AM 30.8°F-0.7°C 30.2°F-1.0°C 98% 4.0 mph S6.4 kmh S -- 29.70 in1005.8 mb 0.00 in0.0 mm 0.00 in0.0 mm 0.00 in0.0 mm
03:57 AM 30.8°F-0.7°C 30.2°F-1.0°C 98% 3.0 mph SE4.8 kmh SE -- 29.70 in1005.8 mb 0.00 in0.0 mm 0.00 in0.0 mm 0.00 in0.0 mm
03:58 AM 30.8°F-0.7°C 30.2°F-1.0°C 98% 3.0 mph SSE4.8 kmh SSE -- 29.70 in1005.8 mb 0.00 in0.0 mm 0.00 in0.0 mm 0.00 in0.0 mm
03:59 AM 30.8°F-0.7°C 30.2°F-1.0°C 98% Calm Calm -- 29.70 in1005.8 mb 0.00 in0.0 mm 0.00 in0.0 mm 0.00 in0.0 mm
04:00 AM 30.8°F-0.7°C 30.2°F-1.0°C 98% 2.0 mph S3.2 kmh S -- 29.70 in1005.8 mb 0.00 in0.0 mm 0.00 in0.0 mm 0.00 in0.0 mm
04:01 AM 30.8°F-0.7°C 30.2°F-1.0°C 98% 2.0 mph SSE3.2 kmh SSE -- 29.69 in1005.4 mb 0.00 in0.0 mm 0.00 in0.0 mm 0.00 in0.0 mm
04:02 AM 30.8°F-0.7°C 30.2°F-1.0°C 98% 2.0 mph SSW3.2 kmh SSW -- 29.70 in1005.8 mb 0.00 in0.0 mm 0.00 in0.0 mm 0.00 in0.0 mm
04:03 AM 30.8°F-0.7°C 30.2°F-1.0°C 98% 3.0 mph S4.8 kmh S -- 29.69 in1005.4 mb 0.00 in0.0 mm 0.00 in0.0 mm 0.00 in0.0 mm
04:04 AM 30.8°F-0.7°C 30.2°F-1.0°C 98% 5.0 mph SE8.0 kmh SE -- 29.69 in1005.4 mb 0.00 in0.0 mm 0.00 in0.0 mm 0.00 in0.0 mm
04:05 AM 30.8°F-0.7°C 30.2°F-1.0°C 98% 4.0 mph S6.4 kmh S -- 29.69 in1005.4 mb 0.00 in0.0 mm 0.00 in0.0 mm 0.00 in0.0 mm
04:06 AM 30.8°F-0.7°C 30.2°F-1.0°C 98% 4.0 mph SSE6.4 kmh SSE -- 29.69 in1005.4 mb 0.00 in0.0 mm 0.00 in0.0 mm 0.00 in0.0 mm
04:07 AM 30.8°F-0.7°C 30.2°F-1.0°C 98% 2.0 mph SSE3.2 kmh SSE -- 29.69 in1005.4 mb 0.00 in0.0 mm 0.00 in0.0 mm 0.00 in0.0 mm
04:08 AM 30.8°F-0.7°C 30.2°F-1.0°C 98% 4.0 mph SW6.4 kmh SW -- 29.69 in1005.4 mb 0.00 in0.0 mm 0.00 in0.0 mm 0.00 in0.0 mm
04:09 AM 30.8°F-0.7°C 30.2°F-1.0°C 98% 4.0 mph S6.4 kmh S -- 29.70 in1005.8 mb 0.00 in0.0 mm 0.00 in0.0 mm 0.00 in0.0 mm
04:10 AM 30.8°F-0.7°C 30.2°F-1.0°C 98% 3.0 mph SE4.8 kmh SE -- 29.70 in1005.8 mb 0.00 in0.0 mm 0.00 in0.0 mm 0.00 in0.0 mm
04:11 AM 30.8°F-0.7°C 30.2°F-1.0°C 98% 3.0 mph S4.8 kmh S -- 29.70 in1005.8 mb 0.00 in0.0 mm 0.00 in0.0 mm 0.00 in0.0 mm
04:13 AM 30.8°F-0.7°C 30.2°F-1.0°C 98% 4.0 mph S6.4 kmh S -- 29.70 in1005.8 mb 0.00 in0.0 mm 0.00 in0.0 mm 0.00 in0.0 mm
04:14 AM 30.8°F-0.7°C 30.2°F-1.0°C 98% 5.0 mph SSW8.0 kmh SSW -- 29.69 in1005.4 mb 0.00 in0.0 mm 0.00 in0.0 mm 0.00 in0.0 mm
04:15 AM 30.8°F-0.7°C 30.2°F-1.0°C 98% 3.0 mph S4.8 kmh S -- 29.70 in1005.8 mb 0.00 in0.0 mm 0.00 in0.0 mm 0.00 in0.0 mm
04:16 AM 30.8°F-0.7°C 30.2°F-1.0°C 98% 5.0 mph SSW8.0 kmh SSW -- 29.70 in1005.8 mb 0.00 in0.0 mm 0.00 in0.0 mm 0.00 in0.0 mm
04:17 AM 30.8°F-0.7°C 30.2°F-1.0°C 98% 4.0 mph SSW6.4 kmh SSW -- 29.70 in1005.8 mb 0.00 in0.0 mm 0.00 in0.0 mm 0.00 in0.0 mm
04:18 AM 30.8°F-0.7°C 30.2°F-1.0°C 98% 4.0 mph WSW6.4 kmh WSW -- 29.70 in1005.8 mb 0.00 in0.0 mm 0.00 in0.0 mm 0.00 in0.0 mm
04:19 AM 30.8°F-0.7°C 30.2°F-1.0°C 98% 5.0 mph S8.0 kmh S -- 29.70 in1005.8 mb 0.00 in0.0 mm 0.00 in0.0 mm 0.00 in0.0 mm
04:20 AM 30.8°F-0.7°C 30.2°F-1.0°C 98% 6.0 mph S9.7 kmh S -- 29.70 in1005.8 mb 0.00 in0.0 mm 0.00 in0.0 mm 0.00 in0.0 mm
04:21 AM 30.8°F-0.7°C 30.2°F-1.0°C 98% 3.0 mph SSW4.8 kmh SSW -- 29.70 in1005.8 mb 0.00 in0.0 mm 0.00 in0.0 mm 0.00 in0.0 mm
04:22 AM 30.8°F-0.7°C 30.2°F-1.0°C 98% 2.0 mph S3.2 kmh S -- 29.70 in1005.8 mb 0.00 in0.0 mm 0.00 in0.0 mm 0.00 in0.0 mm
04:23 AM 30.8°F-0.7°C 30.2°F-1.0°C 98% 4.0 mph SSE6.4 kmh SSE -- 29.70 in1005.8 mb 0.00 in0.0 mm 0.00 in0.0 mm 0.00 in0.0 mm
04:24 AM 30.8°F-0.7°C 30.2°F-1.0°C 98% 3.0 mph SSW4.8 kmh SSW -- 29.70 in1005.8 mb 0.00 in0.0 mm 0.00 in0.0 mm 0.00 in0.0 mm
04:25 AM 30.8°F-0.7°C 30.2°F-1.0°C 98% 4.0 mph S6.4 kmh S -- 29.70 in1005.8 mb 0.00 in0.0 mm 0.00 in0.0 mm 0.00 in0.0 mm
04:26 AM 30.8°F-0.7°C 30.2°F-1.0°C 98% 5.0 mph SSW8.0 kmh SSW -- 29.70 in1005.8 mb 0.00 in0.0 mm 0.00 in0.0 mm 0.00 in0.0 mm
04:27 AM 30.8°F-0.7°C 30.2°F-1.0°C 98% 5.0 mph S8.0 kmh S -- 29.70 in1005.8 mb 0.00 in0.0 mm 0.00 in0.0 mm 0.00 in0.0 mm
04:28 AM 30.8°F-0.7°C 30.2°F-1.0°C 98% 4.0 mph S6.4 kmh S -- 29.70 in1005.8 mb 0.00 in0.0 mm 0.00 in0.0 mm 0.00 in0.0 mm
04:29 AM 30.8°F-0.7°C 30.2°F-1.0°C 98% 4.0 mph S6.4 kmh S -- 29.71 in1006.1 mb 0.00 in0.0 mm 0.00 in0.0 mm 0.00 in0.0 mm
04:30 AM 30.8°F-0.7°C 30.2°F-1.0°C 98% 3.0 mph SSE4.8 kmh SSE -- 29.70 in1005.8 mb 0.00 in0.0 mm 0.00 in0.0 mm 0.00 in0.0 mm
04:31 AM 30.8°F-0.7°C 30.2°F-1.0°C 98% 5.0 mph SSE8.0 kmh SSE -- 29.71 in1006.1 mb 0.00 in0.0 mm 0.00 in0.0 mm 0.00 in0.0 mm
04:32 AM 30.8°F-0.7°C 30.2°F-1.0°C 98% 3.0 mph S4.8 kmh S -- 29.71 in1006.1 mb 0.00 in0.0 mm 0.00 in0.0 mm 0.00 in0.0 mm
04:33 AM 30.8°F-0.7°C 30.2°F-1.0°C 98% 3.0 mph SSW4.8 kmh SSW -- 29.71 in1006.1 mb 0.00 in0.0 mm 0.00 in0.0 mm 0.00 in0.0 mm
04:34 AM 30.8°F-0.7°C 30.2°F-1.0°C 98% 3.0 mph S4.8 kmh S -- 29.70 in1005.8 mb 0.00 in0.0 mm 0.00 in0.0 mm 0.00 in0.0 mm
04:35 AM 30.8°F-0.7°C 30.2°F-1.0°C 98% 6.0 mph SSW9.7 kmh SSW -- 29.70 in1005.8 mb 0.00 in0.0 mm 0.00 in0.0 mm 0.00 in0.0 mm
04:36 AM 30.8°F-0.7°C 30.2°F-1.0°C 98% 2.0 mph SSE3.2 kmh SSE -- 29.71 in1006.1 mb 0.00 in0.0 mm 0.00 in0.0 mm 0.00 in0.0 mm
04:37 AM 30.8°F-0.7°C 30.2°F-1.0°C 98% 6.0 mph SSW9.7 kmh SSW -- 29.70 in1005.8 mb 0.00 in0.0 mm 0.00 in0.0 mm 0.00 in0.0 mm
04:38 AM 30.8°F-0.7°C 30.2°F-1.0°C 98% 4.0 mph SSW6.4 kmh SSW -- 29.70 in1005.8 mb 0.00 in0.0 mm 0.00 in0.0 mm 0.00 in0.0 mm
04:39 AM 30.8°F-0.7°C 30.2°F-1.0°C 98% 5.0 mph SSW8.0 kmh SSW -- 29.70 in1005.8 mb 0.00 in0.0 mm 0.00 in0.0 mm 0.00 in0.0 mm
04:40 AM 30.8°F-0.7°C 30.2°F-1.0°C 98% 3.0 mph SSW4.8 kmh SSW -- 29.71 in1006.1 mb 0.00 in0.0 mm 0.00 in0.0 mm 0.00 in0.0 mm
04:41 AM 30.7°F-0.7°C 30.2°F-1.0°C 98% 6.0 mph S9.7 kmh S -- 29.70 in1005.8 mb 0.00 in0.0 mm 0.00 in0.0 mm 0.00 in0.0 mm
04:42 AM 30.7°F-0.7°C 30.2°F-1.0°C 98% 3.0 mph S4.8 kmh S -- 29.71 in1006.1 mb 0.00 in0.0 mm 0.00 in0.0 mm 0.00 in0.0 mm
04:43 AM 30.7°F-0.7°C 30.2°F-1.0°C 98% 5.0 mph SW8.0 kmh SW -- 29.70 in1005.8 mb 0.00 in0.0 mm 0.00 in0.0 mm 0.00 in0.0 mm
04:44 AM 30.7°F-0.7°C 30.2°F-1.0°C 98% 4.0 mph S6.4 kmh S -- 29.70 in1005.8 mb 0.00 in0.0 mm 0.00 in0.0 mm 0.00 in0.0 mm
04:45 AM 30.7°F-0.7°C 30.2°F-1.0°C 98% 2.0 mph SSW3.2 kmh SSW -- 29.70 in1005.8 mb 0.00 in0.0 mm 0.00 in0.0 mm 0.00 in0.0 mm
04:46 AM 30.7°F-0.7°C 30.2°F-1.0°C 98% Calm Calm -- 29.70 in1005.8 mb 0.00 in0.0 mm 0.00 in0.0 mm 0.00 in0.0 mm
04:47 AM 30.7°F-0.7°C 30.2°F-1.0°C 98% 1.0 mph S1.6 kmh S -- 29.70 in1005.8 mb 0.00 in0.0 mm 0.00 in0.0 mm 0.00 in0.0 mm
04:48 AM 30.7°F-0.7°C 30.2°F-1.0°C 98% 2.0 mph WNW3.2 kmh WNW -- 29.70 in1005.8 mb 0.00 in0.0 mm 0.00 in0.0 mm 0.00 in0.0 mm
04:49 AM 30.7°F-0.7°C 30.2°F-1.0°C 98% 5.0 mph W8.0 kmh W -- 29.70 in1005.8 mb 0.00 in0.0 mm 0.00 in0.0 mm 0.00 in0.0 mm
04:50 AM 30.7°F-0.7°C 30.2°F-1.0°C 98% 2.0 mph SSW3.2 kmh SSW -- 29.70 in1005.8 mb 0.00 in0.0 mm 0.00 in0.0 mm 0.00 in0.0 mm
04:52 AM 30.7°F-0.7°C 30.2°F-1.0°C 98% 2.0 mph W3.2 kmh W -- 29.70 in1005.8 mb 0.00 in0.0 mm 0.00 in0.0 mm 0.00 in0.0 mm
04:53 AM 30.7°F-0.7°C 30.2°F-1.0°C 98% 2.0 mph S3.2 kmh S -- 29.70 in1005.8 mb 0.00 in0.0 mm 0.00 in0.0 mm 0.00 in0.0 mm
04:54 AM 30.7°F-0.7°C 30.2°F-1.0°C 98% 2.0 mph ESE3.2 kmh ESE -- 29.70 in1005.8 mb 0.00 in0.0 mm 0.00 in0.0 mm 0.00 in0.0 mm
04:55 AM 30.7°F-0.7°C 30.2°F-1.0°C 98% 2.0 mph W3.2 kmh W -- 29.70 in1005.8 mb 0.00 in0.0 mm 0.00 in0.0 mm 0.00 in0.0 mm
04:56 AM 30.7°F-0.7°C 30.2°F-1.0°C 98% Calm Calm -- 29.70 in1005.8 mb 0.00 in0.0 mm 0.00 in0.0 mm 0.00 in0.0 mm
04:57 AM 30.7°F-0.7°C 30.2°F-1.0°C 98% Calm Calm -- 29.71 in1006.1 mb 0.00 in0.0 mm 0.00 in0.0 mm 0.00 in0.0 mm
04:58 AM 30.7°F-0.7°C 30.2°F-1.0°C 98% 2.0 mph SSE3.2 kmh SSE -- 29.71 in1006.1 mb 0.00 in0.0 mm 0.00 in0.0 mm 0.00 in0.0 mm
04:59 AM 30.7°F-0.7°C 30.2°F-1.0°C 98% 3.0 mph S4.8 kmh S -- 29.71 in1006.1 mb 0.00 in0.0 mm 0.00 in0.0 mm 0.00 in0.0 mm
05:00 AM 30.7°F-0.7°C 30.2°F-1.0°C 98% Calm Calm -- 29.71 in1006.1 mb 0.00 in0.0 mm 0.00 in0.0 mm 0.00 in0.0 mm
05:01 AM 30.7°F-0.7°C 30.2°F-1.0°C 98% 4.0 mph W6.4 kmh W -- 29.71 in1006.1 mb 0.00 in0.0 mm 0.00 in0.0 mm 0.00 in0.0 mm
05:02 AM 30.7°F-0.7°C 30.2°F-1.0°C 98% 2.0 mph WNW3.2 kmh WNW -- 29.71 in1006.1 mb 0.00 in0.0 mm 0.00 in0.0 mm 0.00 in0.0 mm
05:03 AM 30.7°F-0.7°C 30.2°F-1.0°C 98% 4.0 mph SSW6.4 kmh SSW -- 29.71 in1006.1 mb 0.00 in0.0 mm 0.00 in0.0 mm 0.00 in0.0 mm
05:04 AM 30.7°F-0.7°C 30.2°F-1.0°C 98% 3.0 mph S4.8 kmh S -- 29.71 in1006.1 mb 0.00 in0.0 mm 0.00 in0.0 mm 0.00 in0.0 mm
05:05 AM 30.7°F-0.7°C 30.2°F-1.0°C 98% 3.0 mph SSW4.8 kmh SSW -- 29.71 in1006.1 mb 0.00 in0.0 mm 0.00 in0.0 mm 0.00 in0.0 mm
05:06 AM 30.7°F-0.7°C 30.2°F-1.0°C 98% 2.0 mph S3.2 kmh S -- 29.71 in1006.1 mb 0.00 in0.0 mm 0.00 in0.0 mm 0.00 in0.0 mm
05:07 AM 30.7°F-0.7°C 30.2°F-1.0°C 98% 2.0 mph SSW3.2 kmh SSW -- 29.71 in1006.1 mb 0.00 in0.0 mm 0.00 in0.0 mm 0.00 in0.0 mm
05:08 AM 30.7°F-0.7°C 30.2°F-1.0°C 98% 2.0 mph S3.2 kmh S -- 29.71 in1006.1 mb 0.00 in0.0 mm 0.00 in0.0 mm 0.00 in0.0 mm
05:09 AM 30.7°F-0.7°C 30.2°F-1.0°C 98% 2.0 mph SSW3.2 kmh SSW -- 29.71 in1006.1 mb 0.00 in0.0 mm 0.00 in0.0 mm 0.00 in0.0 mm
05:10 AM 30.7°F-0.7°C 30.2°F-1.0°C 98% 2.0 mph SSE3.2 kmh SSE -- 29.71 in1006.1 mb 0.00 in0.0 mm 0.00 in0.0 mm 0.00 in0.0 mm
05:11 AM 30.7°F-0.7°C 30.2°F-1.0°C 98% Calm Calm -- 29.70 in1005.8 mb 0.00 in0.0 mm 0.00 in0.0 mm 0.00 in0.0 mm
05:12 AM 30.7°F-0.7°C 30.2°F-1.0°C 98% 2.0 mph SW3.2 kmh SW -- 29.70 in1005.8 mb 0.00 in0.0 mm 0.00 in0.0 mm 0.00 in0.0 mm
05:13 AM 30.7°F-0.7°C 30.2°F-1.0°C 98% 2.0 mph SSW3.2 kmh SSW -- 29.70 in1005.8 mb 0.00 in0.0 mm 0.00 in0.0 mm 0.00 in0.0 mm
05:14 AM 30.7°F-0.7°C 30.2°F-1.0°C 98% 1.0 mph S1.6 kmh S -- 29.71 in1006.1 mb 0.00 in0.0 mm 0.00 in0.0 mm 0.00 in0.0 mm
05:15 AM 30.7°F-0.7°C 30.2°F-1.0°C 98% 2.0 mph S3.2 kmh S -- 29.71 in1006.1 mb 0.00 in0.0 mm 0.00 in0.0 mm 0.00 in0.0 mm
05:17 AM 30.7°F-0.7°C 30.2°F-1.0°C 98% 3.0 mph SSW4.8 kmh SSW -- 29.71 in1006.1 mb 0.00 in0.0 mm 0.00 in0.0 mm 0.00 in0.0 mm
05:18 AM 30.7°F-0.7°C 30.2°F-1.0°C 98% 4.0 mph S6.4 kmh S -- 29.71 in1006.1 mb 0.00 in0.0 mm 0.00 in0.0 mm 0.00 in0.0 mm
05:19 AM 30.7°F-0.7°C 30.2°F-1.0°C 98% 2.0 mph SSW3.2 kmh SSW -- 29.71 in1006.1 mb 0.00 in0.0 mm 0.00 in0.0 mm 0.00 in0.0 mm
05:20 AM 30.7°F-0.7°C 30.2°F-1.0°C 98% 2.0 mph SW3.2 kmh SW -- 29.71 in1006.1 mb 0.00 in0.0 mm 0.00 in0.0 mm 0.00 in0.0 mm
05:22 AM 30.7°F-0.7°C 30.2°F-1.0°C 98% 2.0 mph S3.2 kmh S -- 29.71 in1006.1 mb 0.00 in0.0 mm 0.00 in0.0 mm 0.00 in0.0 mm
05:23 AM 30.7°F-0.7°C 30.2°F-1.0°C 98% 4.0 mph S6.4 kmh S -- 29.71 in1006.1 mb 0.00 in0.0 mm 0.00 in0.0 mm 0.00 in0.0 mm
05:24 AM 30.7°F-0.7°C 30.2°F-1.0°C 98% 2.0 mph SSE3.2 kmh SSE -- 29.71 in1006.1 mb 0.00 in0.0 mm 0.00 in0.0 mm 0.00 in0.0 mm
05:27 AM 30.7°F-0.7°C 30.2°F-1.0°C 98% 3.0 mph SW4.8 kmh SW -- 29.71 in1006.1 mb 0.00 in0.0 mm 0.00 in0.0 mm 0.00 in0.0 mm
05:28 AM 30.7°F-0.7°C 30.2°F-1.0°C 98% 2.0 mph WSW3.2 kmh WSW -- 29.71 in1006.1 mb 0.00 in0.0 mm 0.00 in0.0 mm 0.00 in0.0 mm
05:29 AM 30.7°F-0.7°C 30.2°F-1.0°C 98% 1.0 mph S1.6 kmh S -- 29.71 in1006.1 mb 0.00 in0.0 mm 0.00 in0.0 mm 0.00 in0.0 mm
05:30 AM 30.7°F-0.7°C 30.2°F-1.0°C 98% 2.0 mph S3.2 kmh S -- 29.71 in1006.1 mb 0.00 in0.0 mm 0.00 in0.0 mm 0.00 in0.0 mm
05:31 AM 30.7°F-0.7°C 30.2°F-1.0°C 98% Calm Calm -- 29.72 in1006.4 mb 0.00 in0.0 mm 0.00 in0.0 mm 0.00 in0.0 mm
05:32 AM 30.7°F-0.7°C 30.2°F-1.0°C 98% 6.0 mph S9.7 kmh S -- 29.71 in1006.1 mb 0.00 in0.0 mm 0.00 in0.0 mm 0.00 in0.0 mm
05:34 AM 30.7°F-0.7°C 30.2°F-1.0°C 98% 4.0 mph S6.4 kmh S -- 29.71 in1006.1 mb 0.00 in0.0 mm 0.00 in0.0 mm 0.00 in0.0 mm
05:35 AM 30.7°F-0.7°C 30.2°F-1.0°C 98% 5.0 mph SSW8.0 kmh SSW -- 29.71 in1006.1 mb 0.00 in0.0 mm 0.00 in0.0 mm 0.00 in0.0 mm
05:36 AM 30.7°F-0.7°C 30.2°F-1.0°C 98% 4.0 mph S6.4 kmh S -- 29.71 in1006.1 mb 0.00 in0.0 mm 0.00 in0.0 mm 0.00 in0.0 mm
05:37 AM 30.7°F-0.7°C 30.2°F-1.0°C 98% 5.0 mph S8.0 kmh S -- 29.71 in1006.1 mb 0.00 in0.0 mm 0.00 in0.0 mm 0.00 in0.0 mm
05:38 AM 30.7°F-0.7°C 30.2°F-1.0°C 98% 4.0 mph SSW6.4 kmh SSW -- 29.71 in1006.1 mb 0.00 in0.0 mm 0.00 in0.0 mm 0.00 in0.0 mm
05:39 AM 30.7°F-0.7°C 30.2°F-1.0°C 98% 3.0 mph S4.8 kmh S -- 29.72 in1006.4 mb 0.00 in0.0 mm 0.00 in0.0 mm 0.00 in0.0 mm
05:40 AM 30.7°F-0.7°C 30.2°F-1.0°C 98% 3.0 mph SSE4.8 kmh SSE -- 29.72 in1006.4 mb 0.00 in0.0 mm 0.00 in0.0 mm 0.00 in0.0 mm
05:41 AM 30.7°F-0.7°C 30.2°F-1.0°C 98% 1.0 mph SSW1.6 kmh SSW -- 29.71 in1006.1 mb 0.00 in0.0 mm 0.00 in0.0 mm 0.00 in0.0 mm
05:42 AM 30.7°F-0.7°C 30.2°F-1.0°C 98% 3.0 mph SSW4.8 kmh SSW -- 29.71 in1006.1 mb 0.00 in0.0 mm 0.00 in0.0 mm 0.00 in0.0 mm
05:45 AM 30.7°F-0.7°C 30.2°F-1.0°C 98% 5.0 mph SSE8.0 kmh SSE -- 29.71 in1006.1 mb 0.00 in0.0 mm 0.00 in0.0 mm 0.00 in0.0 mm
05:46 AM 30.7°F-0.7°C 30.2°F-1.0°C 98% 6.0 mph S9.7 kmh S -- 29.72 in1006.4 mb 0.00 in0.0 mm 0.00 in0.0 mm 0.00 in0.0 mm
05:47 AM 30.7°F-0.7°C 30.2°F-1.0°C 98% 3.0 mph S4.8 kmh S -- 29.72 in1006.4 mb 0.00 in0.0 mm 0.00 in0.0 mm 0.00 in0.0 mm
05:48 AM 30.7°F-0.7°C 30.2°F-1.0°C 98% 4.0 mph SSW6.4 kmh SSW -- 29.71 in1006.1 mb 0.00 in0.0 mm 0.00 in0.0 mm 0.00 in0.0 mm
05:49 AM 30.7°F-0.7°C 30.2°F-1.0°C 98% 4.0 mph S6.4 kmh S -- 29.71 in1006.1 mb 0.00 in0.0 mm 0.00 in0.0 mm 0.00 in0.0 mm
05:50 AM 30.7°F-0.7°C 30.2°F-1.0°C 98% 3.0 mph S4.8 kmh S -- 29.71 in1006.1 mb 0.00 in0.0 mm 0.00 in0.0 mm 0.00 in0.0 mm
05:51 AM 30.7°F-0.7°C 30.2°F-1.0°C 98% 1.0 mph SSW1.6 kmh SSW -- 29.71 in1006.1 mb 0.00 in0.0 mm 0.00 in0.0 mm 0.00 in0.0 mm
05:52 AM 30.7°F-0.7°C 30.2°F-1.0°C 98% 2.0 mph SSW3.2 kmh SSW -- 29.71 in1006.1 mb 0.00 in0.0 mm 0.00 in0.0 mm 0.00 in0.0 mm
05:53 AM 30.7°F-0.7°C 30.2°F-1.0°C 98% 3.0 mph S4.8 kmh S -- 29.71 in1006.1 mb 0.00 in0.0 mm 0.00 in0.0 mm 0.00 in0.0 mm
05:54 AM 30.7°F-0.7°C 30.2°F-1.0°C 98% 3.0 mph S4.8 kmh S -- 29.72 in1006.4 mb 0.00 in0.0 mm 0.00 in0.0 mm 0.00 in0.0 mm
05:55 AM 30.7°F-0.7°C 30.2°F-1.0°C 98% 4.0 mph WSW6.4 kmh WSW -- 29.71 in1006.1 mb 0.00 in0.0 mm 0.00 in0.0 mm 0.00 in0.0 mm
05:56 AM 30.7°F-0.7°C 30.2°F-1.0°C 98% 4.0 mph SW6.4 kmh SW -- 29.72 in1006.4 mb 0.00 in0.0 mm 0.00 in0.0 mm 0.00 in0.0 mm
05:57 AM 30.7°F-0.7°C 30.2°F-1.0°C 98% 2.0 mph SW3.2 kmh SW -- 29.71 in1006.1 mb 0.00 in0.0 mm 0.00 in0.0 mm 0.00 in0.0 mm
05:58 AM 30.7°F-0.7°C 30.2°F-1.0°C 98% 5.0 mph S8.0 kmh S -- 29.72 in1006.4 mb 0.00 in0.0 mm 0.00 in0.0 mm 0.00 in0.0 mm
05:59 AM 30.7°F-0.7°C 30.2°F-1.0°C 98% 4.0 mph SSE6.4 kmh SSE -- 29.71 in1006.1 mb 0.00 in0.0 mm 0.00 in0.0 mm 0.00 in0.0 mm
06:00 AM 30.7°F-0.7°C 30.2°F-1.0°C 98% 5.0 mph SW8.0 kmh SW -- 29.71 in1006.1 mb 0.00 in0.0 mm 0.00 in0.0 mm 0.00 in0.0 mm
06:01 AM 30.7°F-0.7°C 30.2°F-1.0°C 98% 3.0 mph S4.8 kmh S -- 29.71 in1006.1 mb 0.00 in0.0 mm 0.00 in0.0 mm 0.00 in0.0 mm
06:02 AM 30.7°F-0.7°C 30.2°F-1.0°C 98% 5.0 mph SSE8.0 kmh SSE -- 29.71 in1006.1 mb 0.00 in0.0 mm 0.00 in0.0 mm 0.00 in0.0 mm
06:03 AM 30.7°F-0.7°C 30.2°F-1.0°C 98% 3.0 mph SW4.8 kmh SW -- 29.71 in1006.1 mb 0.00 in0.0 mm 0.00 in0.0 mm 0.00 in0.0 mm
06:04 AM 30.7°F-0.7°C 30.2°F-1.0°C 98% 5.0 mph SSE8.0 kmh SSE -- 29.72 in1006.4 mb 0.00 in0.0 mm 0.00 in0.0 mm 0.00 in0.0 mm
06:05 AM 30.7°F-0.7°C 30.2°F-1.0°C 98% 5.0 mph SSE8.0 kmh SSE -- 29.71 in1006.1 mb 0.00 in0.0 mm 0.00 in0.0 mm 0.00 in0.0 mm
06:06 AM 30.7°F-0.7°C 30.2°F-1.0°C 98% 5.0 mph S8.0 kmh S -- 29.72 in1006.4 mb 0.00 in0.0 mm 0.00 in0.0 mm 0.00 in0.0 mm
06:07 AM 30.7°F-0.7°C 30.2°F-1.0°C 98% 4.0 mph S6.4 kmh S -- 29.71 in1006.1 mb 0.00 in0.0 mm 0.00 in0.0 mm 0.00 in0.0 mm
06:08 AM 30.5°F-0.8°C 30.1°F-1.1°C 98% 4.0 mph SW6.4 kmh SW -- 29.71 in1006.1 mb 0.00 in0.0 mm 0.00 in0.0 mm 0.00 in0.0 mm
06:09 AM 30.5°F-0.8°C 30.1°F-1.1°C 98% 6.0 mph S9.7 kmh S -- 29.71 in1006.1 mb 0.00 in0.0 mm 0.00 in0.0 mm 0.00 in0.0 mm
06:10 AM 30.5°F-0.8°C 30.1°F-1.1°C 98% 3.0 mph SW4.8 kmh SW -- 29.71 in1006.1 mb 0.00 in0.0 mm 0.00 in0.0 mm 0.00 in0.0 mm
06:11 AM 30.5°F-0.8°C 30.1°F-1.1°C 98% 5.0 mph WSW8.0 kmh WSW -- 29.71 in1006.1 mb 0.00 in0.0 mm 0.00 in0.0 mm 0.00 in0.0 mm
06:12 AM 30.5°F-0.8°C 30.1°F-1.1°C 98% 4.0 mph W6.4 kmh W -- 29.72 in1006.4 mb 0.00 in0.0 mm 0.00 in0.0 mm 0.00 in0.0 mm
06:13 AM 30.5°F-0.8°C 30.1°F-1.1°C 98% 4.0 mph S6.4 kmh S -- 29.72 in1006.4 mb 0.00 in0.0 mm 0.00 in0.0 mm 0.00 in0.0 mm
06:14 AM 30.5°F-0.8°C 30.1°F-1.1°C 98% 5.0 mph S8.0 kmh S -- 29.72 in1006.4 mb 0.00 in0.0 mm 0.00 in0.0 mm 0.00 in0.0 mm
06:15 AM 30.5°F-0.8°C 30.1°F-1.1°C 98% 5.0 mph SW8.0 kmh SW -- 29.72 in1006.4 mb 0.00 in0.0 mm 0.00 in0.0 mm 0.00 in0.0 mm
06:16 AM 30.5°F-0.8°C 30.1°F-1.1°C 98% 4.0 mph SSW6.4 kmh SSW -- 29.72 in1006.4 mb 0.00 in0.0 mm 0.00 in0.0 mm 0.00 in0.0 mm
06:17 AM 30.5°F-0.8°C 30.1°F-1.1°C 98% 3.0 mph WSW4.8 kmh WSW -- 29.72 in1006.4 mb 0.00 in0.0 mm 0.00 in0.0 mm 0.00 in0.0 mm
06:18 AM 30.5°F-0.8°C 30.1°F-1.1°C 98% 6.0 mph SSE9.7 kmh SSE -- 29.72 in1006.4 mb 0.00 in0.0 mm 0.00 in0.0 mm 0.00 in0.0 mm
06:19 AM 30.5°F-0.8°C 30.1°F-1.1°C 98% 5.0 mph S8.0 kmh S -- 29.71 in1006.1 mb 0.00 in0.0 mm 0.00 in0.0 mm 0.00 in0.0 mm
06:20 AM 30.5°F-0.8°C 30.1°F-1.1°C 98% 3.0 mph SSE4.8 kmh SSE -- 29.71 in1006.1 mb 0.00 in0.0 mm 0.00 in0.0 mm 0.00 in0.0 mm
06:21 AM 30.5°F-0.8°C 30.1°F-1.1°C 98% 4.0 mph S6.4 kmh S -- 29.71 in1006.1 mb 0.00 in0.0 mm 0.00 in0.0 mm 0.00 in0.0 mm
06:22 AM 30.5°F-0.8°C 30.1°F-1.1°C 98% 4.0 mph SSW6.4 kmh SSW -- 29.71 in1006.1 mb 0.00 in0.0 mm 0.00 in0.0 mm 0.00 in0.0 mm
06:23 AM 30.5°F-0.8°C 30.1°F-1.1°C 98% 4.0 mph NNW6.4 kmh NNW -- 29.72 in1006.4 mb 0.00 in0.0 mm 0.00 in0.0 mm 0.00 in0.0 mm
06:24 AM 30.5°F-0.8°C 30.1°F-1.1°C 98% 4.0 mph S6.4 kmh S -- 29.72 in1006.4 mb 0.00 in0.0 mm 0.00 in0.0 mm 0.00 in0.0 mm
06:25 AM 30.5°F-0.8°C 30.1°F-1.1°C 98% 5.0 mph SSE8.0 kmh SSE -- 29.72 in1006.4 mb 0.00 in0.0 mm 0.00 in0.0 mm 0.00 in0.0 mm
06:26 AM 30.5°F-0.8°C 30.1°F-1.1°C 98% 2.0 mph WNW3.2 kmh WNW -- 29.72 in1006.4 mb 0.00 in0.0 mm 0.00 in0.0 mm 0.00 in0.0 mm
06:27 AM 30.5°F-0.8°C 30.1°F-1.1°C 98% 4.0 mph S6.4 kmh S -- 29.72 in1006.4 mb 0.00 in0.0 mm 0.00 in0.0 mm 0.00 in0.0 mm
06:28 AM 30.7°F-0.7°C 30.2°F-1.0°C 98% 3.0 mph SSE4.8 kmh SSE -- 29.71 in1006.1 mb 0.00 in0.0 mm 0.00 in0.0 mm 0.00 in0.0 mm
06:29 AM 30.7°F-0.7°C 30.2°F-1.0°C 98% 5.0 mph S8.0 kmh S -- 29.72 in1006.4 mb 0.00 in0.0 mm 0.00 in0.0 mm 0.00 in0.0 mm
06:30 AM 30.7°F-0.7°C 30.2°F-1.0°C 98% 7.0 mph SSW11.3 kmh SSW -- 29.72 in1006.4 mb 0.00 in0.0 mm 0.00 in0.0 mm 0.00 in0.0 mm
06:31 AM 30.7°F-0.7°C 30.2°F-1.0°C 98% 5.0 mph SSW8.0 kmh SSW -- 29.72 in1006.4 mb 0.00 in0.0 mm 0.00 in0.0 mm 0.00 in0.0 mm
06:32 AM 30.7°F-0.7°C 30.2°F-1.0°C 98% 8.0 mph SW12.9 kmh SW -- 29.72 in1006.4 mb 0.00 in0.0 mm 0.00 in0.0 mm 0.00 in0.0 mm
06:33 AM 30.7°F-0.7°C 30.2°F-1.0°C 98% 4.0 mph SSW6.4 kmh SSW -- 29.72 in1006.4 mb 0.00 in0.0 mm 0.00 in0.0 mm 0.00 in0.0 mm
06:34 AM 30.7°F-0.7°C 30.2°F-1.0°C 98% 4.0 mph S6.4 kmh S -- 29.72 in1006.4 mb 0.00 in0.0 mm 0.00 in0.0 mm 0.00 in0.0 mm
06:35 AM 30.7°F-0.7°C 30.2°F-1.0°C 98% 5.0 mph SSW8.0 kmh SSW -- 29.72 in1006.4 mb 0.00 in0.0 mm 0.00 in0.0 mm 0.00 in0.0 mm
06:36 AM 30.8°F-0.7°C 30.2°F-1.0°C 98% 4.0 mph ESE6.4 kmh ESE -- 29.72 in1006.4 mb 0.00 in0.0 mm 0.00 in0.0 mm 0.00 in0.0 mm
06:37 AM 30.8°F-0.7°C 30.2°F-1.0°C 98% 4.0 mph SSE6.4 kmh SSE -- 29.72 in1006.4 mb 0.00 in0.0 mm 0.00 in0.0 mm 0.00 in0.0 mm
06:38 AM 30.8°F-0.7°C 30.2°F-1.0°C 98% 5.0 mph SSW8.0 kmh SSW -- 29.72 in1006.4 mb 0.00 in0.0 mm 0.00 in0.0 mm 0.00 in0.0 mm
06:40 AM 30.8°F-0.7°C 30.2°F-1.0°C 98% 8.0 mph SSW12.9 kmh SSW -- 29.73 in1006.8 mb 0.00 in0.0 mm 0.00 in0.0 mm 0.00 in0.0 mm
06:41 AM 30.8°F-0.7°C 30.2°F-1.0°C 98% 5.0 mph SSW8.0 kmh SSW -- 29.72 in1006.4 mb 0.00 in0.0 mm 0.00 in0.0 mm 0.00 in0.0 mm
06:42 AM 30.8°F-0.7°C 30.2°F-1.0°C 98% 6.0 mph SSE9.7 kmh SSE -- 29.72 in1006.4 mb 0.00 in0.0 mm 0.00 in0.0 mm 0.00 in0.0 mm
06:43 AM 30.8°F-0.7°C 30.2°F-1.0°C 98% 5.0 mph SSW8.0 kmh SSW -- 29.73 in1006.8 mb 0.00 in0.0 mm 0.00 in0.0 mm 0.00 in0.0 mm
06:44 AM 30.8°F-0.7°C 30.2°F-1.0°C 98% 7.0 mph S11.3 kmh S -- 29.73 in1006.8 mb 0.00 in0.0 mm 0.00 in0.0 mm 0.00 in0.0 mm
06:45 AM 30.8°F-0.7°C 30.2°F-1.0°C 98% 4.0 mph SSW6.4 kmh SSW -- 29.73 in1006.8 mb 0.00 in0.0 mm 0.00 in0.0 mm 0.00 in0.0 mm
06:46 AM 30.8°F-0.7°C 30.2°F-1.0°C 98% 8.0 mph SSW12.9 kmh SSW -- 29.73 in1006.8 mb 0.00 in0.0 mm 0.00 in0.0 mm 0.00 in0.0 mm
06:48 AM 30.8°F-0.7°C 30.2°F-1.0°C 98% 6.0 mph SSE9.7 kmh SSE -- 29.73 in1006.8 mb 0.00 in0.0 mm 0.00 in0.0 mm 0.00 in0.0 mm
06:49 AM 30.8°F-0.7°C 30.2°F-1.0°C 98% 7.0 mph W11.3 kmh W -- 29.74 in1007.1 mb 0.00 in0.0 mm 0.00 in0.0 mm 0.00 in0.0 mm
06:50 AM 30.8°F-0.7°C 30.2°F-1.0°C 98% 4.0 mph SSE6.4 kmh SSE -- 29.74 in1007.1 mb 0.00 in0.0 mm 0.00 in0.0 mm 0.00 in0.0 mm
06:51 AM 30.8°F-0.7°C 30.2°F-1.0°C 98% 7.0 mph S11.3 kmh S -- 29.73 in1006.8 mb 0.00 in0.0 mm 0.00 in0.0 mm 0.00 in0.0 mm
06:52 AM 30.8°F-0.7°C 30.2°F-1.0°C 98% 8.0 mph S12.9 kmh S -- 29.74 in1007.1 mb 0.00 in0.0 mm 0.00 in0.0 mm 0.00 in0.0 mm
06:53 AM 30.8°F-0.7°C 30.2°F-1.0°C 98% 8.0 mph SSE12.9 kmh SSE -- 29.74 in1007.1 mb 0.00 in0.0 mm 0.00 in0.0 mm 0.00 in0.0 mm
06:54 AM 30.8°F-0.7°C 30.2°F-1.0°C 98% 4.0 mph S6.4 kmh S -- 29.73 in1006.8 mb 0.00 in0.0 mm 0.00 in0.0 mm 0.00 in0.0 mm
06:55 AM 30.8°F-0.7°C 30.2°F-1.0°C 98% 6.0 mph S9.7 kmh S -- 29.73 in1006.8 mb 0.00 in0.0 mm 0.00 in0.0 mm 0.00 in0.0 mm
06:56 AM 31.1°F-0.5°C 30.6°F-0.8°C 98% 4.0 mph S6.4 kmh S -- 29.73 in1006.8 mb 0.00 in0.0 mm 0.00 in0.0 mm 0.00 in0.0 mm
06:57 AM 31.1°F-0.5°C 30.6°F-0.8°C 98% 3.0 mph S4.8 kmh S -- 29.73 in1006.8 mb 0.00 in0.0 mm 0.00 in0.0 mm 0.00 in0.0 mm
06:58 AM 31.1°F-0.5°C 30.6°F-0.8°C 98% 5.0 mph WNW8.0 kmh WNW -- 29.73 in1006.8 mb 0.00 in0.0 mm 0.00 in0.0 mm 0.00 in0.0 mm
06:59 AM 31.1°F-0.5°C 30.6°F-0.8°C 98% 6.0 mph SSW9.7 kmh SSW -- 29.73 in1006.8 mb 0.00 in0.0 mm 0.00 in0.0 mm 0.00 in0.0 mm
07:00 AM 31.1°F-0.5°C 30.6°F-0.8°C 98% 4.0 mph WSW6.4 kmh WSW -- 29.73 in1006.8 mb 0.00 in0.0 mm 0.00 in0.0 mm 0.00 in0.0 mm
07:01 AM 31.1°F-0.5°C 30.6°F-0.8°C 98% 3.0 mph SSW4.8 kmh SSW -- 29.73 in1006.8 mb 0.00 in0.0 mm 0.00 in0.0 mm 0.00 in0.0 mm
07:02 AM 31.1°F-0.5°C 30.6°F-0.8°C 98% 6.0 mph SSW9.7 kmh SSW -- 29.73 in1006.8 mb 0.00 in0.0 mm 0.00 in0.0 mm 0.00 in0.0 mm
07:03 AM 31.1°F-0.5°C 30.6°F-0.8°C 98% 8.0 mph W12.9 kmh W -- 29.73 in1006.8 mb 0.00 in0.0 mm 0.00 in0.0 mm 0.00 in0.0 mm
07:04 AM 31.1°F-0.5°C 30.6°F-0.8°C 98% 6.0 mph S9.7 kmh S -- 29.73 in1006.8 mb 0.00 in0.0 mm 0.00 in0.0 mm 0.00 in0.0 mm
07:05 AM 31.1°F-0.5°C 30.6°F-0.8°C 98% 4.0 mph S6.4 kmh S -- 29.73 in1006.8 mb 0.00 in0.0 mm 0.00 in0.0 mm 0.00 in0.0 mm
07:06 AM 31.1°F-0.5°C 30.6°F-0.8°C 98% 5.0 mph SSW8.0 kmh SSW -- 29.73 in1006.8 mb 0.00 in0.0 mm 0.00 in0.0 mm 0.00 in0.0 mm
07:07 AM 31.1°F-0.5°C 30.6°F-0.8°C 98% 5.0 mph S8.0 kmh S -- 29.73 in1006.8 mb 0.00 in0.0 mm 0.00 in0.0 mm 0.00 in0.0 mm
07:08 AM 31.1°F-0.5°C 30.6°F-0.8°C 98% 6.0 mph S9.7 kmh S -- 29.73 in1006.8 mb 0.00 in0.0 mm 0.00 in0.0 mm 0.00 in0.0 mm
07:09 AM 31.1°F-0.5°C 30.6°F-0.8°C 98% 3.0 mph SSW4.8 kmh SSW -- 29.74 in1007.1 mb 0.00 in0.0 mm 0.00 in0.0 mm 0.00 in0.0 mm
07:10 AM 31.1°F-0.5°C 30.6°F-0.8°C 98% 7.0 mph ESE11.3 kmh ESE -- 29.73 in1006.8 mb 0.00 in0.0 mm 0.00 in0.0 mm 0.00 in0.0 mm
07:11 AM 31.2°F-0.4°C 30.8°F-0.7°C 98% 4.0 mph S6.4 kmh S -- 29.73 in1006.8 mb 0.00 in0.0 mm 0.00 in0.0 mm 0.00 in0.0 mm
07:12 AM 31.2°F-0.4°C 30.8°F-0.7°C 98% 7.0 mph SSW11.3 kmh SSW -- 29.73 in1006.8 mb 0.00 in0.0 mm 0.00 in0.0 mm 0.00 in0.0 mm
07:13 AM 31.2°F-0.4°C 30.8°F-0.7°C 98% 5.0 mph SSW8.0 kmh SSW -- 29.74 in1007.1 mb 0.00 in0.0 mm 0.00 in0.0 mm 0.00 in0.0 mm
07:14 AM 31.2°F-0.4°C 30.8°F-0.7°C 98% 6.0 mph S9.7 kmh S -- 29.74 in1007.1 mb 0.00 in0.0 mm 0.00 in0.0 mm 0.00 in0.0 mm
07:15 AM 31.2°F-0.4°C 30.8°F-0.7°C 98% 7.0 mph SSW11.3 kmh SSW -- 29.73 in1006.8 mb 0.00 in0.0 mm 0.00 in0.0 mm 0.00 in0.0 mm
07:16 AM 31.1°F-0.5°C 30.6°F-0.8°C 98% 6.0 mph SSW9.7 kmh SSW -- 29.74 in1007.1 mb 0.00 in0.0 mm 0.00 in0.0 mm 0.00 in0.0 mm
07:17 AM 31.1°F-0.5°C 30.6°F-0.8°C 98% 6.0 mph WSW9.7 kmh WSW -- 29.74 in1007.1 mb 0.00 in0.0 mm 0.00 in0.0 mm 0.00 in0.0 mm
07:19 AM 31.2°F-0.4°C 30.8°F-0.7°C 98% 4.0 mph S6.4 kmh S -- 29.74 in1007.1 mb 0.00 in0.0 mm 0.00 in0.0 mm 0.00 in0.0 mm
07:21 AM 31.2°F-0.4°C 30.8°F-0.7°C 98% 6.0 mph S9.7 kmh S -- 29.75 in1007.5 mb 0.00 in0.0 mm 0.00 in0.0 mm 0.00 in0.0 mm
07:22 AM 31.2°F-0.4°C 30.8°F-0.7°C 98% 8.0 mph SSE12.9 kmh SSE -- 29.74 in1007.1 mb 0.00 in0.0 mm 0.00 in0.0 mm 0.00 in0.0 mm
07:23 AM 31.2°F-0.4°C 30.8°F-0.7°C 98% 6.0 mph SSE9.7 kmh SSE -- 29.74 in1007.1 mb 0.00 in0.0 mm 0.00 in0.0 mm 0.00 in0.0 mm
07:24 AM 31.2°F-0.4°C 30.8°F-0.7°C 98% 6.0 mph SW9.7 kmh SW -- 29.74 in1007.1 mb 0.00 in0.0 mm 0.00 in0.0 mm 0.00 in0.0 mm
07:25 AM 31.2°F-0.4°C 30.8°F-0.7°C 98% 4.0 mph SW6.4 kmh SW -- 29.74 in1007.1 mb 0.00 in0.0 mm 0.00 in0.0 mm 0.00 in0.0 mm
07:26 AM 31.2°F-0.4°C 30.8°F-0.7°C 98% 7.0 mph SW11.3 kmh SW -- 29.74 in1007.1 mb 0.00 in0.0 mm 0.00 in0.0 mm 0.00 in0.0 mm
07:27 AM 31.2°F-0.4°C 30.8°F-0.7°C 98% 5.0 mph SSE8.0 kmh SSE -- 29.74 in1007.1 mb 0.00 in0.0 mm 0.00 in0.0 mm 0.00 in0.0 mm
07:28 AM 31.2°F-0.4°C 30.8°F-0.7°C 98% 6.0 mph SSW9.7 kmh SSW -- 29.74 in1007.1 mb 0.00 in0.0 mm 0.00 in0.0 mm 0.00 in0.0 mm
07:29 AM 31.2°F-0.4°C 30.8°F-0.7°C 98% 5.0 mph W8.0 kmh W -- 29.75 in1007.5 mb 0.00 in0.0 mm 0.00 in0.0 mm 0.00 in0.0 mm
07:30 AM 31.5°F-0.3°C 31.0°F-0.6°C 98% 5.0 mph SW8.0 kmh SW -- 29.75 in1007.5 mb 0.00 in0.0 mm 0.00 in0.0 mm 0.00 in0.0 mm
07:31 AM 31.5°F-0.3°C 31.0°F-0.6°C 98% 5.0 mph SSW8.0 kmh SSW -- 29.74 in1007.1 mb 0.00 in0.0 mm 0.00 in0.0 mm 0.00 in0.0 mm
07:32 AM 31.5°F-0.3°C 31.0°F-0.6°C 98% 8.0 mph SSW12.9 kmh SSW -- 29.75 in1007.5 mb 0.00 in0.0 mm 0.00 in0.0 mm 0.00 in0.0 mm
07:33 AM 31.5°F-0.3°C 31.0°F-0.6°C 98% 6.0 mph SSW9.7 kmh SSW -- 29.74 in1007.1 mb 0.00 in0.0 mm 0.00 in0.0 mm 0.00 in0.0 mm
07:34 AM 31.2°F-0.4°C 30.8°F-0.7°C 98% 9.0 mph SW14.5 kmh SW -- 29.75 in1007.5 mb 0.00 in0.0 mm 0.00 in0.0 mm 0.00 in0.0 mm
07:35 AM 31.2°F-0.4°C 30.8°F-0.7°C 98% 4.0 mph S6.4 kmh S -- 29.75 in1007.5 mb 0.00 in0.0 mm 0.00 in0.0 mm 0.00 in0.0 mm
07:36 AM 31.2°F-0.4°C 30.8°F-0.7°C 98% 5.0 mph W8.0 kmh W -- 29.75 in1007.5 mb 0.00 in0.0 mm 0.00 in0.0 mm 0.00 in0.0 mm
07:37 AM 31.2°F-0.4°C 30.8°F-0.7°C 98% 7.0 mph SE11.3 kmh SE -- 29.75 in1007.5 mb 0.00 in0.0 mm 0.00 in0.0 mm 0.00 in0.0 mm
07:38 AM 31.2°F-0.4°C 30.8°F-0.7°C 98% 7.0 mph S11.3 kmh S -- 29.75 in1007.5 mb 0.00 in0.0 mm 0.00 in0.0 mm 0.00 in0.0 mm
07:39 AM 31.2°F-0.4°C 30.8°F-0.7°C 98% 4.0 mph SSE6.4 kmh SSE -- 29.75 in1007.5 mb 0.00 in0.0 mm 0.00 in0.0 mm 0.00 in0.0 mm
07:40 AM 31.2°F-0.4°C 30.8°F-0.7°C 98% 8.0 mph W12.9 kmh W -- 29.75 in1007.5 mb 0.00 in0.0 mm 0.00 in0.0 mm 0.00 in0.0 mm
07:41 AM 31.5°F-0.3°C 31.0°F-0.6°C 98% 6.0 mph S9.7 kmh S -- 29.74 in1007.1 mb 0.00 in0.0 mm 0.00 in0.0 mm 0.00 in0.0 mm
07:42 AM 31.5°F-0.3°C 31.0°F-0.6°C 98% 5.0 mph SSW8.0 kmh SSW -- 29.74 in1007.1 mb 0.00 in0.0 mm 0.00 in0.0 mm 0.00 in0.0 mm
07:43 AM 31.6°F-0.2°C 31.1°F-0.5°C 98% 5.0 mph S8.0 kmh S -- 29.74 in1007.1 mb 0.00 in0.0 mm 0.00 in0.0 mm 0.00 in0.0 mm
07:44 AM 31.7°F-0.2°C 31.1°F-0.5°C 98% 7.0 mph WSW11.3 kmh WSW -- 29.74 in1007.1 mb 0.00 in0.0 mm 0.00 in0.0 mm 0.00 in0.0 mm
07:45 AM 31.7°F-0.2°C 31.1°F-0.5°C 98% 4.0 mph W6.4 kmh W -- 29.74 in1007.1 mb 0.00 in0.0 mm 0.00 in0.0 mm 0.00 in0.0 mm
07:46 AM 31.9°F-0.1°C 31.3°F-0.4°C 98% 6.0 mph W9.7 kmh W -- 29.74 in1007.1 mb 0.00 in0.0 mm 0.00 in0.0 mm 0.00 in0.0 mm
07:48 AM 31.7°F-0.2°C 31.1°F-0.5°C 98% 3.0 mph SSW4.8 kmh SSW -- 29.74 in1007.1 mb 0.00 in0.0 mm 0.00 in0.0 mm 0.00 in0.0 mm
07:49 AM 31.7°F-0.2°C 31.1°F-0.5°C 98% 6.0 mph S9.7 kmh S -- 29.74 in1007.1 mb 0.00 in0.0 mm 0.00 in0.0 mm 0.00 in0.0 mm
07:50 AM 31.9°F-0.1°C 31.3°F-0.4°C 98% 6.0 mph SSW9.7 kmh SSW -- 29.74 in1007.1 mb 0.00 in0.0 mm 0.00 in0.0 mm 0.00 in0.0 mm
07:51 AM 31.9°F-0.1°C 31.3°F-0.4°C 98% 7.0 mph WSW11.3 kmh WSW -- 29.74 in1007.1 mb 0.00 in0.0 mm 0.00 in0.0 mm 0.00 in0.0 mm
07:52 AM 31.9°F-0.1°C 31.3°F-0.4°C 98% 7.0 mph S11.3 kmh S -- 29.74 in1007.1 mb 0.00 in0.0 mm 0.00 in0.0 mm 0.00 in0.0 mm
07:53 AM 31.9°F-0.1°C 31.3°F-0.4°C 98% 4.0 mph S6.4 kmh S -- 29.75 in1007.5 mb 0.00 in0.0 mm 0.00 in0.0 mm 0.00 in0.0 mm
07:54 AM 31.9°F-0.1°C 31.3°F-0.4°C 98% 6.0 mph SSW9.7 kmh SSW -- 29.75 in1007.5 mb 0.00 in0.0 mm 0.00 in0.0 mm 0.00 in0.0 mm
07:55 AM 31.9°F-0.1°C 31.3°F-0.4°C 98% 6.0 mph 9.7 kmh -- 29.75 in1007.5 mb 0.00 in0.0 mm 0.00 in0.0 mm 0.00 in0.0 mm
07:56 AM 31.9°F-0.1°C 31.3°F-0.4°C 98% 7.0 mph S11.3 kmh S -- 29.75 in1007.5 mb 0.00 in0.0 mm 0.00 in0.0 mm 0.00 in0.0 mm
07:57 AM 31.9°F-0.1°C 31.3°F-0.4°C 98% 8.0 mph SSW12.9 kmh SSW -- 29.75 in1007.5 mb 0.00 in0.0 mm 0.00 in0.0 mm 0.00 in0.0 mm
07:58 AM 31.7°F-0.2°C 31.1°F-0.5°C 98% 5.0 mph SSW8.0 kmh SSW -- 29.74 in1007.1 mb 0.00 in0.0 mm 0.00 in0.0 mm 0.00 in0.0 mm
07:59 AM 31.7°F-0.2°C 31.1°F-0.5°C 98% 7.0 mph SSW11.3 kmh SSW -- 29.74 in1007.1 mb 0.00 in0.0 mm 0.00 in0.0 mm 0.00 in0.0 mm
08:00 AM 31.7°F-0.2°C 31.1°F-0.5°C 98% 3.0 mph SSW4.8 kmh SSW -- 29.75 in1007.5 mb 0.00 in0.0 mm 0.00 in0.0 mm 0.00 in0.0 mm
08:01 AM 31.9°F-0.1°C 31.3°F-0.4°C 98% 5.0 mph S8.0 kmh S -- 29.75 in1007.5 mb 0.00 in0.0 mm 0.00 in0.0 mm 0.00 in0.0 mm
08:02 AM 31.9°F-0.1°C 31.3°F-0.4°C 98% 7.0 mph SSW11.3 kmh SSW -- 29.75 in1007.5 mb 0.00 in0.0 mm 0.00 in0.0 mm 0.00 in0.0 mm
08:03 AM 31.9°F-0.1°C 31.3°F-0.4°C 98% 7.0 mph SW11.3 kmh SW -- 29.75 in1007.5 mb 0.00 in0.0 mm 0.00 in0.0 mm 0.00 in0.0 mm
08:04 AM 31.7°F-0.2°C 31.1°F-0.5°C 98% 10.0 mph S16.1 kmh S -- 29.75 in1007.5 mb 0.00 in0.0 mm 0.00 in0.0 mm 0.00 in0.0 mm
08:05 AM 31.7°F-0.2°C 31.1°F-0.5°C 98% 5.0 mph SW8.0 kmh SW -- 29.75 in1007.5 mb 0.00 in0.0 mm 0.00 in0.0 mm 0.00 in0.0 mm
08:06 AM 31.7°F-0.2°C 31.1°F-0.5°C 98% 7.0 mph S11.3 kmh S -- 29.75 in1007.5 mb 0.00 in0.0 mm 0.00 in0.0 mm 0.00 in0.0 mm
08:07 AM 31.7°F-0.2°C 31.1°F-0.5°C 98% 9.0 mph SW14.5 kmh SW -- 29.75 in1007.5 mb 0.00 in0.0 mm 0.00 in0.0 mm 0.00 in0.0 mm
08:08 AM 31.7°F-0.2°C 31.1°F-0.5°C 98% 7.0 mph S11.3 kmh S -- 29.75 in1007.5 mb 0.00 in0.0 mm 0.00 in0.0 mm 0.00 in0.0 mm
08:09 AM 31.7°F-0.2°C 31.1°F-0.5°C 98% 5.0 mph S8.0 kmh S -- 29.75 in1007.5 mb 0.00 in0.0 mm 0.00 in0.0 mm 0.00 in0.0 mm
08:10 AM 31.9°F-0.1°C 31.3°F-0.4°C 98% 4.0 mph SSW6.4 kmh SSW -- 29.75 in1007.5 mb 0.00 in0.0 mm 0.00 in0.0 mm 0.00 in0.0 mm
08:11 AM 32.2°F0.1°C 31.7°F-0.2°C 98% 8.0 mph SSW12.9 kmh SSW -- 29.75 in1007.5 mb 0.00 in0.0 mm 0.00 in0.0 mm 0.00 in0.0 mm
08:12 AM 32.2°F0.1°C 31.7°F-0.2°C 98% 5.0 mph SSW8.0 kmh SSW -- 29.75 in1007.5 mb 0.00 in0.0 mm 0.00 in0.0 mm 0.00 in0.0 mm
08:13 AM 32.2°F0.1°C 31.7°F-0.2°C 98% 6.0 mph SSW9.7 kmh SSW -- 29.75 in1007.5 mb 0.00 in0.0 mm 0.00 in0.0 mm 0.00 in0.0 mm
08:14 AM 32.2°F0.1°C 31.7°F-0.2°C 98% 9.0 mph S14.5 kmh S -- 29.75 in1007.5 mb 0.00 in0.0 mm 0.00 in0.0 mm 0.00 in0.0 mm
08:15 AM 32.2°F0.1°C 31.7°F-0.2°C 98% 8.0 mph SSW12.9 kmh SSW -- 29.75 in1007.5 mb 0.00 in0.0 mm 0.00 in0.0 mm 0.00 in0.0 mm
08:16 AM 32.2°F0.1°C 31.7°F-0.2°C 98% 2.0 mph S3.2 kmh S -- 29.75 in1007.5 mb 0.00 in0.0 mm 0.00 in0.0 mm 0.00 in0.0 mm
08:17 AM 32.2°F0.1°C 31.7°F-0.2°C 98% 4.0 mph SSW6.4 kmh SSW -- 29.75 in1007.5 mb 0.00 in0.0 mm 0.00 in0.0 mm 0.00 in0.0 mm
08:18 AM 32.2°F0.1°C 31.7°F-0.2°C 98% 6.0 mph SSW9.7 kmh SSW -- 29.75 in1007.5 mb 0.00 in0.0 mm 0.00 in0.0 mm 0.00 in0.0 mm
08:19 AM 31.9°F-0.1°C 31.3°F-0.4°C 98% 4.0 mph SW6.4 kmh SW -- 29.76 in1007.8 mb 0.00 in0.0 mm 0.00 in0.0 mm 0.00 in0.0 mm
08:20 AM 31.9°F-0.1°C 31.3°F-0.4°C 98% 5.0 mph SW8.0 kmh SW -- 29.76 in1007.8 mb 0.00 in0.0 mm 0.00 in0.0 mm 0.00 in0.0 mm
08:21 AM 31.9°F-0.1°C 31.3°F-0.4°C 98% 7.0 mph SW11.3 kmh SW -- 29.75 in1007.5 mb 0.00 in0.0 mm 0.00 in0.0 mm 0.00 in0.0 mm
08:22 AM 31.9°F-0.1°C 31.3°F-0.4°C 98% 8.0 mph S12.9 kmh S -- 29.75 in1007.5 mb 0.00 in0.0 mm 0.00 in0.0 mm 0.00 in0.0 mm
08:23 AM 31.9°F-0.1°C 31.3°F-0.4°C 98% 5.0 mph SE8.0 kmh SE -- 29.75 in1007.5 mb 0.00 in0.0 mm 0.00 in0.0 mm 0.00 in0.0 mm
08:24 AM 32.2°F0.1°C 31.7°F-0.2°C 98% 4.0 mph W6.4 kmh W -- 29.75 in1007.5 mb 0.00 in0.0 mm 0.00 in0.0 mm 0.00 in0.0 mm
08:25 AM 32.4°F0.2°C 31.9°F-0.1°C 98% 6.0 mph SSW9.7 kmh SSW -- 29.75 in1007.5 mb 0.00 in0.0 mm 0.00 in0.0 mm 0.00 in0.0 mm
08:26 AM 32.5°F0.3°C 32.0°F0.0°C 98% 5.0 mph SW8.0 kmh SW -- 29.75 in1007.5 mb 0.00 in0.0 mm 0.00 in0.0 mm 0.00 in0.0 mm
08:27 AM 32.5°F0.3°C 32.0°F0.0°C 98% 8.0 mph S12.9 kmh S -- 29.75 in1007.5 mb 0.00 in0.0 mm 0.00 in0.0 mm 0.00 in0.0 mm
08:28 AM 32.4°F0.2°C 31.9°F-0.1°C 98% 6.0 mph SW9.7 kmh SW -- 29.76 in1007.8 mb 0.00 in0.0 mm 0.00 in0.0 mm 0.00 in0.0 mm
08:29 AM 32.2°F0.1°C 31.7°F-0.2°C 98% 4.0 mph WNW6.4 kmh WNW -- 29.75 in1007.5 mb 0.00 in0.0 mm 0.00 in0.0 mm 0.00 in0.0 mm
08:30 AM 32.2°F0.1°C 31.7°F-0.2°C 98% 7.0 mph WSW11.3 kmh WSW -- 29.75 in1007.5 mb 0.00 in0.0 mm 0.00 in0.0 mm 0.00 in0.0 mm
08:31 AM 32.4°F0.2°C 31.9°F-0.1°C 98% 4.0 mph W6.4 kmh W -- 29.76 in1007.8 mb 0.00 in0.0 mm 0.00 in0.0 mm 0.00 in0.0 mm
08:32 AM 32.4°F0.2°C 31.9°F-0.1°C 98% 6.0 mph S9.7 kmh S -- 29.76 in1007.8 mb 0.00 in0.0 mm 0.00 in0.0 mm 0.00 in0.0 mm
08:33 AM 32.2°F0.1°C 31.7°F-0.2°C 98% 7.0 mph SSE11.3 kmh SSE -- 29.76 in1007.8 mb 0.00 in0.0 mm 0.00 in0.0 mm 0.00 in0.0 mm
08:34 AM 32.2°F0.1°C 31.7°F-0.2°C 98% 7.0 mph SSW11.3 kmh SSW -- 29.76 in1007.8 mb 0.00 in0.0 mm 0.00 in0.0 mm 0.00 in0.0 mm
08:35 AM 32.2°F0.1°C 31.7°F-0.2°C 98% 4.0 mph SE6.4 kmh SE -- 29.76 in1007.8 mb 0.00 in0.0 mm 0.00 in0.0 mm 0.00 in0.0 mm
08:36 AM 32.4°F0.2°C 31.9°F-0.1°C 98% 4.0 mph S6.4 kmh S -- 29.76 in1007.8 mb 0.00 in0.0 mm 0.00 in0.0 mm 0.00 in0.0 mm
08:37 AM 32.5°F0.3°C 32.0°F0.0°C 98% 5.0 mph S8.0 kmh S -- 29.76 in1007.8 mb 0.00 in0.0 mm 0.00 in0.0 mm 0.00 in0.0 mm
08:38 AM 32.6°F0.3°C 32.0°F0.0°C 98% 6.0 mph W9.7 kmh W -- 29.76 in1007.8 mb 0.00 in0.0 mm 0.00 in0.0 mm 0.00 in0.0 mm
08:39 AM 32.6°F0.3°C 32.0°F0.0°C 98% 4.0 mph WSW6.4 kmh WSW -- 29.76 in1007.8 mb 0.00 in0.0 mm 0.00 in0.0 mm 0.00 in0.0 mm
08:40 AM 32.9°F0.5°C 32.4°F0.2°C 98% 5.0 mph S8.0 kmh S -- 29.76 in1007.8 mb 0.00 in0.0 mm 0.00 in0.0 mm 0.00 in0.0 mm
08:41 AM 33.0°F0.6°C 32.6°F0.3°C 98% 6.0 mph S9.7 kmh S -- 29.76 in1007.8 mb 0.00 in0.0 mm 0.00 in0.0 mm 0.00 in0.0 mm
08:42 AM 33.0°F0.6°C 32.6°F0.3°C 98% 4.0 mph WSW6.4 kmh WSW -- 29.76 in1007.8 mb 0.00 in0.0 mm 0.00 in0.0 mm 0.00 in0.0 mm
08:43 AM 32.5°F0.3°C 32.0°F0.0°C 98% 4.0 mph S6.4 kmh S -- 29.75 in1007.5 mb 0.00 in0.0 mm 0.00 in0.0 mm 0.00 in0.0 mm
08:44 AM 32.5°F0.3°C 32.0°F0.0°C 98% 2.0 mph SSW3.2 kmh SSW -- 29.76 in1007.8 mb 0.00 in0.0 mm 0.00 in0.0 mm 0.00 in0.0 mm
08:45 AM 32.6°F0.3°C 32.0°F0.0°C 98% 3.0 mph SSE4.8 kmh SSE -- 29.76 in1007.8 mb 0.00 in0.0 mm 0.00 in0.0 mm 0.00 in0.0 mm
08:46 AM 32.6°F0.3°C 32.0°F0.0°C 98% 5.0 mph SSW8.0 kmh SSW -- 29.77 in1008.1 mb 0.00 in0.0 mm 0.00 in0.0 mm 0.00 in0.0 mm
08:47 AM 32.6°F0.3°C 32.0°F0.0°C 98% 3.0 mph NW4.8 kmh NW -- 29.76 in1007.8 mb 0.00 in0.0 mm 0.00 in0.0 mm 0.00 in0.0 mm
08:48 AM 32.9°F0.5°C 32.4°F0.2°C 98% 7.0 mph W11.3 kmh W -- 29.76 in1007.8 mb 0.00 in0.0 mm 0.00 in0.0 mm 0.00 in0.0 mm
08:49 AM 33.0°F0.6°C 32.6°F0.3°C 98% 4.0 mph WSW6.4 kmh WSW -- 29.76 in1007.8 mb 0.00 in0.0 mm 0.00 in0.0 mm 0.00 in0.0 mm
08:50 AM 33.0°F0.6°C 32.6°F0.3°C 98% 4.0 mph W6.4 kmh W -- 29.76 in1007.8 mb 0.00 in0.0 mm 0.00 in0.0 mm 0.00 in0.0 mm
08:51 AM 32.9°F0.5°C 32.4°F0.2°C 98% 4.0 mph W6.4 kmh W -- 29.77 in1008.1 mb 0.00 in0.0 mm 0.00 in0.0 mm 0.00 in0.0 mm
08:52 AM 32.6°F0.3°C 32.0°F0.0°C 98% 5.0 mph W8.0 kmh W -- 29.77 in1008.1 mb 0.00 in0.0 mm 0.00 in0.0 mm 0.00 in0.0 mm
08:53 AM 32.5°F0.3°C 32.0°F0.0°C 98% 3.0 mph SW4.8 kmh SW -- 29.77 in1008.1 mb 0.00 in0.0 mm 0.00 in0.0 mm 0.00 in0.0 mm
08:54 AM 32.5°F0.3°C 32.0°F0.0°C 98% 4.0 mph S6.4 kmh S -- 29.77 in1008.1 mb 0.00 in0.0 mm 0.00 in0.0 mm 0.00 in0.0 mm
08:55 AM 32.5°F0.3°C 32.0°F0.0°C 98% 4.0 mph W6.4 kmh W -- 29.77 in1008.1 mb 0.00 in0.0 mm 0.00 in0.0 mm 0.00 in0.0 mm
08:56 AM 32.6°F0.3°C 32.0°F0.0°C 98% 3.0 mph SSE4.8 kmh SSE -- 29.77 in1008.1 mb 0.00 in0.0 mm 0.00 in0.0 mm 0.00 in0.0 mm
08:57 AM 32.9°F0.5°C 32.4°F0.2°C 98% 5.0 mph S8.0 kmh S -- 29.76 in1007.8 mb 0.00 in0.0 mm 0.00 in0.0 mm 0.00 in0.0 mm
08:59 AM 33.0°F0.6°C 32.6°F0.3°C 98% 4.0 mph SW6.4 kmh SW -- 29.77 in1008.1 mb 0.00 in0.0 mm 0.00 in0.0 mm 0.00 in0.0 mm
09:00 AM 33.2°F0.7°C 32.7°F0.4°C 98% 8.0 mph S12.9 kmh S -- 29.77 in1008.1 mb 0.00 in0.0 mm 0.00 in0.0 mm 0.00 in0.0 mm
09:01 AM 33.2°F0.7°C 32.7°F0.4°C 98% 5.0 mph SSE8.0 kmh SSE -- 29.77 in1008.1 mb 0.00 in0.0 mm 0.00 in0.0 mm 0.00 in0.0 mm
09:02 AM 33.2°F0.7°C 32.7°F0.4°C 98% 2.0 mph SW3.2 kmh SW -- 29.77 in1008.1 mb 0.00 in0.0 mm 0.00 in0.0 mm 0.00 in0.0 mm
09:03 AM 33.5°F0.8°C 32.9°F0.5°C 98% 1.0 mph SW1.6 kmh SW -- 29.77 in1008.1 mb 0.00 in0.0 mm 0.00 in0.0 mm 0.00 in0.0 mm
09:04 AM 33.8°F1.0°C 33.3°F0.7°C 98% 3.0 mph SSW4.8 kmh SSW -- 29.77 in1008.1 mb 0.00 in0.0 mm 0.00 in0.0 mm 0.00 in0.0 mm
09:05 AM 34.0°F1.1°C 33.5°F0.8°C 98% 2.0 mph WSW3.2 kmh WSW -- 29.77 in1008.1 mb 0.00 in0.0 mm 0.00 in0.0 mm 0.00 in0.0 mm
09:06 AM 34.0°F1.1°C 33.5°F0.8°C 98% 4.0 mph SW6.4 kmh SW -- 29.77 in1008.1 mb 0.00 in0.0 mm 0.00 in0.0 mm 0.00 in0.0 mm
09:07 AM 33.5°F0.8°C 32.9°F0.5°C 98% 4.0 mph SW6.4 kmh SW -- 29.77 in1008.1 mb 0.00 in0.0 mm 0.00 in0.0 mm 0.00 in0.0 mm
09:08 AM 34.2°F1.2°C 33.6°F0.9°C 98% 6.0 mph W9.7 kmh W -- 29.77 in1008.1 mb 0.00 in0.0 mm 0.00 in0.0 mm 0.00 in0.0 mm
09:09 AM 34.2°F1.2°C 33.6°F0.9°C 98% 2.0 mph SSW3.2 kmh SSW -- 29.77 in1008.1 mb 0.00 in0.0 mm 0.00 in0.0 mm 0.00 in0.0 mm
09:10 AM 33.5°F0.8°C 32.9°F0.5°C 98% 2.0 mph S3.2 kmh S -- 29.77 in1008.1 mb 0.00 in0.0 mm 0.00 in0.0 mm 0.00 in0.0 mm
09:11 AM 33.5°F0.8°C 32.9°F0.5°C 98% 3.0 mph SSW4.8 kmh SSW -- 29.78 in1008.5 mb 0.00 in0.0 mm 0.00 in0.0 mm 0.00 in0.0 mm
09:12 AM 34.0°F1.1°C 33.5°F0.8°C 98% 3.0 mph W4.8 kmh W -- 29.78 in1008.5 mb 0.00 in0.0 mm 0.00 in0.0 mm 0.00 in0.0 mm
09:13 AM 34.2°F1.2°C 33.6°F0.9°C 98% 2.0 mph W3.2 kmh W -- 29.77 in1008.1 mb 0.00 in0.0 mm 0.00 in0.0 mm 0.00 in0.0 mm
09:14 AM 33.8°F1.0°C 33.3°F0.7°C 98% 2.0 mph S3.2 kmh S -- 29.78 in1008.5 mb 0.00 in0.0 mm 0.00 in0.0 mm 0.00 in0.0 mm
09:15 AM 33.5°F0.8°C 32.9°F0.5°C 98% 3.0 mph ESE4.8 kmh ESE -- 29.77 in1008.1 mb 0.00 in0.0 mm 0.00 in0.0 mm 0.00 in0.0 mm
09:16 AM 33.5°F0.8°C 32.9°F0.5°C 98% 4.0 mph SSE6.4 kmh SSE -- 29.77 in1008.1 mb 0.00 in0.0 mm 0.00 in0.0 mm 0.00 in0.0 mm
09:17 AM 33.5°F0.8°C 32.9°F0.5°C 98% 3.0 mph SSE4.8 kmh SSE -- 29.77 in1008.1 mb 0.00 in0.0 mm 0.00 in0.0 mm 0.00 in0.0 mm
09:18 AM 33.5°F0.8°C 32.9°F0.5°C 98% 3.0 mph SSW4.8 kmh SSW -- 29.78 in1008.5 mb 0.00 in0.0 mm 0.00 in0.0 mm 0.00 in0.0 mm
09:19 AM 33.5°F0.8°C 32.9°F0.5°C 98% 2.0 mph SSW3.2 kmh SSW -- 29.78 in1008.5 mb 0.00 in0.0 mm 0.00 in0.0 mm 0.00 in0.0 mm
09:20 AM 33.5°F0.8°C 32.9°F0.5°C 98% 2.0 mph SE3.2 kmh SE -- 29.77 in1008.1 mb 0.00 in0.0 mm 0.00 in0.0 mm 0.00 in0.0 mm
09:21 AM 33.5°F0.8°C 32.9°F0.5°C 98% 2.0 mph SW3.2 kmh SW -- 29.77 in1008.1 mb 0.00 in0.0 mm 0.00 in0.0 mm 0.00 in0.0 mm
09:22 AM 33.5°F0.8°C 32.9°F0.5°C 98% 2.0 mph WSW3.2 kmh WSW -- 29.77 in1008.1 mb 0.00 in0.0 mm 0.00 in0.0 mm 0.00 in0.0 mm
09:24 AM 33.8°F1.0°C 33.3°F0.7°C 98% 3.0 mph S4.8 kmh S -- 29.77 in1008.1 mb 0.00 in0.0 mm 0.00 in0.0 mm 0.00 in0.0 mm
09:25 AM 34.0°F1.1°C 33.5°F0.8°C 98% 2.0 mph SW3.2 kmh SW -- 29.77 in1008.1 mb 0.00 in0.0 mm 0.00 in0.0 mm 0.00 in0.0 mm
09:26 AM 34.0°F1.1°C 33.5°F0.8°C 98% 3.0 mph SSW4.8 kmh SSW -- 29.77 in1008.1 mb 0.00 in0.0 mm 0.00 in0.0 mm 0.00 in0.0 mm
09:27 AM 34.0°F1.1°C 33.5°F0.8°C 98% 3.0 mph S4.8 kmh S -- 29.78 in1008.5 mb 0.00 in0.0 mm 0.00 in0.0 mm 0.00 in0.0 mm
09:28 AM 34.2°F1.2°C 33.6°F0.9°C 98% 5.0 mph WSW8.0 kmh WSW -- 29.78 in1008.5 mb 0.00 in0.0 mm 0.00 in0.0 mm 0.00 in0.0 mm
09:29 AM 34.2°F1.2°C 33.6°F0.9°C 98% 3.0 mph SSW4.8 kmh SSW -- 29.78 in1008.5 mb 0.00 in0.0 mm 0.00 in0.0 mm 0.00 in0.0 mm
09:30 AM 34.2°F1.2°C 33.6°F0.9°C 98% 3.0 mph S4.8 kmh S -- 29.78 in1008.5 mb 0.00 in0.0 mm 0.00 in0.0 mm 0.00 in0.0 mm
09:31 AM 34.2°F1.2°C 33.6°F0.9°C 98% 1.0 mph SSW1.6 kmh SSW -- 29.78 in1008.5 mb 0.00 in0.0 mm 0.00 in0.0 mm 0.00 in0.0 mm
09:32 AM 34.2°F1.2°C 33.6°F0.9°C 98% Calm Calm -- 29.78 in1008.5 mb 0.00 in0.0 mm 0.00 in0.0 mm 0.00 in0.0 mm
09:33 AM 34.2°F1.2°C 33.6°F0.9°C 98% 2.0 mph SSW3.2 kmh SSW -- 29.78 in1008.5 mb 0.00 in0.0 mm 0.00 in0.0 mm 0.00 in0.0 mm
09:34 AM 34.5°F1.4°C 34.0°F1.1°C 98% 3.0 mph SSE4.8 kmh SSE -- 29.77 in1008.1 mb 0.00 in0.0 mm 0.00 in0.0 mm 0.00 in0.0 mm
09:35 AM 34.7°F1.5°C 33.7°F0.9°C 96% 2.0 mph SW3.2 kmh SW -- 29.78 in1008.5 mb 0.00 in0.0 mm 0.00 in0.0 mm 0.00 in0.0 mm
09:36 AM 34.7°F1.5°C 33.7°F0.9°C 96% 5.0 mph SSE8.0 kmh SSE -- 29.78 in1008.5 mb 0.00 in0.0 mm 0.00 in0.0 mm 0.00 in0.0 mm
09:37 AM 34.5°F1.4°C 33.5°F0.8°C 96% 6.0 mph S9.7 kmh S -- 29.78 in1008.5 mb 0.00 in0.0 mm 0.00 in0.0 mm 0.00 in0.0 mm
09:38 AM 34.5°F1.4°C 33.5°F0.8°C 96% 6.0 mph SSW9.7 kmh SSW -- 29.78 in1008.5 mb 0.00 in0.0 mm 0.00 in0.0 mm 0.00 in0.0 mm
09:39 AM 34.2°F1.2°C 33.1°F0.6°C 96% 4.0 mph SE6.4 kmh SE -- 29.78 in1008.5 mb 0.00 in0.0 mm 0.00 in0.0 mm 0.00 in0.0 mm
09:40 AM 34.2°F1.2°C 33.1°F0.6°C 96% 6.0 mph SSE9.7 kmh SSE -- 29.78 in1008.5 mb 0.00 in0.0 mm 0.00 in0.0 mm 0.00 in0.0 mm
09:41 AM 34.2°F1.2°C 33.1°F0.6°C 96% 5.0 mph S8.0 kmh S -- 29.78 in1008.5 mb 0.00 in0.0 mm 0.00 in0.0 mm 0.00 in0.0 mm
09:42 AM 34.2°F1.2°C 33.1°F0.6°C 96% 4.0 mph S6.4 kmh S -- 29.78 in1008.5 mb 0.00 in0.0 mm 0.00 in0.0 mm 0.00 in0.0 mm
09:44 AM 34.2°F1.2°C 33.1°F0.6°C 96% 3.0 mph S4.8 kmh S -- 29.78 in1008.5 mb 0.00 in0.0 mm 0.00 in0.0 mm 0.00 in0.0 mm
09:45 AM 34.2°F1.2°C 33.1°F0.6°C 96% 4.0 mph S6.4 kmh S -- 29.78 in1008.5 mb 0.00 in0.0 mm 0.00 in0.0 mm 0.00 in0.0 mm
09:46 AM 34.2°F1.2°C 33.1°F0.6°C 96% 2.0 mph SE3.2 kmh SE -- 29.78 in1008.5 mb 0.00 in0.0 mm 0.00 in0.0 mm 0.00 in0.0 mm
09:47 AM 34.7°F1.5°C 33.7°F0.9°C 96% 4.0 mph S6.4 kmh S -- 29.78 in1008.5 mb 0.00 in0.0 mm 0.00 in0.0 mm 0.00 in0.0 mm
09:49 AM 34.9°F1.6°C 33.6°F0.9°C 95% 3.0 mph SSW4.8 kmh SSW -- 29.78 in1008.5 mb 0.00 in0.0 mm 0.00 in0.0 mm 0.00 in0.0 mm
09:50 AM 34.9°F1.6°C 33.6°F0.9°C 95% 3.0 mph S4.8 kmh S -- 29.78 in1008.5 mb 0.00 in0.0 mm 0.00 in0.0 mm 0.00 in0.0 mm
09:51 AM 35.0°F1.7°C 33.8°F1.0°C 95% 4.0 mph SSE6.4 kmh SSE -- 29.78 in1008.5 mb 0.00 in0.0 mm 0.00 in0.0 mm 0.00 in0.0 mm
09:52 AM 35.0°F1.7°C 33.8°F1.0°C 95% 5.0 mph SSW8.0 kmh SSW -- 29.78 in1008.5 mb 0.00 in0.0 mm 0.00 in0.0 mm 0.00 in0.0 mm
09:53 AM 34.9°F1.6°C 33.6°F0.9°C 95% 3.0 mph SSW4.8 kmh SSW -- 29.78 in1008.5 mb 0.00 in0.0 mm 0.00 in0.0 mm 0.00 in0.0 mm
09:54 AM 34.9°F1.6°C 33.6°F0.9°C 95% 4.0 mph SSW6.4 kmh SSW -- 29.78 in1008.5 mb 0.00 in0.0 mm 0.00 in0.0 mm 0.00 in0.0 mm
09:55 AM 35.0°F1.7°C 33.8°F1.0°C 95% 6.0 mph SW9.7 kmh SW -- 29.78 in1008.5 mb 0.00 in0.0 mm 0.00 in0.0 mm 0.00 in0.0 mm
09:56 AM 35.0°F1.7°C 33.8°F1.0°C 95% 6.0 mph S9.7 kmh S -- 29.78 in1008.5 mb 0.00 in0.0 mm 0.00 in0.0 mm 0.00 in0.0 mm
09:57 AM 35.0°F1.7°C 33.8°F1.0°C 95% 4.0 mph SSW6.4 kmh SSW -- 29.78 in1008.5 mb 0.00 in0.0 mm 0.00 in0.0 mm 0.00 in0.0 mm
09:58 AM 35.5°F1.9°C 33.6°F0.9°C 93% 3.0 mph SSW4.8 kmh SSW -- 29.78 in1008.5 mb 0.00 in0.0 mm 0.00 in0.0 mm 0.00 in0.0 mm
09:59 AM 35.5°F1.9°C 33.0°F0.6°C 91% 4.0 mph SSE6.4 kmh SSE -- 29.79 in1008.8 mb 0.00 in0.0 mm 0.00 in0.0 mm 0.00 in0.0 mm
10:00 AM 35.4°F1.9°C 33.0°F0.6°C 91% 5.0 mph SSE8.0 kmh SSE -- 29.79 in1008.8 mb 0.00 in0.0 mm 0.00 in0.0 mm 0.00 in0.0 mm
10:01 AM 35.4°F1.9°C 33.0°F0.6°C 91% 4.0 mph SSE6.4 kmh SSE -- 29.79 in1008.8 mb 0.00 in0.0 mm 0.00 in0.0 mm 0.00 in0.0 mm
10:02 AM 35.4°F1.9°C 33.6°F0.9°C 93% 4.0 mph SE6.4 kmh SE -- 29.78 in1008.5 mb 0.00 in0.0 mm 0.00 in0.0 mm 0.00 in0.0 mm
10:04 AM 35.7°F2.1°C 33.4°F0.8°C 91% 3.0 mph SE4.8 kmh SE -- 29.78 in1008.5 mb 0.00 in0.0 mm 0.00 in0.0 mm 0.00 in0.0 mm
10:05 AM 36.2°F2.3°C 33.5°F0.8°C 90% 3.0 mph ESE4.8 kmh ESE -- 29.78 in1008.5 mb 0.00 in0.0 mm 0.00 in0.0 mm 0.00 in0.0 mm
10:06 AM 36.1°F2.3°C 33.5°F0.8°C 90% 1.0 mph E1.6 kmh E -- 29.78 in1008.5 mb 0.00 in0.0 mm 0.00 in0.0 mm 0.00 in0.0 mm
10:07 AM 36.1°F2.3°C 33.7°F0.9°C 91% Calm Calm -- 29.79 in1008.8 mb 0.00 in0.0 mm 0.00 in0.0 mm 0.00 in0.0 mm
10:08 AM 36.1°F2.3°C 33.7°F0.9°C 91% Calm Calm -- 29.79 in1008.8 mb 0.00 in0.0 mm 0.00 in0.0 mm 0.00 in0.0 mm
10:09 AM 35.7°F2.1°C 33.4°F0.8°C 91% Calm Calm -- 29.79 in1008.8 mb 0.00 in0.0 mm 0.00 in0.0 mm 0.00 in0.0 mm
10:10 AM 35.4°F1.9°C 33.6°F0.9°C 93% Calm Calm -- 29.80 in1009.1 mb 0.00 in0.0 mm 0.00 in0.0 mm 0.00 in0.0 mm
10:11 AM 35.4°F1.9°C 33.6°F0.9°C 93% Calm Calm -- 29.80 in1009.1 mb 0.00 in0.0 mm 0.00 in0.0 mm 0.00 in0.0 mm
10:12 AM 35.9°F2.2°C 33.6°F0.9°C 91% Calm Calm -- 29.79 in1008.8 mb 0.00 in0.0 mm 0.00 in0.0 mm 0.00 in0.0 mm
10:13 AM 36.5°F2.5°C 33.8°F1.0°C 90% 2.0 mph S3.2 kmh S -- 29.79 in1008.8 mb 0.00 in0.0 mm 0.00 in0.0 mm 0.00 in0.0 mm
10:14 AM 36.7°F2.6°C 33.4°F0.8°C 88% 4.0 mph SSW6.4 kmh SSW -- 29.80 in1009.1 mb 0.00 in0.0 mm 0.00 in0.0 mm 0.00 in0.0 mm
10:15 AM 36.9°F2.7°C 33.6°F0.9°C 88% 1.0 mph WSW1.6 kmh WSW -- 29.80 in1009.1 mb 0.00 in0.0 mm 0.00 in0.0 mm 0.00 in0.0 mm
10:16 AM 38.2°F3.4°C 34.0°F1.1°C 85% 1.0 mph WNW1.6 kmh WNW -- 29.80 in1009.1 mb 0.00 in0.0 mm 0.00 in0.0 mm 0.00 in0.0 mm
10:17 AM 38.0°F3.3°C 33.2°F0.7°C 83% 2.0 mph SSE3.2 kmh SSE -- 29.80 in1009.1 mb 0.00 in0.0 mm 0.00 in0.0 mm 0.00 in0.0 mm
10:18 AM 37.7°F3.2°C 33.9°F1.1°C 86% 2.0 mph S3.2 kmh S -- 29.80 in1009.1 mb 0.00 in0.0 mm 0.00 in0.0 mm 0.00 in0.0 mm
10:19 AM 37.2°F2.9°C 33.4°F0.8°C 86% 3.0 mph S4.8 kmh S -- 29.80 in1009.1 mb 0.00 in0.0 mm 0.00 in0.0 mm 0.00 in0.0 mm
10:20 AM 37.0°F2.8°C 33.2°F0.7°C 86% 3.0 mph S4.8 kmh S -- 29.80 in1009.1 mb 0.00 in0.0 mm 0.00 in0.0 mm 0.00 in0.0 mm
10:21 AM 36.9°F2.7°C 33.0°F0.6°C 86% 1.0 mph SSE1.6 kmh SSE -- 29.80 in1009.1 mb 0.00 in0.0 mm 0.00 in0.0 mm 0.00 in0.0 mm
10:22 AM 36.9°F2.7°C 33.0°F0.6°C 86% Calm Calm -- 29.80 in1009.1 mb 0.00 in0.0 mm 0.00 in0.0 mm 0.00 in0.0 mm
10:23 AM 39.0°F3.9°C 34.2°F1.2°C 83% Calm Calm -- 29.80 in1009.1 mb 0.00 in0.0 mm 0.00 in0.0 mm 0.00 in0.0 mm
10:24 AM 38.2°F3.4°C 33.4°F0.8°C 83% Calm Calm -- 29.80 in1009.1 mb 0.00 in0.0 mm 0.00 in0.0 mm 0.00 in0.0 mm
10:25 AM 39.0°F3.9°C 34.2°F1.2°C 83% 2.0 mph NNW3.2 kmh NNW -- 29.80 in1009.1 mb 0.00 in0.0 mm 0.00 in0.0 mm 0.00 in0.0 mm
10:26 AM 39.9°F4.4°C 34.5°F1.4°C 81% 1.0 mph 1.6 kmh -- 29.81 in1009.5 mb 0.00 in0.0 mm 0.00 in0.0 mm 0.00 in0.0 mm
10:27 AM 38.0°F3.3°C 33.2°F0.7°C 83% Calm Calm -- 29.81 in1009.5 mb 0.00 in0.0 mm 0.00 in0.0 mm 0.00 in0.0 mm
10:28 AM 38.0°F3.3°C 33.8°F1.0°C 85% Calm Calm -- 29.81 in1009.5 mb 0.00 in0.0 mm 0.00 in0.0 mm 0.00 in0.0 mm
10:29 AM 37.2°F2.9°C 33.4°F0.8°C 86% Calm Calm -- 29.81 in1009.5 mb 0.00 in0.0 mm 0.00 in0.0 mm 0.00 in0.0 mm
10:30 AM 37.2°F2.9°C 33.4°F0.8°C 86% 3.0 mph SE4.8 kmh SE -- 29.80 in1009.1 mb 0.00 in0.0 mm 0.00 in0.0 mm 0.00 in0.0 mm
10:31 AM 37.0°F2.8°C 33.2°F0.7°C 86% 3.0 mph ESE4.8 kmh ESE -- 29.80 in1009.1 mb 0.00 in0.0 mm 0.00 in0.0 mm 0.00 in0.0 mm
10:32 AM 38.0°F3.3°C 33.8°F1.0°C 85% 3.0 mph ESE4.8 kmh ESE -- 29.80 in1009.1 mb 0.00 in0.0 mm 0.00 in0.0 mm 0.00 in0.0 mm
10:33 AM 38.7°F3.7°C 33.3°F0.7°C 81% 3.0 mph ESE4.8 kmh ESE -- 29.81 in1009.5 mb 0.00 in0.0 mm 0.00 in0.0 mm 0.00 in0.0 mm
10:34 AM 38.7°F3.7°C 33.3°F0.7°C 81% 4.0 mph ESE6.4 kmh ESE -- 29.81 in1009.5 mb 0.00 in0.0 mm 0.00 in0.0 mm 0.00 in0.0 mm
10:35 AM 38.7°F3.7°C 33.9°F1.1°C 83% 2.0 mph E3.2 kmh E -- 29.81 in1009.5 mb 0.00 in0.0 mm 0.00 in0.0 mm 0.00 in0.0 mm
10:36 AM 38.4°F3.6°C 33.7°F0.9°C 83% 2.0 mph ESE3.2 kmh ESE -- 29.81 in1009.5 mb 0.00 in0.0 mm 0.00 in0.0 mm 0.00 in0.0 mm
10:38 AM 38.7°F3.7°C 33.9°F1.1°C 83% 3.0 mph ENE4.8 kmh ENE -- 29.81 in1009.5 mb 0.00 in0.0 mm 0.00 in0.0 mm 0.00 in0.0 mm
10:39 AM 38.7°F3.7°C 33.3°F0.7°C 81% 3.0 mph ENE4.8 kmh ENE -- 29.81 in1009.5 mb 0.00 in0.0 mm 0.00 in0.0 mm 0.00 in0.0 mm
10:40 AM 38.7°F3.7°C 33.3°F0.7°C 81% 3.0 mph ESE4.8 kmh ESE -- 29.81 in1009.5 mb 0.00 in0.0 mm 0.00 in0.0 mm 0.00 in0.0 mm
10:41 AM 38.4°F3.6°C 33.7°F0.9°C 83% Calm Calm -- 29.81 in1009.5 mb 0.00 in0.0 mm 0.00 in0.0 mm 0.00 in0.0 mm
10:42 AM 37.5°F3.1°C 33.4°F0.8°C 85% Calm Calm -- 29.81 in1009.5 mb 0.00 in0.0 mm 0.00 in0.0 mm 0.00 in0.0 mm
10:43 AM 37.2°F2.9°C 33.4°F0.8°C 86% 3.0 mph ESE4.8 kmh ESE -- 29.81 in1009.5 mb 0.00 in0.0 mm 0.00 in0.0 mm 0.00 in0.0 mm
10:44 AM 37.4°F3.0°C 33.5°F0.8°C 86% 4.0 mph SSE6.4 kmh SSE -- 29.81 in1009.5 mb 0.00 in0.0 mm 0.00 in0.0 mm 0.00 in0.0 mm
10:45 AM 37.7°F3.2°C 33.6°F0.9°C 85% 1.0 mph ESE1.6 kmh ESE -- 29.81 in1009.5 mb 0.00 in0.0 mm 0.00 in0.0 mm 0.00 in0.0 mm
10:46 AM 38.0°F3.3°C 33.8°F1.0°C 85% 1.0 mph W1.6 kmh W -- 29.81 in1009.5 mb 0.00 in0.0 mm 0.00 in0.0 mm 0.00 in0.0 mm
10:47 AM 40.0°F4.4°C 34.2°F1.2°C 80% 3.0 mph NW4.8 kmh NW -- 29.81 in1009.5 mb 0.00 in0.0 mm 0.00 in0.0 mm 0.00 in0.0 mm
10:48 AM 40.0°F4.4°C 34.2°F1.2°C 80% 2.0 mph NNW3.2 kmh NNW -- 29.81 in1009.5 mb 0.00 in0.0 mm 0.00 in0.0 mm 0.00 in0.0 mm
10:49 AM 40.0°F4.4°C 33.9°F1.1°C 79% 2.0 mph WNW3.2 kmh WNW -- 29.81 in1009.5 mb 0.00 in0.0 mm 0.00 in0.0 mm 0.00 in0.0 mm
10:50 AM 39.7°F4.3°C 33.7°F0.9°C 79% Calm Calm -- 29.81 in1009.5 mb 0.00 in0.0 mm 0.00 in0.0 mm 0.00 in0.0 mm
10:51 AM 38.7°F3.7°C 33.3°F0.7°C 81% 2.0 mph SSE3.2 kmh SSE -- 29.81 in1009.5 mb 0.00 in0.0 mm 0.00 in0.0 mm 0.00 in0.0 mm
10:53 AM 38.7°F3.7°C 33.3°F0.7°C 81% 3.0 mph ESE4.8 kmh ESE -- 29.81 in1009.5 mb 0.00 in0.0 mm 0.00 in0.0 mm 0.00 in0.0 mm
10:54 AM 39.7°F4.3°C 34.0°F1.1°C 80% 1.0 mph SE1.6 kmh SE -- 29.82 in1009.8 mb 0.00 in0.0 mm 0.00 in0.0 mm 0.00 in0.0 mm
10:55 AM 39.5°F4.2°C 33.5°F0.8°C 79% 2.0 mph ESE3.2 kmh ESE -- 29.82 in1009.8 mb 0.00 in0.0 mm 0.00 in0.0 mm 0.00 in0.0 mm
10:56 AM 38.7°F3.7°C 33.3°F0.7°C 81% 2.0 mph SSE3.2 kmh SSE -- 29.82 in1009.8 mb 0.00 in0.0 mm 0.00 in0.0 mm 0.00 in0.0 mm
10:57 AM 39.4°F4.1°C 34.0°F1.1°C 81% 3.0 mph ESE4.8 kmh ESE -- 29.81 in1009.5 mb 0.00 in0.0 mm 0.00 in0.0 mm 0.00 in0.0 mm
10:58 AM 39.9°F4.4°C 33.9°F1.1°C 79% 2.0 mph ESE3.2 kmh ESE -- 29.81 in1009.5 mb 0.00 in0.0 mm 0.00 in0.0 mm 0.00 in0.0 mm
10:59 AM 40.2°F4.6°C 33.9°F1.1°C 78% 3.0 mph ESE4.8 kmh ESE -- 29.81 in1009.5 mb 0.00 in0.0 mm 0.00 in0.0 mm 0.00 in0.0 mm
11:00 AM 41.4°F5.2°C 33.9°F1.1°C 75% 3.0 mph ESE4.8 kmh ESE -- 29.81 in1009.5 mb 0.00 in0.0 mm 0.00 in0.0 mm 0.00 in0.0 mm
11:01 AM 41.5°F5.3°C 34.1°F1.2°C 75% 2.0 mph ESE3.2 kmh ESE -- 29.81 in1009.5 mb 0.00 in0.0 mm 0.00 in0.0 mm 0.00 in0.0 mm
11:02 AM 41.7°F5.4°C 34.3°F1.3°C 75% 4.0 mph ESE6.4 kmh ESE -- 29.81 in1009.5 mb 0.00 in0.0 mm 0.00 in0.0 mm 0.00 in0.0 mm
11:03 AM 40.7°F4.8°C 33.6°F0.9°C 76% 4.0 mph ESE6.4 kmh ESE -- 29.81 in1009.5 mb 0.00 in0.0 mm 0.00 in0.0 mm 0.00 in0.0 mm
11:04 AM 40.5°F4.7°C 34.1°F1.2°C 78% 4.0 mph ESE6.4 kmh ESE -- 29.82 in1009.8 mb 0.00 in0.0 mm 0.00 in0.0 mm 0.00 in0.0 mm
11:05 AM 40.5°F4.7°C 34.1°F1.2°C 78% 5.0 mph ESE8.0 kmh ESE -- 29.82 in1009.8 mb 0.00 in0.0 mm 0.00 in0.0 mm 0.00 in0.0 mm
11:06 AM 40.5°F4.7°C 34.4°F1.3°C 79% 7.0 mph ESE11.3 kmh ESE -- 29.82 in1009.8 mb 0.00 in0.0 mm 0.00 in0.0 mm 0.00 in0.0 mm
11:07 AM 41.4°F5.2°C 34.9°F1.6°C 78% 6.0 mph ESE9.7 kmh ESE -- 29.82 in1009.8 mb 0.00 in0.0 mm 0.00 in0.0 mm 0.00 in0.0 mm
11:08 AM 40.9°F4.9°C 34.4°F1.3°C 78% 5.0 mph ESE8.0 kmh ESE -- 29.82 in1009.8 mb 0.00 in0.0 mm 0.00 in0.0 mm 0.00 in0.0 mm
11:09 AM 40.0°F4.4°C 33.9°F1.1°C 79% 7.0 mph SE11.3 kmh SE -- 29.82 in1009.8 mb 0.00 in0.0 mm 0.00 in0.0 mm 0.00 in0.0 mm
11:10 AM 40.0°F4.4°C 34.2°F1.2°C 80% 6.0 mph SE9.7 kmh SE -- 29.82 in1009.8 mb 0.00 in0.0 mm 0.00 in0.0 mm 0.00 in0.0 mm
11:11 AM 39.7°F4.3°C 34.3°F1.3°C 81% 6.0 mph ESE9.7 kmh ESE -- 29.82 in1009.8 mb 0.00 in0.0 mm 0.00 in0.0 mm 0.00 in0.0 mm
11:12 AM 40.5°F4.7°C 34.4°F1.3°C 79% 7.0 mph ESE11.3 kmh ESE -- 29.82 in1009.8 mb 0.00 in0.0 mm 0.00 in0.0 mm 0.00 in0.0 mm
11:13 AM 41.1°F5.1°C 34.8°F1.6°C 78% 7.0 mph ESE11.3 kmh ESE -- 29.82 in1009.8 mb 0.00 in0.0 mm 0.00 in0.0 mm 0.00 in0.0 mm
11:14 AM 40.9°F4.9°C 33.8°F1.0°C 76% 6.0 mph ESE9.7 kmh ESE -- 29.82 in1009.8 mb 0.00 in0.0 mm 0.00 in0.0 mm 0.00 in0.0 mm
11:15 AM 40.5°F4.7°C 34.1°F1.2°C 78% 5.0 mph SE8.0 kmh SE -- 29.82 in1009.8 mb 0.00 in0.0 mm 0.00 in0.0 mm 0.00 in0.0 mm
11:16 AM 39.9°F4.4°C 34.2°F1.2°C 80% 4.0 mph ESE6.4 kmh ESE -- 29.83 in1010.2 mb 0.00 in0.0 mm 0.00 in0.0 mm 0.00 in0.0 mm
11:17 AM 39.5°F4.2°C 34.1°F1.2°C 81% 4.0 mph SSE6.4 kmh SSE -- 29.83 in1010.2 mb 0.00 in0.0 mm 0.00 in0.0 mm 0.00 in0.0 mm
11:18 AM 39.4°F4.1°C 34.0°F1.1°C 81% 4.0 mph S6.4 kmh S -- 29.82 in1009.8 mb 0.00 in0.0 mm 0.00 in0.0 mm 0.00 in0.0 mm
11:19 AM 40.0°F4.4°C 34.5°F1.4°C 81% 5.0 mph ESE8.0 kmh ESE -- 29.82 in1009.8 mb 0.00 in0.0 mm 0.00 in0.0 mm 0.00 in0.0 mm
11:20 AM 41.7°F5.4°C 34.6°F1.4°C 76% 6.0 mph ESE9.7 kmh ESE -- 29.82 in1009.8 mb 0.00 in0.0 mm 0.00 in0.0 mm 0.00 in0.0 mm
11:21 AM 43.0°F6.1°C 35.2°F1.8°C 74% 6.0 mph ESE9.7 kmh ESE -- 29.82 in1009.8 mb 0.00 in0.0 mm 0.00 in0.0 mm 0.00 in0.0 mm
11:22 AM 44.4°F6.9°C 34.8°F1.6°C 69% 3.0 mph E4.8 kmh E -- 29.82 in1009.8 mb 0.00 in0.0 mm 0.00 in0.0 mm 0.00 in0.0 mm
11:23 AM 45.0°F7.2°C 34.9°F1.6°C 68% 6.0 mph ESE9.7 kmh ESE -- 29.82 in1009.8 mb 0.00 in0.0 mm 0.00 in0.0 mm 0.00 in0.0 mm
11:24 AM 45.7°F7.6°C 34.5°F1.4°C 65% 4.0 mph ESE6.4 kmh ESE -- 29.82 in1009.8 mb 0.00 in0.0 mm 0.00 in0.0 mm 0.00 in0.0 mm
11:25 AM 44.0°F6.7°C 34.1°F1.2°C 68% 3.0 mph ESE4.8 kmh ESE -- 29.83 in1010.2 mb 0.00 in0.0 mm 0.00 in0.0 mm 0.00 in0.0 mm
11:26 AM 43.4°F6.3°C 33.7°F0.9°C 69% 3.0 mph ESE4.8 kmh ESE -- 29.83 in1010.2 mb 0.00 in0.0 mm 0.00 in0.0 mm 0.00 in0.0 mm
11:27 AM 42.1°F5.6°C 34.0°F1.1°C 73% 3.0 mph ESE4.8 kmh ESE -- 29.83 in1010.2 mb 0.00 in0.0 mm 0.00 in0.0 mm 0.00 in0.0 mm
11:28 AM 42.7°F5.9°C 33.8°F1.0°C 71% 4.0 mph NNE6.4 kmh NNE -- 29.83 in1010.2 mb 0.00 in0.0 mm 0.00 in0.0 mm 0.00 in0.0 mm
11:29 AM 44.4°F6.9°C 34.4°F1.3°C 68% 2.0 mph NNW3.2 kmh NNW -- 29.83 in1010.2 mb 0.00 in0.0 mm 0.00 in0.0 mm 0.00 in0.0 mm
11:30 AM 45.0°F7.2°C 33.8°F1.0°C 65% 3.0 mph NE4.8 kmh NE -- 29.83 in1010.2 mb 0.00 in0.0 mm 0.00 in0.0 mm 0.00 in0.0 mm
11:31 AM 45.0°F7.2°C 33.8°F1.0°C 65% 2.0 mph NNE3.2 kmh NNE -- 29.83 in1010.2 mb 0.00 in0.0 mm 0.00 in0.0 mm 0.00 in0.0 mm
11:32 AM 45.5°F7.5°C 34.3°F1.3°C 65% 3.0 mph NNW4.8 kmh NNW -- 29.83 in1010.2 mb 0.00 in0.0 mm 0.00 in0.0 mm 0.00 in0.0 mm
11:33 AM 45.0°F7.2°C 33.8°F1.0°C 65% 3.0 mph W4.8 kmh W -- 29.83 in1010.2 mb 0.00 in0.0 mm 0.00 in0.0 mm 0.00 in0.0 mm
11:34 AM 45.5°F7.5°C 34.3°F1.3°C 65% 3.0 mph NE4.8 kmh NE -- 29.83 in1010.2 mb 0.00 in0.0 mm 0.00 in0.0 mm 0.00 in0.0 mm
11:35 AM 45.0°F7.2°C 33.8°F1.0°C 65% 3.0 mph 4.8 kmh -- 29.83 in1010.2 mb 0.00 in0.0 mm 0.00 in0.0 mm 0.00 in0.0 mm
11:36 AM 45.9°F7.7°C 33.8°F1.0°C 63% 3.0 mph NW4.8 kmh NW -- 29.84 in1010.5 mb 0.00 in0.0 mm 0.00 in0.0 mm 0.00 in0.0 mm
11:37 AM 45.9°F7.7°C 33.8°F1.0°C 63% 3.0 mph NNW4.8 kmh NNW -- 29.84 in1010.5 mb 0.00 in0.0 mm 0.00 in0.0 mm 0.00 in0.0 mm
11:38 AM 45.9°F7.7°C 33.8°F1.0°C 63% 2.0 mph NNW3.2 kmh NNW -- 29.84 in1010.5 mb 0.00 in0.0 mm 0.00 in0.0 mm 0.00 in0.0 mm
11:39 AM 45.7°F7.6°C 34.5°F1.4°C 65% 2.0 mph NNE3.2 kmh NNE -- 29.84 in1010.5 mb 0.00 in0.0 mm 0.00 in0.0 mm 0.00 in0.0 mm
11:40 AM 45.5°F7.5°C 34.3°F1.3°C 65% 3.0 mph NE4.8 kmh NE -- 29.84 in1010.5 mb 0.00 in0.0 mm 0.00 in0.0 mm 0.00 in0.0 mm
11:41 AM 45.0°F7.2°C 33.8°F1.0°C 65% 3.0 mph ESE4.8 kmh ESE -- 29.84 in1010.5 mb 0.00 in0.0 mm 0.00 in0.0 mm 0.00 in0.0 mm
11:42 AM 44.6°F7.0°C 33.8°F1.0°C 66% 2.0 mph SSE3.2 kmh SSE -- 29.84 in1010.5 mb 0.00 in0.0 mm 0.00 in0.0 mm 0.00 in0.0 mm
11:43 AM 42.4°F5.8°C 33.2°F0.7°C 70% 3.0 mph ESE4.8 kmh ESE -- 29.84 in1010.5 mb 0.00 in0.0 mm 0.00 in0.0 mm 0.00 in0.0 mm
11:44 AM 41.7°F5.4°C 33.6°F0.9°C 73% 5.0 mph SSE8.0 kmh SSE -- 29.84 in1010.5 mb 0.00 in0.0 mm 0.00 in0.0 mm 0.00 in0.0 mm
11:45 AM 41.9°F5.5°C 33.8°F1.0°C 73% 3.0 mph S4.8 kmh S -- 29.84 in1010.5 mb 0.00 in0.0 mm 0.00 in0.0 mm 0.00 in0.0 mm
11:46 AM 42.1°F5.6°C 34.0°F1.1°C 73% 3.0 mph SSE4.8 kmh SSE -- 29.84 in1010.5 mb 0.00 in0.0 mm 0.00 in0.0 mm 0.00 in0.0 mm
11:47 AM 42.4°F5.8°C 33.2°F0.7°C 70% 2.0 mph S3.2 kmh S -- 29.84 in1010.5 mb 0.00 in0.0 mm 0.00 in0.0 mm 0.00 in0.0 mm
11:48 AM 42.7°F5.9°C 33.4°F0.8°C 70% 4.0 mph E6.4 kmh E -- 29.84 in1010.5 mb 0.00 in0.0 mm 0.00 in0.0 mm 0.00 in0.0 mm
11:49 AM 43.4°F6.3°C 34.1°F1.2°C 70% 4.0 mph ESE6.4 kmh ESE -- 29.84 in1010.5 mb 0.00 in0.0 mm 0.00 in0.0 mm 0.00 in0.0 mm
11:50 AM 44.4°F6.9°C 34.4°F1.3°C 68% 3.0 mph ENE4.8 kmh ENE -- 29.84 in1010.5 mb 0.00 in0.0 mm 0.00 in0.0 mm 0.00 in0.0 mm
11:51 AM 44.4°F6.9°C 34.4°F1.3°C 68% 3.0 mph E4.8 kmh E -- 29.84 in1010.5 mb 0.00 in0.0 mm 0.00 in0.0 mm 0.00 in0.0 mm
11:52 AM 43.2°F6.2°C 33.6°F0.9°C 69% 4.0 mph E6.4 kmh E -- 29.84 in1010.5 mb 0.00 in0.0 mm 0.00 in0.0 mm 0.00 in0.0 mm
11:53 AM 44.4°F6.9°C 33.7°F0.9°C 66% 5.0 mph ESE8.0 kmh ESE -- 29.84 in1010.5 mb 0.00 in0.0 mm 0.00 in0.0 mm 0.00 in0.0 mm
11:54 AM 44.6°F7.0°C 33.4°F0.8°C 65% 4.0 mph E6.4 kmh E -- 29.84 in1010.5 mb 0.00 in0.0 mm 0.00 in0.0 mm 0.00 in0.0 mm
11:55 AM 44.6°F7.0°C 33.4°F0.8°C 65% 4.0 mph ESE6.4 kmh ESE -- 29.84 in1010.5 mb 0.00 in0.0 mm 0.00 in0.0 mm 0.00 in0.0 mm
11:56 AM 44.2°F6.8°C 33.5°F0.8°C 66% 2.0 mph ESE3.2 kmh ESE -- 29.84 in1010.5 mb 0.00 in0.0 mm 0.00 in0.0 mm 0.00 in0.0 mm
11:57 AM 43.2°F6.2°C 33.6°F0.9°C 69% 2.0 mph E3.2 kmh E -- 29.84 in1010.5 mb 0.00 in0.0 mm 0.00 in0.0 mm 0.00 in0.0 mm
11:58 AM 41.9°F5.5°C 32.7°F0.4°C 70% 2.0 mph ESE3.2 kmh ESE -- 29.84 in1010.5 mb 0.00 in0.0 mm 0.00 in0.0 mm 0.00 in0.0 mm
11:59 AM 42.3°F5.7°C 33.1°F0.6°C 70% 2.0 mph E3.2 kmh E -- 29.84 in1010.5 mb 0.00 in0.0 mm 0.00 in0.0 mm 0.00 in0.0 mm
12:00 PM 43.0°F6.1°C 33.8°F1.0°C 70% 3.0 mph ESE4.8 kmh ESE -- 29.84 in1010.5 mb 0.00 in0.0 mm 0.00 in0.0 mm 0.00 in0.0 mm
12:01 PM 42.4°F5.8°C 33.2°F0.7°C 70% 1.0 mph SSE1.6 kmh SSE -- 29.84 in1010.5 mb 0.00 in0.0 mm 0.00 in0.0 mm 0.00 in0.0 mm
12:02 PM 42.3°F5.7°C 33.1°F0.6°C 70% Calm Calm -- 29.84 in1010.5 mb 0.00 in0.0 mm 0.00 in0.0 mm 0.00 in0.0 mm
12:03 PM 41.7°F5.4°C 32.9°F0.5°C 71% Calm Calm -- 29.84 in1010.5 mb 0.00 in0.0 mm 0.00 in0.0 mm 0.00 in0.0 mm
12:04 PM 41.1°F5.1°C 33.1°F0.6°C 73% Calm Calm -- 29.85 in1010.8 mb 0.00 in0.0 mm 0.00 in0.0 mm 0.00 in0.0 mm
12:05 PM 41.9°F5.5°C 33.1°F0.6°C 71% Calm Calm -- 29.85 in1010.8 mb 0.00 in0.0 mm 0.00 in0.0 mm 0.00 in0.0 mm
12:06 PM 42.5°F5.8°C 33.2°F0.7°C 70% 2.0 mph ESE3.2 kmh ESE -- 29.85 in1010.8 mb 0.00 in0.0 mm 0.00 in0.0 mm 0.00 in0.0 mm
12:07 PM 43.2°F6.2°C 33.6°F0.9°C 69% 4.0 mph SE6.4 kmh SE -- 29.85 in1010.8 mb 0.00 in0.0 mm 0.00 in0.0 mm 0.00 in0.0 mm
12:08 PM 43.2°F6.2°C 33.6°F0.9°C 69% 1.0 mph SSE1.6 kmh SSE -- 29.85 in1010.8 mb 0.00 in0.0 mm 0.00 in0.0 mm 0.00 in0.0 mm
12:09 PM 43.2°F6.2°C 33.6°F0.9°C 69% 2.0 mph S3.2 kmh S -- 29.85 in1010.8 mb 0.00 in0.0 mm 0.00 in0.0 mm 0.00 in0.0 mm
12:10 PM 43.2°F6.2°C 33.6°F0.9°C 69% Calm Calm -- 29.85 in1010.8 mb 0.00 in0.0 mm 0.00 in0.0 mm 0.00 in0.0 mm
12:11 PM 44.0°F6.7°C 34.1°F1.2°C 68% Calm Calm -- 29.85 in1010.8 mb 0.00 in0.0 mm 0.00 in0.0 mm 0.00 in0.0 mm
12:12 PM 44.8°F7.1°C 34.0°F1.1°C 66% Calm Calm -- 29.85 in1010.8 mb 0.00 in0.0 mm 0.00 in0.0 mm 0.00 in0.0 mm
12:13 PM 46.4°F8.0°C 35.2°F1.8°C 65% Calm Calm -- 29.85 in1010.8 mb 0.00 in0.0 mm 0.00 in0.0 mm 0.00 in0.0 mm
12:14 PM 46.5°F8.1°C 33.7°F0.9°C 61% 1.0 mph 1.6 kmh -- 29.85 in1010.8 mb 0.00 in0.0 mm 0.00 in0.0 mm 0.00 in0.0 mm
12:15 PM 45.0°F7.2°C 33.8°F1.0°C 65% Calm Calm -- 29.85 in1010.8 mb 0.00 in0.0 mm 0.00 in0.0 mm 0.00 in0.0 mm
12:16 PM 43.4°F6.3°C 34.1°F1.2°C 70% 2.0 mph SE3.2 kmh SE -- 29.85 in1010.8 mb 0.00 in0.0 mm 0.00 in0.0 mm 0.00 in0.0 mm
12:17 PM 44.0°F6.7°C 34.4°F1.3°C 69% 2.0 mph W3.2 kmh W -- 29.85 in1010.8 mb 0.00 in0.0 mm 0.00 in0.0 mm 0.00 in0.0 mm
12:18 PM 44.4°F6.9°C 33.7°F0.9°C 66% 2.0 mph SSE3.2 kmh SSE -- 29.85 in1010.8 mb 0.00 in0.0 mm 0.00 in0.0 mm 0.00 in0.0 mm
12:19 PM 43.2°F6.2°C 33.6°F0.9°C 69% Calm Calm -- 29.85 in1010.8 mb 0.00 in0.0 mm 0.00 in0.0 mm 0.00 in0.0 mm
12:20 PM 43.4°F6.3°C 33.7°F0.9°C 69% Calm Calm -- 29.85 in1010.8 mb 0.00 in0.0 mm 0.00 in0.0 mm 0.00 in0.0 mm
12:21 PM 44.8°F7.1°C 34.0°F1.1°C 66% Calm Calm -- 29.85 in1010.8 mb 0.00 in0.0 mm 0.00 in0.0 mm 0.00 in0.0 mm
12:22 PM 45.5°F7.5°C 34.3°F1.3°C 65% 3.0 mph ENE4.8 kmh ENE -- 29.85 in1010.8 mb 0.00 in0.0 mm 0.00 in0.0 mm 0.00 in0.0 mm
12:23 PM 46.4°F8.0°C 34.4°F1.3°C 63% 3.0 mph E4.8 kmh E -- 29.85 in1010.8 mb 0.00 in0.0 mm 0.00 in0.0 mm 0.00 in0.0 mm
12:24 PM 45.0°F7.2°C 33.0°F0.6°C 63% 2.0 mph ESE3.2 kmh ESE -- 29.85 in1010.8 mb 0.00 in0.0 mm 0.00 in0.0 mm 0.00 in0.0 mm
12:25 PM 43.2°F6.2°C 33.2°F0.7°C 68% 1.0 mph ESE1.6 kmh ESE -- 29.85 in1010.8 mb 0.00 in0.0 mm 0.00 in0.0 mm 0.00 in0.0 mm
12:26 PM 43.2°F6.2°C 33.9°F1.1°C 70% 2.0 mph NNE3.2 kmh NNE -- 29.85 in1010.8 mb 0.00 in0.0 mm 0.00 in0.0 mm 0.00 in0.0 mm
12:27 PM 44.8°F7.1°C 34.0°F1.1°C 66% 2.0 mph WNW3.2 kmh WNW -- 29.85 in1010.8 mb 0.00 in0.0 mm 0.00 in0.0 mm 0.00 in0.0 mm
12:28 PM 46.7°F8.2°C 34.7°F1.5°C 63% 2.0 mph NNE3.2 kmh NNE -- 29.85 in1010.8 mb 0.00 in0.0 mm 0.00 in0.0 mm 0.00 in0.0 mm
12:29 PM 47.1°F8.4°C 35.0°F1.7°C 63% 4.0 mph NE6.4 kmh NE -- 29.85 in1010.8 mb 0.00 in0.0 mm 0.00 in0.0 mm 0.00 in0.0 mm
12:30 PM 47.3°F8.5°C 35.2°F1.8°C 63% 4.0 mph NE6.4 kmh NE -- 29.85 in1010.8 mb 0.00 in0.0 mm 0.00 in0.0 mm 0.00 in0.0 mm
12:31 PM 47.5°F8.6°C 34.6°F1.4°C 61% 4.0 mph NE6.4 kmh NE -- 29.85 in1010.8 mb 0.00 in0.0 mm 0.00 in0.0 mm 0.00 in0.0 mm
12:32 PM 47.6°F8.7°C 34.7°F1.5°C 61% 3.0 mph NNE4.8 kmh NNE -- 29.85 in1010.8 mb 0.00 in0.0 mm 0.00 in0.0 mm 0.00 in0.0 mm
12:33 PM 47.7°F8.7°C 34.7°F1.5°C 61% 4.0 mph ENE6.4 kmh ENE -- 29.85 in1010.8 mb 0.00 in0.0 mm 0.00 in0.0 mm 0.00 in0.0 mm
12:34 PM 47.7°F8.7°C 34.7°F1.5°C 61% 3.0 mph NE4.8 kmh NE -- 29.85 in1010.8 mb 0.00 in0.0 mm 0.00 in0.0 mm 0.00 in0.0 mm
12:35 PM 47.3°F8.5°C 34.4°F1.3°C 61% 4.0 mph NE6.4 kmh NE -- 29.85 in1010.8 mb 0.00 in0.0 mm 0.00 in0.0 mm 0.00 in0.0 mm
12:36 PM 46.5°F8.1°C 34.5°F1.4°C 63% 3.0 mph 4.8 kmh -- 29.85 in1010.8 mb 0.00 in0.0 mm 0.00 in0.0 mm 0.00 in0.0 mm
12:37 PM 46.5°F8.1°C 34.5°F1.4°C 63% 3.0 mph NW4.8 kmh NW -- 29.85 in1010.8 mb 0.00 in0.0 mm 0.00 in0.0 mm 0.00 in0.0 mm
12:38 PM 46.4°F8.0°C 34.4°F1.3°C 63% 3.0 mph NNE4.8 kmh NNE -- 29.85 in1010.8 mb 0.00 in0.0 mm 0.00 in0.0 mm 0.00 in0.0 mm
12:39 PM 46.7°F8.2°C 34.7°F1.5°C 63% 2.0 mph 3.2 kmh -- 29.85 in1010.8 mb 0.00 in0.0 mm 0.00 in0.0 mm 0.00 in0.0 mm
12:40 PM 46.5°F8.1°C 34.5°F1.4°C 63% 2.0 mph NNE3.2 kmh NNE -- 29.85 in1010.8 mb 0.00 in0.0 mm 0.00 in0.0 mm 0.00 in0.0 mm
12:41 PM 47.6°F8.7°C 34.7°F1.5°C 61% 3.0 mph 4.8 kmh -- 29.85 in1010.8 mb 0.00 in0.0 mm 0.00 in0.0 mm 0.00 in0.0 mm
12:42 PM 48.0°F8.9°C 35.1°F1.7°C 61% 4.0 mph NNW6.4 kmh NNW -- 29.85 in1010.8 mb 0.00 in0.0 mm 0.00 in0.0 mm 0.00 in0.0 mm
12:43 PM 48.2°F9.0°C 35.2°F1.8°C 61% 3.0 mph NW4.8 kmh NW -- 29.85 in1010.8 mb 0.00 in0.0 mm 0.00 in0.0 mm 0.00 in0.0 mm
12:44 PM 48.0°F8.9°C 35.1°F1.7°C 61% 5.0 mph NNW8.0 kmh NNW -- 29.85 in1010.8 mb 0.00 in0.0 mm 0.00 in0.0 mm 0.00 in0.0 mm
12:45 PM 47.6°F8.7°C 34.7°F1.5°C 61% 4.0 mph NNE6.4 kmh NNE -- 29.85 in1010.8 mb 0.00 in0.0 mm 0.00 in0.0 mm 0.00 in0.0 mm
12:46 PM 47.6°F8.7°C 34.7°F1.5°C 61% 2.0 mph W3.2 kmh W -- 29.85 in1010.8 mb 0.00 in0.0 mm 0.00 in0.0 mm 0.00 in0.0 mm
12:47 PM 47.5°F8.6°C 34.6°F1.4°C 61% 3.0 mph NNW4.8 kmh NNW -- 29.85 in1010.8 mb 0.00 in0.0 mm 0.00 in0.0 mm 0.00 in0.0 mm
12:48 PM 47.7°F8.7°C 34.7°F1.5°C 61% 5.0 mph NW8.0 kmh NW -- 29.85 in1010.8 mb 0.00 in0.0 mm 0.00 in0.0 mm 0.00 in0.0 mm
12:49 PM 48.5°F9.2°C 35.2°F1.8°C 60% 4.0 mph ENE6.4 kmh ENE -- 29.85 in1010.8 mb 0.00 in0.0 mm 0.00 in0.0 mm 0.00 in0.0 mm
12:50 PM 48.6°F9.2°C 35.2°F1.8°C 60% 3.0 mph NE4.8 kmh NE -- 29.85 in1010.8 mb 0.00 in0.0 mm 0.00 in0.0 mm 0.00 in0.0 mm
12:51 PM 48.0°F8.9°C 35.1°F1.7°C 61% 3.0 mph 4.8 kmh -- 29.85 in1010.8 mb 0.00 in0.0 mm 0.00 in0.0 mm 0.00 in0.0 mm
12:52 PM 47.7°F8.7°C 34.7°F1.5°C 61% 2.0 mph NNW3.2 kmh NNW -- 29.86 in1011.2 mb 0.00 in0.0 mm 0.00 in0.0 mm 0.00 in0.0 mm
12:53 PM 48.0°F8.9°C 35.1°F1.7°C 61% 3.0 mph NW4.8 kmh NW -- 29.85 in1010.8 mb 0.00 in0.0 mm 0.00 in0.0 mm 0.00 in0.0 mm
12:54 PM 48.0°F8.9°C 34.7°F1.5°C 60% 1.0 mph NNE1.6 kmh NNE -- 29.85 in1010.8 mb 0.00 in0.0 mm 0.00 in0.0 mm 0.00 in0.0 mm
12:55 PM 48.9°F9.4°C 35.5°F1.9°C 60% 3.0 mph ENE4.8 kmh ENE -- 29.85 in1010.8 mb 0.00 in0.0 mm 0.00 in0.0 mm 0.00 in0.0 mm
12:56 PM 49.2°F9.6°C 35.4°F1.9°C 59% 4.0 mph NNE6.4 kmh NNE -- 29.85 in1010.8 mb 0.00 in0.0 mm 0.00 in0.0 mm 0.00 in0.0 mm
12:57 PM 49.6°F9.8°C 35.3°F1.8°C 58% 3.0 mph NE4.8 kmh NE -- 29.85 in1010.8 mb 0.00 in0.0 mm 0.00 in0.0 mm 0.00 in0.0 mm
12:58 PM 49.4°F9.7°C 35.2°F1.8°C 58% 3.0 mph NE4.8 kmh NE -- 29.85 in1010.8 mb 0.00 in0.0 mm 0.00 in0.0 mm 0.00 in0.0 mm
12:59 PM 49.4°F9.7°C 35.2°F1.8°C 58% 1.0 mph NW1.6 kmh NW -- 29.85 in1010.8 mb 0.00 in0.0 mm 0.00 in0.0 mm 0.00 in0.0 mm
01:00 PM 50.1°F10.1°C 34.9°F1.6°C 56% Calm Calm -- 29.85 in1010.8 mb 0.00 in0.0 mm 0.00 in0.0 mm 0.00 in0.0 mm
01:01 PM 49.2°F9.6°C 35.0°F1.7°C 58% 2.0 mph W3.2 kmh W -- 29.85 in1010.8 mb 0.00 in0.0 mm 0.00 in0.0 mm 0.00 in0.0 mm
01:02 PM 49.6°F9.8°C 34.4°F1.3°C 56% 1.0 mph NW1.6 kmh NW -- 29.86 in1011.2 mb 0.00 in0.0 mm 0.00 in0.0 mm 0.00 in0.0 mm
01:03 PM 49.6°F9.8°C 35.8°F2.1°C 59% 4.0 mph WNW6.4 kmh WNW -- 29.86 in1011.2 mb 0.00 in0.0 mm 0.00 in0.0 mm 0.00 in0.0 mm
01:04 PM 50.9°F10.5°C 35.2°F1.8°C 55% 3.0 mph NW4.8 kmh NW -- 29.86 in1011.2 mb 0.00 in0.0 mm 0.00 in0.0 mm 0.00 in0.0 mm
01:05 PM 51.3°F10.7°C 35.5°F1.9°C 55% 3.0 mph WNW4.8 kmh WNW -- 29.86 in1011.2 mb 0.00 in0.0 mm 0.00 in0.0 mm 0.00 in0.0 mm
01:06 PM 50.0°F10.0°C 34.8°F1.6°C 56% 1.0 mph W1.6 kmh W -- 29.86 in1011.2 mb 0.00 in0.0 mm 0.00 in0.0 mm 0.00 in0.0 mm
01:07 PM 49.0°F9.4°C 35.1°F1.7°C 59% 2.0 mph W3.2 kmh W -- 29.86 in1011.2 mb 0.00 in0.0 mm 0.00 in0.0 mm 0.00 in0.0 mm
01:08 PM 48.2°F9.0°C 34.8°F1.6°C 60% 1.0 mph W1.6 kmh W -- 29.86 in1011.2 mb 0.00 in0.0 mm 0.00 in0.0 mm 0.00 in0.0 mm
01:09 PM 48.9°F9.4°C 35.5°F1.9°C 60% 2.0 mph NNE3.2 kmh NNE -- 29.86 in1011.2 mb 0.00 in0.0 mm 0.00 in0.0 mm 0.00 in0.0 mm
01:10 PM 50.1°F10.1°C 35.8°F2.1°C 58% 5.0 mph ESE8.0 kmh ESE -- 29.86 in1011.2 mb 0.00 in0.0 mm 0.00 in0.0 mm 0.00 in0.0 mm
01:11 PM 50.9°F10.5°C 35.6°F2.0°C 56% 3.0 mph ESE4.8 kmh ESE -- 29.86 in1011.2 mb 0.00 in0.0 mm 0.00 in0.0 mm 0.00 in0.0 mm
01:12 PM 49.0°F9.4°C 35.1°F1.7°C 59% 3.0 mph ESE4.8 kmh ESE -- 29.86 in1011.2 mb 0.00 in0.0 mm 0.00 in0.0 mm 0.00 in0.0 mm
01:13 PM 48.9°F9.4°C 35.1°F1.7°C 59% 2.0 mph ESE3.2 kmh ESE -- 29.86 in1011.2 mb 0.00 in0.0 mm 0.00 in0.0 mm 0.00 in0.0 mm
01:14 PM 46.7°F8.2°C 34.7°F1.5°C 63% 3.0 mph SSW4.8 kmh SSW -- 29.86 in1011.2 mb 0.00 in0.0 mm 0.00 in0.0 mm 0.00 in0.0 mm
01:15 PM 46.9°F8.3°C 34.9°F1.6°C 63% 2.0 mph SW3.2 kmh SW -- 29.86 in1011.2 mb 0.00 in0.0 mm 0.00 in0.0 mm 0.00 in0.0 mm
01:16 PM 46.7°F8.2°C 34.7°F1.5°C 63% 1.0 mph W1.6 kmh W -- 29.86 in1011.2 mb 0.00 in0.0 mm 0.00 in0.0 mm 0.00 in0.0 mm
01:17 PM 47.7°F8.7°C 35.6°F2.0°C 63% 3.0 mph NW4.8 kmh NW -- 29.86 in1011.2 mb 0.00 in0.0 mm 0.00 in0.0 mm 0.00 in0.0 mm
01:18 PM 48.0°F8.9°C 35.1°F1.7°C 61% 3.0 mph NNE4.8 kmh NNE -- 29.86 in1011.2 mb 0.00 in0.0 mm 0.00 in0.0 mm 0.00 in0.0 mm
01:19 PM 48.5°F9.2°C 35.6°F2.0°C 61% 2.0 mph NNW3.2 kmh NNW -- 29.86 in1011.2 mb 0.00 in0.0 mm 0.00 in0.0 mm 0.00 in0.0 mm
01:20 PM 49.2°F9.6°C 35.8°F2.1°C 60% 2.0 mph NNW3.2 kmh NNW -- 29.86 in1011.2 mb 0.00 in0.0 mm 0.00 in0.0 mm 0.00 in0.0 mm
01:21 PM 48.9°F9.4°C 35.9°F2.2°C 61% 5.0 mph NE8.0 kmh NE -- 29.86 in1011.2 mb 0.00 in0.0 mm 0.00 in0.0 mm 0.00 in0.0 mm
01:22 PM 49.8°F9.9°C 35.9°F2.2°C 59% 4.0 mph NE6.4 kmh NE -- 29.86 in1011.2 mb 0.00 in0.0 mm 0.00 in0.0 mm 0.00 in0.0 mm
01:23 PM 50.0°F10.0°C 36.1°F2.3°C 59% 2.0 mph NNW3.2 kmh NNW -- 29.86 in1011.2 mb 0.00 in0.0 mm 0.00 in0.0 mm 0.00 in0.0 mm
01:24 PM 50.3°F10.2°C 36.0°F2.2°C 58% 3.0 mph NNW4.8 kmh NNW -- 29.86 in1011.2 mb 0.00 in0.0 mm 0.00 in0.0 mm 0.00 in0.0 mm
01:25 PM 50.3°F10.2°C 36.0°F2.2°C 58% 4.0 mph NNE6.4 kmh NNE -- 29.86 in1011.2 mb 0.00 in0.0 mm 0.00 in0.0 mm 0.00 in0.0 mm
01:26 PM 50.0°F10.0°C 35.7°F2.1°C 58% 2.0 mph NNE3.2 kmh NNE -- 29.86 in1011.2 mb 0.00 in0.0 mm 0.00 in0.0 mm 0.00 in0.0 mm
01:27 PM 49.6°F9.8°C 35.8°F2.1°C 59% 2.0 mph ENE3.2 kmh ENE -- 29.86 in1011.2 mb 0.00 in0.0 mm 0.00 in0.0 mm 0.00 in0.0 mm
01:28 PM 48.5°F9.2°C 35.6°F2.0°C 61% 1.0 mph NE1.6 kmh NE -- 29.86 in1011.2 mb 0.00 in0.0 mm 0.00 in0.0 mm 0.00 in0.0 mm
01:29 PM 47.3°F8.5°C 35.2°F1.8°C 63% Calm Calm -- 29.86 in1011.2 mb 0.00 in0.0 mm 0.00 in0.0 mm 0.00 in0.0 mm
01:30 PM 46.7°F8.2°C 35.5°F1.9°C 65% 3.0 mph SE4.8 kmh SE -- 29.86 in1011.2 mb 0.00 in0.0 mm 0.00 in0.0 mm 0.00 in0.0 mm
01:31 PM 47.3°F8.5°C 35.2°F1.8°C 63% 3.0 mph SE4.8 kmh SE -- 29.86 in1011.2 mb 0.00 in0.0 mm 0.00 in0.0 mm 0.00 in0.0 mm
01:32 PM 48.5°F9.2°C 35.6°F2.0°C 61% 4.0 mph ESE6.4 kmh ESE -- 29.86 in1011.2 mb 0.00 in0.0 mm 0.00 in0.0 mm 0.00 in0.0 mm
01:33 PM 50.0°F10.0°C 36.1°F2.3°C 59% 4.0 mph E6.4 kmh E -- 29.86 in1011.2 mb 0.00 in0.0 mm 0.00 in0.0 mm 0.00 in0.0 mm
01:34 PM 50.1°F10.1°C 35.8°F2.1°C 58% 4.0 mph E6.4 kmh E -- 29.86 in1011.2 mb 0.00 in0.0 mm 0.00 in0.0 mm 0.00 in0.0 mm
01:35 PM 49.2°F9.6°C 35.8°F2.1°C 60% 2.0 mph NE3.2 kmh NE -- 29.86 in1011.2 mb 0.00 in0.0 mm 0.00 in0.0 mm 0.00 in0.0 mm
01:36 PM 49.0°F9.4°C 35.9°F2.2°C 61% 2.0 mph ESE3.2 kmh ESE -- 29.86 in1011.2 mb 0.00 in0.0 mm 0.00 in0.0 mm 0.00 in0.0 mm
01:37 PM 50.1°F10.1°C 36.7°F2.6°C 60% 3.0 mph E4.8 kmh E -- 29.86 in1011.2 mb 0.00 in0.0 mm 0.00 in0.0 mm 0.00 in0.0 mm
01:38 PM 51.5°F10.8°C 36.1°F2.3°C 56% 6.0 mph ESE9.7 kmh ESE -- 29.86 in1011.2 mb 0.00 in0.0 mm 0.00 in0.0 mm 0.00 in0.0 mm
01:39 PM 50.7°F10.4°C 36.3°F2.4°C 58% 4.0 mph SE6.4 kmh SE -- 29.86 in1011.2 mb 0.00 in0.0 mm 0.00 in0.0 mm 0.00 in0.0 mm
01:40 PM 49.2°F9.6°C 35.8°F2.1°C 60% 2.0 mph SSE3.2 kmh SSE -- 29.87 in1011.5 mb 0.00 in0.0 mm 0.00 in0.0 mm 0.00 in0.0 mm
01:41 PM 48.4°F9.1°C 36.2°F2.3°C 63% 2.0 mph SE3.2 kmh SE -- 29.86 in1011.2 mb 0.00 in0.0 mm 0.00 in0.0 mm 0.00 in0.0 mm
01:42 PM 49.0°F9.4°C 35.9°F2.2°C 61% 3.0 mph ESE4.8 kmh ESE -- 29.86 in1011.2 mb 0.00 in0.0 mm 0.00 in0.0 mm 0.00 in0.0 mm
01:43 PM 49.8°F9.9°C 36.8°F2.7°C 61% 6.0 mph SE9.7 kmh SE -- 29.87 in1011.5 mb 0.00 in0.0 mm 0.00 in0.0 mm 0.00 in0.0 mm
01:44 PM 52.2°F11.2°C 36.8°F2.7°C 56% 6.0 mph E9.7 kmh E -- 29.86 in1011.2 mb 0.00 in0.0 mm 0.00 in0.0 mm 0.00 in0.0 mm
01:45 PM 52.6°F11.4°C 36.7°F2.6°C 55% 5.0 mph ESE8.0 kmh ESE -- 29.86 in1011.2 mb 0.00 in0.0 mm 0.00 in0.0 mm 0.00 in0.0 mm
01:46 PM 51.8°F11.0°C 36.0°F2.2°C 55% 4.0 mph ENE6.4 kmh ENE -- 29.86 in1011.2 mb 0.00 in0.0 mm 0.00 in0.0 mm 0.00 in0.0 mm
01:47 PM 50.3°F10.2°C 36.0°F2.2°C 58% Calm Calm -- 29.87 in1011.5 mb 0.00 in0.0 mm 0.00 in0.0 mm 0.00 in0.0 mm
01:48 PM 49.0°F9.4°C 35.5°F1.9°C 60% 2.0 mph E3.2 kmh E -- 29.86 in1011.2 mb 0.00 in0.0 mm 0.00 in0.0 mm 0.00 in0.0 mm
01:49 PM 47.7°F8.7°C 35.6°F2.0°C 63% Calm Calm -- 29.86 in1011.2 mb 0.00 in0.0 mm 0.00 in0.0 mm 0.00 in0.0 mm
01:50 PM 49.4°F9.7°C 36.4°F2.4°C 61% 4.0 mph ENE6.4 kmh ENE -- 29.86 in1011.2 mb 0.00 in0.0 mm 0.00 in0.0 mm 0.00 in0.0 mm
01:51 PM 49.0°F9.4°C 35.9°F2.2°C 61% 4.0 mph E6.4 kmh E -- 29.87 in1011.5 mb 0.00 in0.0 mm 0.00 in0.0 mm 0.00 in0.0 mm
01:52 PM 48.6°F9.2°C 35.6°F2.0°C 61% 3.0 mph ESE4.8 kmh ESE -- 29.87 in1011.5 mb 0.00 in0.0 mm 0.00 in0.0 mm 0.00 in0.0 mm
01:53 PM 50.5°F10.3°C 36.6°F2.6°C 59% 5.0 mph E8.0 kmh E -- 29.87 in1011.5 mb 0.00 in0.0 mm 0.00 in0.0 mm 0.00 in0.0 mm
01:54 PM 50.9°F10.5°C 36.5°F2.5°C 58% 5.0 mph ESE8.0 kmh ESE -- 29.87 in1011.5 mb 0.00 in0.0 mm 0.00 in0.0 mm 0.00 in0.0 mm
01:55 PM 49.8°F9.9°C 36.4°F2.4°C 60% 5.0 mph ESE8.0 kmh ESE -- 29.86 in1011.2 mb 0.00 in0.0 mm 0.00 in0.0 mm 0.00 in0.0 mm
01:56 PM 48.6°F9.2°C 35.6°F2.0°C 61% 4.0 mph ESE6.4 kmh ESE -- 29.86 in1011.2 mb 0.00 in0.0 mm 0.00 in0.0 mm 0.00 in0.0 mm
01:57 PM 47.6°F8.7°C 35.6°F2.0°C 63% 2.0 mph ESE3.2 kmh ESE -- 29.87 in1011.5 mb 0.00 in0.0 mm 0.00 in0.0 mm 0.00 in0.0 mm
01:58 PM 47.5°F8.6°C 35.4°F1.9°C 63% 4.0 mph NE6.4 kmh NE -- 29.87 in1011.5 mb 0.00 in0.0 mm 0.00 in0.0 mm 0.00 in0.0 mm
01:59 PM 48.4°F9.1°C 36.2°F2.3°C 63% 4.0 mph NNE6.4 kmh NNE -- 29.87 in1011.5 mb 0.00 in0.0 mm 0.00 in0.0 mm 0.00 in0.0 mm
02:00 PM 48.9°F9.4°C 35.9°F2.2°C 61% 4.0 mph NE6.4 kmh NE -- 29.87 in1011.5 mb 0.00 in0.0 mm 0.00 in0.0 mm 0.00 in0.0 mm
02:01 PM 48.9°F9.4°C 35.9°F2.2°C 61% 2.0 mph ENE3.2 kmh ENE -- 29.87 in1011.5 mb 0.00 in0.0 mm 0.00 in0.0 mm 0.00 in0.0 mm
02:02 PM 49.0°F9.4°C 35.9°F2.2°C 61% 3.0 mph E4.8 kmh E -- 29.87 in1011.5 mb 0.00 in0.0 mm 0.00 in0.0 mm 0.00 in0.0 mm
02:03 PM 48.5°F9.2°C 36.4°F2.4°C 63% 4.0 mph E6.4 kmh E -- 29.87 in1011.5 mb 0.00 in0.0 mm 0.00 in0.0 mm 0.00 in0.0 mm
02:04 PM 48.5°F9.2°C 36.4°F2.4°C 63% 3.0 mph ENE4.8 kmh ENE -- 29.87 in1011.5 mb 0.00 in0.0 mm 0.00 in0.0 mm 0.00 in0.0 mm
02:05 PM 48.4°F9.1°C 36.2°F2.3°C 63% 7.0 mph E11.3 kmh E -- 29.87 in1011.5 mb 0.00 in0.0 mm 0.00 in0.0 mm 0.00 in0.0 mm
02:06 PM 47.6°F8.7°C 35.6°F2.0°C 63% 5.0 mph E8.0 kmh E -- 29.87 in1011.5 mb 0.00 in0.0 mm 0.00 in0.0 mm 0.00 in0.0 mm
02:07 PM 47.6°F8.7°C 36.4°F2.4°C 65% 4.0 mph NE6.4 kmh NE -- 29.87 in1011.5 mb 0.00 in0.0 mm 0.00 in0.0 mm 0.00 in0.0 mm
02:08 PM 49.0°F9.4°C 36.8°F2.7°C 63% 5.0 mph E8.0 kmh E -- 29.87 in1011.5 mb 0.00 in0.0 mm 0.00 in0.0 mm 0.00 in0.0 mm
02:09 PM 50.1°F10.1°C 37.1°F2.8°C 61% 5.0 mph NE8.0 kmh NE -- 29.87 in1011.5 mb 0.00 in0.0 mm 0.00 in0.0 mm 0.00 in0.0 mm
02:10 PM 50.3°F10.2°C 36.9°F2.7°C 60% 8.0 mph ENE12.9 kmh ENE -- 29.87 in1011.5 mb 0.00 in0.0 mm 0.00 in0.0 mm 0.00 in0.0 mm
02:11 PM 49.8°F9.9°C 36.8°F2.7°C 61% 5.0 mph ENE8.0 kmh ENE -- 29.87 in1011.5 mb 0.00 in0.0 mm 0.00 in0.0 mm 0.00 in0.0 mm
02:12 PM 49.4°F9.7°C 36.4°F2.4°C 61% 5.0 mph E8.0 kmh E -- 29.87 in1011.5 mb 0.00 in0.0 mm 0.00 in0.0 mm 0.00 in0.0 mm
02:13 PM 50.1°F10.1°C 36.7°F2.6°C 60% 5.0 mph ENE8.0 kmh ENE -- 29.87 in1011.5 mb 0.00 in0.0 mm 0.00 in0.0 mm 0.00 in0.0 mm
02:14 PM 50.0°F10.0°C 36.1°F2.3°C 59% 4.0 mph E6.4 kmh E -- 29.87 in1011.5 mb 0.00 in0.0 mm 0.00 in0.0 mm 0.00 in0.0 mm
02:15 PM 49.8°F9.9°C 36.4°F2.4°C 60% 6.0 mph ESE9.7 kmh ESE -- 29.87 in1011.5 mb 0.00 in0.0 mm 0.00 in0.0 mm 0.00 in0.0 mm
02:16 PM 50.0°F10.0°C 36.5°F2.5°C 60% 7.0 mph ENE11.3 kmh ENE -- 29.88 in1011.9 mb 0.00 in0.0 mm 0.00 in0.0 mm 0.00 in0.0 mm
02:17 PM 49.4°F9.7°C 36.0°F2.2°C 60% 8.0 mph E12.9 kmh E -- 29.88 in1011.9 mb 0.00 in0.0 mm 0.00 in0.0 mm 0.00 in0.0 mm
02:18 PM 49.6°F9.8°C 36.2°F2.3°C 60% 5.0 mph ESE8.0 kmh ESE -- 29.88 in1011.9 mb 0.00 in0.0 mm 0.00 in0.0 mm 0.00 in0.0 mm
02:19 PM 48.6°F9.2°C 35.6°F2.0°C 61% 8.0 mph NE12.9 kmh NE -- 29.87 in1011.5 mb 0.00 in0.0 mm 0.00 in0.0 mm 0.00 in0.0 mm
02:20 PM 47.5°F8.6°C 35.4°F1.9°C 63% 4.0 mph NNE6.4 kmh NNE -- 29.88 in1011.9 mb 0.00 in0.0 mm 0.00 in0.0 mm 0.00 in0.0 mm
02:21 PM 47.6°F8.7°C 35.6°F2.0°C 63% 5.0 mph NE8.0 kmh NE -- 29.88 in1011.9 mb 0.00 in0.0 mm 0.00 in0.0 mm 0.00 in0.0 mm
02:22 PM 48.0°F8.9°C 35.9°F2.2°C 63% 7.0 mph ENE11.3 kmh ENE -- 29.88 in1011.9 mb 0.00 in0.0 mm 0.00 in0.0 mm 0.00 in0.0 mm
02:23 PM 48.4°F9.1°C 35.4°F1.9°C 61% 9.0 mph NE14.5 kmh NE -- 29.88 in1011.9 mb 0.00 in0.0 mm 0.00 in0.0 mm 0.00 in0.0 mm
02:24 PM 47.6°F8.7°C 35.6°F2.0°C 63% 7.0 mph NNE11.3 kmh NNE -- 29.88 in1011.9 mb 0.00 in0.0 mm 0.00 in0.0 mm 0.00 in0.0 mm
02:25 PM 47.3°F8.5°C 35.2°F1.8°C 63% 8.0 mph ENE12.9 kmh ENE -- 29.88 in1011.9 mb 0.00 in0.0 mm 0.00 in0.0 mm 0.00 in0.0 mm
02:26 PM 46.4°F8.0°C 35.2°F1.8°C 65% 5.0 mph NE8.0 kmh NE -- 29.88 in1011.9 mb 0.00 in0.0 mm 0.00 in0.0 mm 0.00 in0.0 mm
02:27 PM 46.4°F8.0°C 35.2°F1.8°C 65% 6.0 mph 9.7 kmh -- 29.88 in1011.9 mb 0.00 in0.0 mm 0.00 in0.0 mm 0.00 in0.0 mm
02:28 PM 46.5°F8.1°C 35.7°F2.1°C 66% 6.0 mph 9.7 kmh -- 29.88 in1011.9 mb 0.00 in0.0 mm 0.00 in0.0 mm 0.00 in0.0 mm
02:29 PM 46.1°F7.8°C 35.2°F1.8°C 66% 6.0 mph NNE9.7 kmh NNE -- 29.88 in1011.9 mb 0.00 in0.0 mm 0.00 in0.0 mm 0.00 in0.0 mm
02:30 PM 46.5°F8.1°C 35.3°F1.8°C 65% 8.0 mph NNE12.9 kmh NNE -- 29.88 in1011.9 mb 0.00 in0.0 mm 0.00 in0.0 mm 0.00 in0.0 mm
02:32 PM 46.9°F8.3°C 35.7°F2.1°C 65% 8.0 mph 12.9 kmh -- 29.88 in1011.9 mb 0.00 in0.0 mm 0.00 in0.0 mm 0.00 in0.0 mm
02:33 PM 47.6°F8.7°C 35.6°F2.0°C 63% 8.0 mph NNE12.9 kmh NNE -- 29.88 in1011.9 mb 0.00 in0.0 mm 0.00 in0.0 mm 0.00 in0.0 mm
02:34 PM 47.3°F8.5°C 35.2°F1.8°C 63% 8.0 mph NNE12.9 kmh NNE -- 29.88 in1011.9 mb 0.00 in0.0 mm 0.00 in0.0 mm 0.00 in0.0 mm
02:35 PM 46.9°F8.3°C 34.9°F1.6°C 63% 8.0 mph NE12.9 kmh NE -- 29.88 in1011.9 mb 0.00 in0.0 mm 0.00 in0.0 mm 0.00 in0.0 mm
02:36 PM 46.5°F8.1°C 35.3°F1.8°C 65% 7.0 mph NNE11.3 kmh NNE -- 29.88 in1011.9 mb 0.00 in0.0 mm 0.00 in0.0 mm 0.00 in0.0 mm
02:37 PM 46.4°F8.0°C 35.2°F1.8°C 65% 6.0 mph NNE9.7 kmh NNE -- 29.88 in1011.9 mb 0.00 in0.0 mm 0.00 in0.0 mm 0.00 in0.0 mm
02:38 PM 45.9°F7.7°C 35.0°F1.7°C 66% 6.0 mph NW9.7 kmh NW -- 29.88 in1011.9 mb 0.00 in0.0 mm 0.00 in0.0 mm 0.00 in0.0 mm
02:39 PM 45.7°F7.6°C 35.6°F2.0°C 68% 3.0 mph 4.8 kmh -- 29.88 in1011.9 mb 0.00 in0.0 mm 0.00 in0.0 mm 0.00 in0.0 mm
02:40 PM 45.5°F7.5°C 35.8°F2.1°C 69% 9.0 mph NNE14.5 kmh NNE -- 29.88 in1011.9 mb 0.00 in0.0 mm 0.00 in0.0 mm 0.00 in0.0 mm
02:41 PM 45.7°F7.6°C 35.6°F2.0°C 68% 8.0 mph NNE12.9 kmh NNE -- 29.88 in1011.9 mb 0.00 in0.0 mm 0.00 in0.0 mm 0.00 in0.0 mm
02:42 PM 45.9°F7.7°C 35.8°F2.1°C 68% 7.0 mph ENE11.3 kmh ENE -- 29.88 in1011.9 mb 0.00 in0.0 mm 0.00 in0.0 mm 0.00 in0.0 mm
02:43 PM 46.1°F7.8°C 35.2°F1.8°C 66% 6.0 mph 9.7 kmh -- 29.89 in1012.2 mb 0.00 in0.0 mm 0.00 in0.0 mm 0.00 in0.0 mm
02:44 PM 46.5°F8.1°C 35.7°F2.1°C 66% 8.0 mph NNE12.9 kmh NNE -- 29.88 in1011.9 mb 0.00 in0.0 mm 0.00 in0.0 mm 0.00 in0.0 mm
02:45 PM 46.7°F8.2°C 35.9°F2.2°C 66% 6.0 mph NE9.7 kmh NE -- 29.88 in1011.9 mb 0.00 in0.0 mm 0.00 in0.0 mm 0.00 in0.0 mm
02:46 PM 46.9°F8.3°C 36.1°F2.3°C 66% 4.0 mph NNE6.4 kmh NNE -- 29.89 in1012.2 mb 0.00 in0.0 mm 0.00 in0.0 mm 0.00 in0.0 mm
02:47 PM 46.7°F8.2°C 35.9°F2.2°C 66% 6.0 mph NNE9.7 kmh NNE -- 29.88 in1011.9 mb 0.00 in0.0 mm 0.00 in0.0 mm 0.00 in0.0 mm
02:48 PM 46.4°F8.0°C 35.5°F1.9°C 66% 5.0 mph NNE8.0 kmh NNE -- 29.88 in1011.9 mb 0.00 in0.0 mm 0.00 in0.0 mm 0.00 in0.0 mm
02:49 PM 45.9°F7.7°C 35.8°F2.1°C 68% 5.0 mph NNE8.0 kmh NNE -- 29.88 in1011.9 mb 0.00 in0.0 mm 0.00 in0.0 mm 0.00 in0.0 mm
02:50 PM 45.5°F7.5°C 35.4°F1.9°C 68% 4.0 mph WNW6.4 kmh WNW -- 29.88 in1011.9 mb 0.00 in0.0 mm 0.00 in0.0 mm 0.00 in0.0 mm
02:51 PM 44.8°F7.1°C 35.5°F1.9°C 70% 4.0 mph NE6.4 kmh NE -- 29.89 in1012.2 mb 0.00 in0.0 mm 0.00 in0.0 mm 0.00 in0.0 mm
02:52 PM 45.0°F7.2°C 35.3°F1.8°C 69% 4.0 mph 6.4 kmh -- 29.89 in1012.2 mb 0.00 in0.0 mm 0.00 in0.0 mm 0.00 in0.0 mm
02:53 PM 45.2°F7.3°C 35.5°F1.9°C 69% 4.0 mph NE6.4 kmh NE -- 29.89 in1012.2 mb 0.00 in0.0 mm 0.00 in0.0 mm 0.00 in0.0 mm
02:54 PM 45.5°F7.5°C 36.2°F2.3°C 70% 6.0 mph NNW9.7 kmh NNW -- 29.89 in1012.2 mb 0.00 in0.0 mm 0.00 in0.0 mm 0.00 in0.0 mm
02:55 PM 45.5°F7.5°C 35.8°F2.1°C 69% 8.0 mph NNE12.9 kmh NNE -- 29.89 in1012.2 mb 0.00 in0.0 mm 0.00 in0.0 mm 0.00 in0.0 mm
02:56 PM 45.2°F7.3°C 35.5°F1.9°C 69% 3.0 mph NNW4.8 kmh NNW -- 29.89 in1012.2 mb 0.00 in0.0 mm 0.00 in0.0 mm 0.00 in0.0 mm
02:57 PM 45.2°F7.3°C 35.8°F2.1°C 70% 5.0 mph 8.0 kmh -- 29.89 in1012.2 mb 0.00 in0.0 mm 0.00 in0.0 mm 0.00 in0.0 mm
02:58 PM 45.0°F7.2°C 35.3°F1.8°C 69% 7.0 mph NNW11.3 kmh NNW -- 29.89 in1012.2 mb 0.00 in0.0 mm 0.00 in0.0 mm 0.00 in0.0 mm
02:59 PM 44.8°F7.1°C 35.5°F1.9°C 70% 7.0 mph NE11.3 kmh NE -- 29.89 in1012.2 mb 0.00 in0.0 mm 0.00 in0.0 mm 0.00 in0.0 mm
03:00 PM 44.8°F7.1°C 35.5°F1.9°C 70% 6.0 mph NE9.7 kmh NE -- 29.89 in1012.2 mb 0.00 in0.0 mm 0.00 in0.0 mm 0.00 in0.0 mm
03:01 PM 44.8°F7.1°C 35.5°F1.9°C 70% 7.0 mph NNE11.3 kmh NNE -- 29.89 in1012.2 mb 0.00 in0.0 mm 0.00 in0.0 mm 0.00 in0.0 mm
03:02 PM 44.8°F7.1°C 35.5°F1.9°C 70% 6.0 mph WNW9.7 kmh WNW -- 29.89 in1012.2 mb 0.00 in0.0 mm 0.00 in0.0 mm 0.00 in0.0 mm
03:03 PM 44.6°F7.0°C 35.7°F2.1°C 71% 8.0 mph NNE12.9 kmh NNE -- 29.89 in1012.2 mb 0.00 in0.0 mm 0.00 in0.0 mm 0.00 in0.0 mm
03:04 PM 45.0°F7.2°C 35.7°F2.1°C 70% 6.0 mph NNE9.7 kmh NNE -- 29.89 in1012.2 mb 0.00 in0.0 mm 0.00 in0.0 mm 0.00 in0.0 mm
03:05 PM 45.7°F7.6°C 36.4°F2.4°C 70% 9.0 mph 14.5 kmh -- 29.89 in1012.2 mb 0.00 in0.0 mm 0.00 in0.0 mm 0.00 in0.0 mm
03:06 PM 45.7°F7.6°C 35.6°F2.0°C 68% 9.0 mph NNE14.5 kmh NNE -- 29.89 in1012.2 mb 0.00 in0.0 mm 0.00 in0.0 mm 0.00 in0.0 mm
03:07 PM 45.9°F7.7°C 35.8°F2.1°C 68% 6.0 mph NE9.7 kmh NE -- 29.89 in1012.2 mb 0.00 in0.0 mm 0.00 in0.0 mm 0.00 in0.0 mm
03:08 PM 45.5°F7.5°C 35.8°F2.1°C 69% 11.0 mph NNW17.7 kmh NNW -- 29.89 in1012.2 mb 0.00 in0.0 mm 0.00 in0.0 mm 0.00 in0.0 mm
03:09 PM 45.0°F7.2°C 35.7°F2.1°C 70% 3.0 mph 4.8 kmh -- 29.89 in1012.2 mb 0.00 in0.0 mm 0.00 in0.0 mm 0.00 in0.0 mm
03:10 PM 44.6°F7.0°C 35.3°F1.8°C 70% 4.0 mph NE6.4 kmh NE -- 29.89 in1012.2 mb 0.00 in0.0 mm 0.00 in0.0 mm 0.00 in0.0 mm
03:11 PM 43.9°F6.6°C 35.0°F1.7°C 71% 5.0 mph NE8.0 kmh NE -- 29.89 in1012.2 mb 0.00 in0.0 mm 0.00 in0.0 mm 0.00 in0.0 mm
03:12 PM 43.9°F6.6°C 35.0°F1.7°C 71% 4.0 mph 6.4 kmh -- 29.89 in1012.2 mb 0.00 in0.0 mm 0.00 in0.0 mm 0.00 in0.0 mm
03:13 PM 43.9°F6.6°C 35.0°F1.7°C 71% 4.0 mph NNE6.4 kmh NNE -- 29.89 in1012.2 mb 0.00 in0.0 mm 0.00 in0.0 mm 0.00 in0.0 mm
03:14 PM 43.6°F6.4°C 35.3°F1.8°C 73% 7.0 mph NNE11.3 kmh NNE -- 29.89 in1012.2 mb 0.00 in0.0 mm 0.00 in0.0 mm 0.00 in0.0 mm
03:15 PM 43.4°F6.3°C 35.2°F1.8°C 73% 5.0 mph NNE8.0 kmh NNE -- 29.90 in1012.5 mb 0.00 in0.0 mm 0.00 in0.0 mm 0.00 in0.0 mm
03:16 PM 43.4°F6.3°C 35.2°F1.8°C 73% 6.0 mph NE9.7 kmh NE -- 29.90 in1012.5 mb 0.00 in0.0 mm 0.00 in0.0 mm 0.00 in0.0 mm
03:17 PM 43.4°F6.3°C 35.2°F1.8°C 73% 8.0 mph NE12.9 kmh NE -- 29.90 in1012.5 mb 0.00 in0.0 mm 0.00 in0.0 mm 0.00 in0.0 mm
03:18 PM 43.4°F6.3°C 35.2°F1.8°C 73% 8.0 mph E12.9 kmh E -- 29.90 in1012.5 mb 0.00 in0.0 mm 0.00 in0.0 mm 0.00 in0.0 mm
03:19 PM 43.2°F6.2°C 35.0°F1.7°C 73% 5.0 mph NNE8.0 kmh NNE -- 29.90 in1012.5 mb 0.00 in0.0 mm 0.00 in0.0 mm 0.00 in0.0 mm
03:20 PM 43.0°F6.1°C 35.2°F1.8°C 74% 8.0 mph NNE12.9 kmh NNE -- 29.90 in1012.5 mb 0.00 in0.0 mm 0.00 in0.0 mm 0.00 in0.0 mm
03:21 PM 42.7°F5.9°C 34.8°F1.6°C 74% 6.0 mph NNE9.7 kmh NNE -- 29.90 in1012.5 mb 0.00 in0.0 mm 0.00 in0.0 mm 0.00 in0.0 mm
03:22 PM 43.0°F6.1°C 35.2°F1.8°C 74% 6.0 mph NNE9.7 kmh NNE -- 29.90 in1012.5 mb 0.00 in0.0 mm 0.00 in0.0 mm 0.00 in0.0 mm
03:23 PM 43.2°F6.2°C 35.0°F1.7°C 73% 5.0 mph NNE8.0 kmh NNE -- 29.90 in1012.5 mb 0.00 in0.0 mm 0.00 in0.0 mm 0.00 in0.0 mm
03:24 PM 43.2°F6.2°C 35.0°F1.7°C 73% 8.0 mph NE12.9 kmh NE -- 29.90 in1012.5 mb 0.00 in0.0 mm 0.00 in0.0 mm 0.00 in0.0 mm
03:25 PM 43.4°F6.3°C 35.2°F1.8°C 73% 5.0 mph NE8.0 kmh NE -- 29.90 in1012.5 mb 0.00 in0.0 mm 0.00 in0.0 mm 0.00 in0.0 mm
03:26 PM 43.2°F6.2°C 35.0°F1.7°C 73% 6.0 mph NNE9.7 kmh NNE -- 29.90 in1012.5 mb 0.00 in0.0 mm 0.00 in0.0 mm 0.00 in0.0 mm
03:27 PM 43.4°F6.3°C 35.2°F1.8°C 73% 6.0 mph NNE9.7 kmh NNE -- 29.90 in1012.5 mb 0.00 in0.0 mm 0.00 in0.0 mm 0.00 in0.0 mm
03:28 PM 44.0°F6.7°C 34.8°F1.6°C 70% 8.0 mph NNE12.9 kmh NNE -- 29.90 in1012.5 mb 0.00 in0.0 mm 0.00 in0.0 mm 0.00 in0.0 mm
03:29 PM 44.6°F7.0°C 35.3°F1.8°C 70% 6.0 mph 9.7 kmh -- 29.90 in1012.5 mb 0.00 in0.0 mm 0.00 in0.0 mm 0.00 in0.0 mm
03:30 PM 44.8°F7.1°C 35.5°F1.9°C 70% 7.0 mph NNE11.3 kmh NNE -- 29.90 in1012.5 mb 0.00 in0.0 mm 0.00 in0.0 mm 0.00 in0.0 mm
03:31 PM 44.4°F6.9°C 35.1°F1.7°C 70% 8.0 mph W12.9 kmh W -- 29.90 in1012.5 mb 0.00 in0.0 mm 0.00 in0.0 mm 0.00 in0.0 mm
03:32 PM 44.0°F6.7°C 34.8°F1.6°C 70% 5.0 mph NNW8.0 kmh NNW -- 29.90 in1012.5 mb 0.00 in0.0 mm 0.00 in0.0 mm 0.00 in0.0 mm
03:33 PM 43.2°F6.2°C 35.0°F1.7°C 73% 5.0 mph WNW8.0 kmh WNW -- 29.90 in1012.5 mb 0.00 in0.0 mm 0.00 in0.0 mm 0.00 in0.0 mm
03:34 PM 43.2°F6.2°C 35.0°F1.7°C 73% 7.0 mph NW11.3 kmh NW -- 29.90 in1012.5 mb 0.00 in0.0 mm 0.00 in0.0 mm 0.00 in0.0 mm
03:35 PM 43.4°F6.3°C 34.5°F1.4°C 71% 8.0 mph NNE12.9 kmh NNE -- 29.90 in1012.5 mb 0.00 in0.0 mm 0.00 in0.0 mm 0.00 in0.0 mm
03:36 PM 44.0°F6.7°C 34.8°F1.6°C 70% 9.0 mph 14.5 kmh -- 29.90 in1012.5 mb 0.00 in0.0 mm 0.00 in0.0 mm 0.00 in0.0 mm
03:37 PM 44.2°F6.8°C 35.0°F1.7°C 70% 9.0 mph NNE14.5 kmh NNE -- 29.90 in1012.5 mb 0.00 in0.0 mm 0.00 in0.0 mm 0.00 in0.0 mm
03:38 PM 44.8°F7.1°C 35.5°F1.9°C 70% 6.0 mph NNE9.7 kmh NNE -- 29.90 in1012.5 mb 0.00 in0.0 mm 0.00 in0.0 mm 0.00 in0.0 mm
03:39 PM 44.8°F7.1°C 35.5°F1.9°C 70% 7.0 mph NNW11.3 kmh NNW -- 29.90 in1012.5 mb 0.00 in0.0 mm 0.00 in0.0 mm 0.00 in0.0 mm
03:40 PM 45.0°F7.2°C 35.7°F2.1°C 70% 7.0 mph NNW11.3 kmh NNW -- 29.90 in1012.5 mb 0.00 in0.0 mm 0.00 in0.0 mm 0.00 in0.0 mm
03:41 PM 45.2°F7.3°C 35.5°F1.9°C 69% 7.0 mph NNW11.3 kmh NNW -- 29.90 in1012.5 mb 0.00 in0.0 mm 0.00 in0.0 mm 0.00 in0.0 mm
03:42 PM 45.5°F7.5°C 35.8°F2.1°C 69% 7.0 mph 11.3 kmh -- 29.90 in1012.5 mb 0.00 in0.0 mm 0.00 in0.0 mm 0.00 in0.0 mm
03:43 PM 45.7°F7.6°C 35.6°F2.0°C 68% 8.0 mph NNW12.9 kmh NNW -- 29.90 in1012.5 mb 0.00 in0.0 mm 0.00 in0.0 mm 0.00 in0.0 mm
03:44 PM 45.7°F7.6°C 35.6°F2.0°C 68% 6.0 mph ENE9.7 kmh ENE -- 29.90 in1012.5 mb 0.00 in0.0 mm 0.00 in0.0 mm 0.00 in0.0 mm
03:45 PM 45.5°F7.5°C 35.4°F1.9°C 68% 8.0 mph NNW12.9 kmh NNW -- 29.90 in1012.5 mb 0.00 in0.0 mm 0.00 in0.0 mm 0.00 in0.0 mm
03:46 PM 45.5°F7.5°C 35.8°F2.1°C 69% 5.0 mph NNW8.0 kmh NNW -- 29.90 in1012.5 mb 0.00 in0.0 mm 0.00 in0.0 mm 0.00 in0.0 mm
03:47 PM 45.5°F7.5°C 35.8°F2.1°C 69% 8.0 mph 12.9 kmh -- 29.90 in1012.5 mb 0.00 in0.0 mm 0.00 in0.0 mm 0.00 in0.0 mm
03:48 PM 45.7°F7.6°C 35.6°F2.0°C 68% 6.0 mph NNE9.7 kmh NNE -- 29.90 in1012.5 mb 0.00 in0.0 mm 0.00 in0.0 mm 0.00 in0.0 mm
03:49 PM 45.5°F7.5°C 35.4°F1.9°C 68% 6.0 mph 9.7 kmh -- 29.90 in1012.5 mb 0.00 in0.0 mm 0.00 in0.0 mm 0.00 in0.0 mm
03:50 PM 45.2°F7.3°C 35.5°F1.9°C 69% 7.0 mph 11.3 kmh -- 29.90 in1012.5 mb 0.00 in0.0 mm 0.00 in0.0 mm 0.00 in0.0 mm
03:51 PM 45.5°F7.5°C 35.8°F2.1°C 69% 10.0 mph NNW16.1 kmh NNW -- 29.90 in1012.5 mb 0.00 in0.0 mm 0.00 in0.0 mm 0.00 in0.0 mm
03:52 PM 45.7°F7.6°C 35.6°F2.0°C 68% 8.0 mph NNW12.9 kmh NNW -- 29.91 in1012.9 mb 0.00 in0.0 mm 0.00 in0.0 mm 0.00 in0.0 mm
03:54 PM 45.7°F7.6°C 36.0°F2.2°C 69% 6.0 mph W9.7 kmh W -- 29.90 in1012.5 mb 0.00 in0.0 mm 0.00 in0.0 mm 0.00 in0.0 mm
03:55 PM 45.9°F7.7°C 36.2°F2.3°C 69% 6.0 mph 9.7 kmh -- 29.90 in1012.5 mb 0.00 in0.0 mm 0.00 in0.0 mm 0.00 in0.0 mm
03:56 PM 45.7°F7.6°C 36.0°F2.2°C 69% 4.0 mph NNE6.4 kmh NNE -- 29.90 in1012.5 mb 0.00 in0.0 mm 0.00 in0.0 mm 0.00 in0.0 mm
03:57 PM 45.7°F7.6°C 36.4°F2.4°C 70% 8.0 mph NE12.9 kmh NE -- 29.90 in1012.5 mb 0.00 in0.0 mm 0.00 in0.0 mm 0.00 in0.0 mm
03:58 PM 45.5°F7.5°C 35.8°F2.1°C 69% 4.0 mph 6.4 kmh -- 29.90 in1012.5 mb 0.00 in0.0 mm 0.00 in0.0 mm 0.00 in0.0 mm
03:59 PM 45.5°F7.5°C 36.2°F2.3°C 70% 7.0 mph NE11.3 kmh NE -- 29.90 in1012.5 mb 0.00 in0.0 mm 0.00 in0.0 mm 0.00 in0.0 mm
04:00 PM 45.9°F7.7°C 36.2°F2.3°C 69% 8.0 mph NNE12.9 kmh NNE -- 29.90 in1012.5 mb 0.00 in0.0 mm 0.00 in0.0 mm 0.00 in0.0 mm
04:01 PM 45.7°F7.6°C 36.0°F2.2°C 69% 7.0 mph NNE11.3 kmh NNE -- 29.91 in1012.9 mb 0.00 in0.0 mm 0.00 in0.0 mm 0.00 in0.0 mm
04:02 PM 45.2°F7.3°C 35.8°F2.1°C 70% 4.0 mph NNW6.4 kmh NNW -- 29.91 in1012.9 mb 0.00 in0.0 mm 0.00 in0.0 mm 0.00 in0.0 mm
04:03 PM 45.0°F7.2°C 35.7°F2.1°C 70% 6.0 mph ENE9.7 kmh ENE -- 29.91 in1012.9 mb 0.00 in0.0 mm 0.00 in0.0 mm 0.00 in0.0 mm
04:04 PM 45.0°F7.2°C 35.7°F2.1°C 70% 7.0 mph 11.3 kmh -- 29.91 in1012.9 mb 0.00 in0.0 mm 0.00 in0.0 mm 0.00 in0.0 mm
04:05 PM 45.0°F7.2°C 35.7°F2.1°C 70% 7.0 mph NNW11.3 kmh NNW -- 29.91 in1012.9 mb 0.00 in0.0 mm 0.00 in0.0 mm 0.00 in0.0 mm
04:06 PM 45.0°F7.2°C 35.7°F2.1°C 70% 6.0 mph NNE9.7 kmh NNE -- 29.91 in1012.9 mb 0.00 in0.0 mm 0.00 in0.0 mm 0.00 in0.0 mm
04:07 PM 45.0°F7.2°C 35.7°F2.1°C 70% 7.0 mph W11.3 kmh W -- 29.91 in1012.9 mb 0.00 in0.0 mm 0.00 in0.0 mm 0.00 in0.0 mm
04:08 PM 45.2°F7.3°C 35.8°F2.1°C 70% 7.0 mph 11.3 kmh -- 29.91 in1012.9 mb 0.00 in0.0 mm 0.00 in0.0 mm 0.00 in0.0 mm
04:09 PM 45.2°F7.3°C 35.8°F2.1°C 70% 5.0 mph NNE8.0 kmh NNE -- 29.91 in1012.9 mb 0.00 in0.0 mm 0.00 in0.0 mm 0.00 in0.0 mm
04:10 PM 45.5°F7.5°C 36.2°F2.3°C 70% 8.0 mph NE12.9 kmh NE -- 29.91 in1012.9 mb 0.00 in0.0 mm 0.00 in0.0 mm 0.00 in0.0 mm
04:11 PM 45.7°F7.6°C 36.0°F2.2°C 69% 7.0 mph NE11.3 kmh NE -- 29.91 in1012.9 mb 0.00 in0.0 mm 0.00 in0.0 mm 0.00 in0.0 mm
04:12 PM 45.0°F7.2°C 35.7°F2.1°C 70% 7.0 mph NNW11.3 kmh NNW -- 29.91 in1012.9 mb 0.00 in0.0 mm 0.00 in0.0 mm 0.00 in0.0 mm
04:13 PM 44.6°F7.0°C 35.3°F1.8°C 70% 5.0 mph NNE8.0 kmh NNE -- 29.91 in1012.9 mb 0.00 in0.0 mm 0.00 in0.0 mm 0.00 in0.0 mm
04:14 PM 44.0°F6.7°C 35.9°F2.2°C 73% 4.0 mph NE6.4 kmh NE -- 29.91 in1012.9 mb 0.00 in0.0 mm 0.00 in0.0 mm 0.00 in0.0 mm
04:15 PM 43.9°F6.6°C 35.7°F2.1°C 73% 6.0 mph NE9.7 kmh NE -- 29.91 in1012.9 mb 0.00 in0.0 mm 0.00 in0.0 mm 0.00 in0.0 mm
04:16 PM 43.6°F6.4°C 35.3°F1.8°C 73% 7.0 mph NNE11.3 kmh NNE -- 29.91 in1012.9 mb 0.00 in0.0 mm 0.00 in0.0 mm 0.00 in0.0 mm
04:17 PM 43.9°F6.6°C 35.7°F2.1°C 73% 4.0 mph NNE6.4 kmh NNE -- 29.91 in1012.9 mb 0.00 in0.0 mm 0.00 in0.0 mm 0.00 in0.0 mm
04:18 PM 44.0°F6.7°C 35.9°F2.2°C 73% 8.0 mph NNW12.9 kmh NNW -- 29.91 in1012.9 mb 0.00 in0.0 mm 0.00 in0.0 mm 0.00 in0.0 mm
04:19 PM 43.9°F6.6°C 35.7°F2.1°C 73% 8.0 mph NNE12.9 kmh NNE -- 29.91 in1012.9 mb 0.00 in0.0 mm 0.00 in0.0 mm 0.00 in0.0 mm
04:20 PM 43.9°F6.6°C 35.7°F2.1°C 73% 7.0 mph NNE11.3 kmh NNE -- 29.91 in1012.9 mb 0.00 in0.0 mm 0.00 in0.0 mm 0.00 in0.0 mm
04:21 PM 43.9°F6.6°C 35.7°F2.1°C 73% 5.0 mph NNE8.0 kmh NNE -- 29.91 in1012.9 mb 0.00 in0.0 mm 0.00 in0.0 mm 0.00 in0.0 mm
04:22 PM 43.9°F6.6°C 35.7°F2.1°C 73% 7.0 mph E11.3 kmh E -- 29.91 in1012.9 mb 0.00 in0.0 mm 0.00 in0.0 mm 0.00 in0.0 mm
04:23 PM 44.0°F6.7°C 35.9°F2.2°C 73% 4.0 mph 6.4 kmh -- 29.91 in1012.9 mb 0.00 in0.0 mm 0.00 in0.0 mm 0.00 in0.0 mm
04:24 PM 44.4°F6.9°C 36.2°F2.3°C 73% 6.0 mph NNE9.7 kmh NNE -- 29.91 in1012.9 mb 0.00 in0.0 mm 0.00 in0.0 mm 0.00 in0.0 mm
04:25 PM 44.6°F7.0°C 35.7°F2.1°C 71% 6.0 mph NW9.7 kmh NW -- 29.91 in1012.9 mb 0.00 in0.0 mm 0.00 in0.0 mm 0.00 in0.0 mm
04:26 PM 44.4°F6.9°C 35.5°F1.9°C 71% 6.0 mph NNW9.7 kmh NNW -- 29.91 in1012.9 mb 0.00 in0.0 mm 0.00 in0.0 mm 0.00 in0.0 mm
04:27 PM 44.2°F6.8°C 35.3°F1.8°C 71% 6.0 mph NNW9.7 kmh NNW -- 29.91 in1012.9 mb 0.00 in0.0 mm 0.00 in0.0 mm 0.00 in0.0 mm
04:28 PM 44.6°F7.0°C 35.7°F2.1°C 71% 7.0 mph NNE11.3 kmh NNE -- 29.91 in1012.9 mb 0.00 in0.0 mm 0.00 in0.0 mm 0.00 in0.0 mm
04:29 PM 44.6°F7.0°C 35.7°F2.1°C 71% 5.0 mph NNE8.0 kmh NNE -- 29.91 in1012.9 mb 0.00 in0.0 mm 0.00 in0.0 mm 0.00 in0.0 mm
04:30 PM 44.8°F7.1°C 35.8°F2.1°C 71% 4.0 mph NE6.4 kmh NE -- 29.91 in1012.9 mb 0.00 in0.0 mm 0.00 in0.0 mm 0.00 in0.0 mm
04:32 PM 45.0°F7.2°C 36.0°F2.2°C 71% 5.0 mph NE8.0 kmh NE -- 29.91 in1012.9 mb 0.00 in0.0 mm 0.00 in0.0 mm 0.00 in0.0 mm
04:33 PM 45.0°F7.2°C 36.0°F2.2°C 71% 5.0 mph 8.0 kmh -- 29.91 in1012.9 mb 0.00 in0.0 mm 0.00 in0.0 mm 0.00 in0.0 mm
04:34 PM 45.0°F7.2°C 36.0°F2.2°C 71% 5.0 mph NNW8.0 kmh NNW -- 29.92 in1013.2 mb 0.00 in0.0 mm 0.00 in0.0 mm 0.00 in0.0 mm
04:35 PM 45.2°F7.3°C 35.8°F2.1°C 70% 7.0 mph 11.3 kmh -- 29.91 in1012.9 mb 0.00 in0.0 mm 0.00 in0.0 mm 0.00 in0.0 mm
04:36 PM 45.5°F7.5°C 36.2°F2.3°C 70% 7.0 mph 11.3 kmh -- 29.91 in1012.9 mb 0.00 in0.0 mm 0.00 in0.0 mm 0.00 in0.0 mm
04:37 PM 45.2°F7.3°C 35.8°F2.1°C 70% 4.0 mph NE6.4 kmh NE -- 29.91 in1012.9 mb 0.00 in0.0 mm 0.00 in0.0 mm 0.00 in0.0 mm
04:38 PM 45.0°F7.2°C 35.7°F2.1°C 70% 8.0 mph 12.9 kmh -- 29.92 in1013.2 mb 0.00 in0.0 mm 0.00 in0.0 mm 0.00 in0.0 mm
04:39 PM 45.2°F7.3°C 35.8°F2.1°C 70% 7.0 mph NNW11.3 kmh NNW -- 29.92 in1013.2 mb 0.00 in0.0 mm 0.00 in0.0 mm 0.00 in0.0 mm
04:40 PM 45.2°F7.3°C 35.8°F2.1°C 70% 5.0 mph NNE8.0 kmh NNE -- 29.92 in1013.2 mb 0.00 in0.0 mm 0.00 in0.0 mm 0.00 in0.0 mm
04:41 PM 45.2°F7.3°C 35.8°F2.1°C 70% 8.0 mph NNE12.9 kmh NNE -- 29.92 in1013.2 mb 0.00 in0.0 mm 0.00 in0.0 mm 0.00 in0.0 mm
04:42 PM 45.0°F7.2°C 35.7°F2.1°C 70% 7.0 mph NE11.3 kmh NE -- 29.92 in1013.2 mb 0.00 in0.0 mm 0.00 in0.0 mm 0.00 in0.0 mm
04:43 PM 45.0°F7.2°C 36.0°F2.2°C 71% 6.0 mph 9.7 kmh -- 29.92 in1013.2 mb 0.00 in0.0 mm 0.00 in0.0 mm 0.00 in0.0 mm
04:44 PM 45.0°F7.2°C 36.0°F2.2°C 71% 8.0 mph 12.9 kmh -- 29.92 in1013.2 mb 0.00 in0.0 mm 0.00 in0.0 mm 0.00 in0.0 mm
04:45 PM 44.8°F7.1°C 35.8°F2.1°C 71% 5.0 mph NW8.0 kmh NW -- 29.92 in1013.2 mb 0.00 in0.0 mm 0.00 in0.0 mm 0.00 in0.0 mm
04:46 PM 44.6°F7.0°C 35.7°F2.1°C 71% 4.0 mph NW6.4 kmh NW -- 29.92 in1013.2 mb 0.00 in0.0 mm 0.00 in0.0 mm 0.00 in0.0 mm
04:47 PM 44.6°F7.0°C 35.7°F2.1°C 71% 8.0 mph NNW12.9 kmh NNW -- 29.92 in1013.2 mb 0.00 in0.0 mm 0.00 in0.0 mm 0.00 in0.0 mm
04:48 PM 44.4°F6.9°C 35.5°F1.9°C 71% 6.0 mph NE9.7 kmh NE -- 29.92 in1013.2 mb 0.00 in0.0 mm 0.00 in0.0 mm 0.00 in0.0 mm
04:49 PM 44.6°F7.0°C 36.4°F2.4°C 73% 7.0 mph ENE11.3 kmh ENE -- 29.92 in1013.2 mb 0.00 in0.0 mm 0.00 in0.0 mm 0.00 in0.0 mm
04:50 PM 44.6°F7.0°C 36.4°F2.4°C 73% 6.0 mph NNE9.7 kmh NNE -- 29.92 in1013.2 mb 0.00 in0.0 mm 0.00 in0.0 mm 0.00 in0.0 mm
04:51 PM 44.4°F6.9°C 36.2°F2.3°C 73% 4.0 mph NNW6.4 kmh NNW -- 29.92 in1013.2 mb 0.00 in0.0 mm 0.00 in0.0 mm 0.00 in0.0 mm
04:52 PM 44.4°F6.9°C 36.2°F2.3°C 73% 8.0 mph NNE12.9 kmh NNE -- 29.92 in1013.2 mb 0.00 in0.0 mm 0.00 in0.0 mm 0.00 in0.0 mm
04:53 PM 44.4°F6.9°C 36.6°F2.6°C 74% 7.0 mph NNW11.3 kmh NNW -- 29.92 in1013.2 mb 0.00 in0.0 mm 0.00 in0.0 mm 0.00 in0.0 mm
04:54 PM 44.2°F6.8°C 36.4°F2.4°C 74% 6.0 mph NNE9.7 kmh NNE -- 29.92 in1013.2 mb 0.00 in0.0 mm 0.00 in0.0 mm 0.00 in0.0 mm
04:55 PM 43.9°F6.6°C 36.0°F2.2°C 74% 8.0 mph 12.9 kmh -- 29.92 in1013.2 mb 0.00 in0.0 mm 0.00 in0.0 mm 0.00 in0.0 mm
04:56 PM 43.6°F6.4°C 35.7°F2.1°C 74% 6.0 mph NE9.7 kmh NE -- 29.92 in1013.2 mb 0.00 in0.0 mm 0.00 in0.0 mm 0.00 in0.0 mm
04:57 PM 43.6°F6.4°C 35.7°F2.1°C 74% 8.0 mph 12.9 kmh -- 29.92 in1013.2 mb 0.00 in0.0 mm 0.00 in0.0 mm 0.00 in0.0 mm
04:58 PM 43.2°F6.2°C 35.7°F2.1°C 75% 5.0 mph 8.0 kmh -- 29.92 in1013.2 mb 0.00 in0.0 mm 0.00 in0.0 mm 0.00 in0.0 mm
04:59 PM 43.2°F6.2°C 35.7°F2.1°C 75% 5.0 mph NE8.0 kmh NE -- 29.92 in1013.2 mb 0.00 in0.0 mm 0.00 in0.0 mm 0.00 in0.0 mm
05:00 PM 43.2°F6.2°C 35.7°F2.1°C 75% 7.0 mph 11.3 kmh -- 29.92 in1013.2 mb 0.00 in0.0 mm 0.00 in0.0 mm 0.00 in0.0 mm
05:01 PM 43.4°F6.3°C 35.9°F2.2°C 75% 4.0 mph NNW6.4 kmh NNW -- 29.92 in1013.2 mb 0.00 in0.0 mm 0.00 in0.0 mm 0.00 in0.0 mm
05:02 PM 43.9°F6.6°C 36.4°F2.4°C 75% 5.0 mph NW8.0 kmh NW -- 29.92 in1013.2 mb 0.00 in0.0 mm 0.00 in0.0 mm 0.00 in0.0 mm
05:03 PM 44.0°F6.7°C 36.6°F2.6°C 75% 4.0 mph NNE6.4 kmh NNE -- 29.93 in1013.5 mb 0.00 in0.0 mm 0.00 in0.0 mm 0.00 in0.0 mm
05:04 PM 44.2°F6.8°C 36.7°F2.6°C 75% 6.0 mph NNE9.7 kmh NNE -- 29.93 in1013.5 mb 0.00 in0.0 mm 0.00 in0.0 mm 0.00 in0.0 mm
05:05 PM 44.6°F7.0°C 36.4°F2.4°C 73% 5.0 mph E8.0 kmh E -- 29.93 in1013.5 mb 0.00 in0.0 mm 0.00 in0.0 mm 0.00 in0.0 mm
05:06 PM 44.8°F7.1°C 36.6°F2.6°C 73% 6.0 mph NNE9.7 kmh NNE -- 29.93 in1013.5 mb 0.00 in0.0 mm 0.00 in0.0 mm 0.00 in0.0 mm
05:07 PM 44.8°F7.1°C 36.6°F2.6°C 73% 5.0 mph NNE8.0 kmh NNE -- 29.93 in1013.5 mb 0.00 in0.0 mm 0.00 in0.0 mm 0.00 in0.0 mm
05:08 PM 44.2°F6.8°C 36.4°F2.4°C 74% 3.0 mph 4.8 kmh -- 29.93 in1013.5 mb 0.00 in0.0 mm 0.00 in0.0 mm 0.00 in0.0 mm
05:09 PM 44.0°F6.7°C 36.2°F2.3°C 74% 5.0 mph NE8.0 kmh NE -- 29.93 in1013.5 mb 0.00 in0.0 mm 0.00 in0.0 mm 0.00 in0.0 mm
05:10 PM 43.6°F6.4°C 36.0°F2.2°C 75% 6.0 mph NNE9.7 kmh NNE -- 29.93 in1013.5 mb 0.00 in0.0 mm 0.00 in0.0 mm 0.00 in0.0 mm
05:11 PM 43.2°F6.2°C 35.7°F2.1°C 75% 6.0 mph NE9.7 kmh NE -- 29.93 in1013.5 mb 0.00 in0.0 mm 0.00 in0.0 mm 0.00 in0.0 mm
05:12 PM 43.2°F6.2°C 35.7°F2.1°C 75% 5.0 mph NNE8.0 kmh NNE -- 29.93 in1013.5 mb 0.00 in0.0 mm 0.00 in0.0 mm 0.00 in0.0 mm
05:13 PM 43.2°F6.2°C 35.7°F2.1°C 75% 6.0 mph NE9.7 kmh NE -- 29.93 in1013.5 mb 0.00 in0.0 mm 0.00 in0.0 mm 0.00 in0.0 mm
05:14 PM 43.2°F6.2°C 35.7°F2.1°C 75% 7.0 mph NNE11.3 kmh NNE -- 29.93 in1013.5 mb 0.00 in0.0 mm 0.00 in0.0 mm 0.00 in0.0 mm
05:15 PM 43.2°F6.2°C 35.7°F2.1°C 75% 4.0 mph NNW6.4 kmh NNW -- 29.93 in1013.5 mb 0.00 in0.0 mm 0.00 in0.0 mm 0.00 in0.0 mm
05:16 PM 43.2°F6.2°C 35.7°F2.1°C 75% 6.0 mph 9.7 kmh -- 29.93 in1013.5 mb 0.00 in0.0 mm 0.00 in0.0 mm 0.00 in0.0 mm
05:17 PM 43.2°F6.2°C 35.7°F2.1°C 75% 7.0 mph NNE11.3 kmh NNE -- 29.93 in1013.5 mb 0.00 in0.0 mm 0.00 in0.0 mm 0.00 in0.0 mm
05:18 PM 43.4°F6.3°C 35.9°F2.2°C 75% 6.0 mph NE9.7 kmh NE -- 29.93 in1013.5 mb 0.00 in0.0 mm 0.00 in0.0 mm 0.00 in0.0 mm
05:19 PM 43.4°F6.3°C 35.9°F2.2°C 75% 9.0 mph NNW14.5 kmh NNW -- 29.93 in1013.5 mb 0.00 in0.0 mm 0.00 in0.0 mm 0.00 in0.0 mm
05:20 PM 43.4°F6.3°C 35.9°F2.2°C 75% 6.0 mph NNW9.7 kmh NNW -- 29.93 in1013.5 mb 0.00 in0.0 mm 0.00 in0.0 mm 0.00 in0.0 mm
05:21 PM 43.4°F6.3°C 35.9°F2.2°C 75% 7.0 mph NW11.3 kmh NW -- 29.93 in1013.5 mb 0.00 in0.0 mm 0.00 in0.0 mm 0.00 in0.0 mm
05:22 PM 43.2°F6.2°C 35.7°F2.1°C 75% 6.0 mph NW9.7 kmh NW -- 29.93 in1013.5 mb 0.00 in0.0 mm 0.00 in0.0 mm 0.00 in0.0 mm
05:23 PM 43.2°F6.2°C 35.7°F2.1°C 75% 5.0 mph NE8.0 kmh NE -- 29.93 in1013.5 mb 0.00 in0.0 mm 0.00 in0.0 mm 0.00 in0.0 mm
05:24 PM 43.2°F6.2°C 35.7°F2.1°C 75% 9.0 mph NNE14.5 kmh NNE -- 29.93 in1013.5 mb 0.00 in0.0 mm 0.00 in0.0 mm 0.00 in0.0 mm
05:25 PM 43.0°F6.1°C 35.5°F1.9°C 75% 5.0 mph NNE8.0 kmh NNE -- 29.93 in1013.5 mb 0.00 in0.0 mm 0.00 in0.0 mm 0.00 in0.0 mm
05:26 PM 42.7°F5.9°C 35.2°F1.8°C 75% 5.0 mph NNE8.0 kmh NNE -- 29.93 in1013.5 mb 0.00 in0.0 mm 0.00 in0.0 mm 0.00 in0.0 mm
05:27 PM 42.5°F5.8°C 35.3°F1.8°C 76% 6.0 mph NNE9.7 kmh NNE -- 29.93 in1013.5 mb 0.00 in0.0 mm 0.00 in0.0 mm 0.00 in0.0 mm
05:28 PM 42.7°F5.9°C 35.5°F1.9°C 76% 5.0 mph ENE8.0 kmh ENE -- 29.93 in1013.5 mb 0.00 in0.0 mm 0.00 in0.0 mm 0.00 in0.0 mm
05:29 PM 42.7°F5.9°C 35.5°F1.9°C 76% 3.0 mph NNW4.8 kmh NNW -- 29.93 in1013.5 mb 0.00 in0.0 mm 0.00 in0.0 mm 0.00 in0.0 mm
05:30 PM 42.7°F5.9°C 36.2°F2.3°C 78% 5.0 mph NNE8.0 kmh NNE -- 29.93 in1013.5 mb 0.00 in0.0 mm 0.00 in0.0 mm 0.00 in0.0 mm
05:31 PM 42.7°F5.9°C 36.2°F2.3°C 78% 6.0 mph NE9.7 kmh NE -- 29.94 in1013.9 mb 0.00 in0.0 mm 0.00 in0.0 mm 0.00 in0.0 mm
05:32 PM 43.0°F6.1°C 36.5°F2.5°C 78% 4.0 mph NNE6.4 kmh NNE -- 29.94 in1013.9 mb 0.00 in0.0 mm 0.00 in0.0 mm 0.00 in0.0 mm
05:33 PM 42.7°F5.9°C 36.2°F2.3°C 78% 7.0 mph NNE11.3 kmh NNE -- 29.93 in1013.5 mb 0.00 in0.0 mm 0.00 in0.0 mm 0.00 in0.0 mm
05:34 PM 42.7°F5.9°C 35.5°F1.9°C 76% 5.0 mph NW8.0 kmh NW -- 29.93 in1013.5 mb 0.00 in0.0 mm 0.00 in0.0 mm 0.00 in0.0 mm
05:35 PM 42.7°F5.9°C 35.5°F1.9°C 76% 6.0 mph NNW9.7 kmh NNW -- 29.94 in1013.9 mb 0.00 in0.0 mm 0.00 in0.0 mm 0.00 in0.0 mm
05:36 PM 42.5°F5.8°C 35.3°F1.8°C 76% 5.0 mph NNW8.0 kmh NNW -- 29.94 in1013.9 mb 0.00 in0.0 mm 0.00 in0.0 mm 0.00 in0.0 mm
05:37 PM 42.5°F5.8°C 35.3°F1.8°C 76% 7.0 mph 11.3 kmh -- 29.94 in1013.9 mb 0.00 in0.0 mm 0.00 in0.0 mm 0.00 in0.0 mm
05:38 PM 42.5°F5.8°C 35.3°F1.8°C 76% 9.0 mph NE14.5 kmh NE -- 29.93 in1013.5 mb 0.00 in0.0 mm 0.00 in0.0 mm 0.00 in0.0 mm
05:39 PM 42.4°F5.8°C 35.3°F1.8°C 76% 9.0 mph 14.5 kmh -- 29.93 in1013.5 mb 0.00 in0.0 mm 0.00 in0.0 mm 0.00 in0.0 mm
05:40 PM 42.4°F5.8°C 35.3°F1.8°C 76% 4.0 mph NNW6.4 kmh NNW -- 29.94 in1013.9 mb 0.00 in0.0 mm 0.00 in0.0 mm 0.00 in0.0 mm
05:41 PM 42.4°F5.8°C 36.0°F2.2°C 78% 6.0 mph 9.7 kmh -- 29.94 in1013.9 mb 0.00 in0.0 mm 0.00 in0.0 mm 0.00 in0.0 mm
05:42 PM 42.3°F5.7°C 35.8°F2.1°C 78% 4.0 mph WNW6.4 kmh WNW -- 29.93 in1013.5 mb 0.00 in0.0 mm 0.00 in0.0 mm 0.00 in0.0 mm
05:43 PM 42.3°F5.7°C 35.8°F2.1°C 78% 7.0 mph 11.3 kmh -- 29.93 in1013.5 mb 0.00 in0.0 mm 0.00 in0.0 mm 0.00 in0.0 mm
05:44 PM 42.1°F5.6°C 36.0°F2.2°C 79% 4.0 mph NNE6.4 kmh NNE -- 29.93 in1013.5 mb 0.00 in0.0 mm 0.00 in0.0 mm 0.00 in0.0 mm
05:45 PM 42.1°F5.6°C 36.0°F2.2°C 79% 7.0 mph NW11.3 kmh NW -- 29.94 in1013.9 mb 0.00 in0.0 mm 0.00 in0.0 mm 0.00 in0.0 mm
05:46 PM 42.1°F5.6°C 36.0°F2.2°C 79% 5.0 mph 8.0 kmh -- 29.94 in1013.9 mb 0.00 in0.0 mm 0.00 in0.0 mm 0.00 in0.0 mm
05:47 PM 42.1°F5.6°C 36.0°F2.2°C 79% 6.0 mph NNE9.7 kmh NNE -- 29.94 in1013.9 mb 0.00 in0.0 mm 0.00 in0.0 mm 0.00 in0.0 mm
05:48 PM 42.3°F5.7°C 36.1°F2.3°C 79% 5.0 mph WNW8.0 kmh WNW -- 29.94 in1013.9 mb 0.00 in0.0 mm 0.00 in0.0 mm 0.00 in0.0 mm
05:49 PM 42.3°F5.7°C 36.1°F2.3°C 79% 3.0 mph NE4.8 kmh NE -- 29.94 in1013.9 mb 0.00 in0.0 mm 0.00 in0.0 mm 0.00 in0.0 mm
05:50 PM 42.4°F5.8°C 36.3°F2.4°C 79% 4.0 mph NNW6.4 kmh NNW -- 29.93 in1013.5 mb 0.00 in0.0 mm 0.00 in0.0 mm 0.00 in0.0 mm
05:51 PM 42.4°F5.8°C 36.3°F2.4°C 79% 4.0 mph NNE6.4 kmh NNE -- 29.93 in1013.5 mb 0.00 in0.0 mm 0.00 in0.0 mm 0.00 in0.0 mm
05:52 PM 42.4°F5.8°C 36.0°F2.2°C 78% 6.0 mph NNE9.7 kmh NNE -- 29.94 in1013.9 mb 0.00 in0.0 mm 0.00 in0.0 mm 0.00 in0.0 mm
05:53 PM 42.3°F5.7°C 35.8°F2.1°C 78% 5.0 mph 8.0 kmh -- 29.94 in1013.9 mb 0.00 in0.0 mm 0.00 in0.0 mm 0.00 in0.0 mm
05:54 PM 42.3°F5.7°C 35.8°F2.1°C 78% 7.0 mph NNW11.3 kmh NNW -- 29.94 in1013.9 mb 0.00 in0.0 mm 0.00 in0.0 mm 0.00 in0.0 mm
05:55 PM 42.3°F5.7°C 35.8°F2.1°C 78% 9.0 mph NW14.5 kmh NW -- 29.93 in1013.5 mb 0.00 in0.0 mm 0.00 in0.0 mm 0.00 in0.0 mm
05:56 PM 42.1°F5.6°C 36.0°F2.2°C 79% 5.0 mph NNW8.0 kmh NNW -- 29.94 in1013.9 mb 0.00 in0.0 mm 0.00 in0.0 mm 0.00 in0.0 mm
05:57 PM 42.1°F5.6°C 36.0°F2.2°C 79% 8.0 mph NNE12.9 kmh NNE -- 29.94 in1013.9 mb 0.00 in0.0 mm 0.00 in0.0 mm 0.00 in0.0 mm
05:58 PM 41.9°F5.5°C 35.8°F2.1°C 79% 5.0 mph NNE8.0 kmh NNE -- 29.94 in1013.9 mb 0.00 in0.0 mm 0.00 in0.0 mm 0.00 in0.0 mm
05:59 PM 41.7°F5.4°C 35.9°F2.2°C 80% 5.0 mph NNW8.0 kmh NNW -- 29.94 in1013.9 mb 0.00 in0.0 mm 0.00 in0.0 mm 0.00 in0.0 mm
06:00 PM 41.5°F5.3°C 35.8°F2.1°C 80% 3.0 mph NNW4.8 kmh NNW -- 29.94 in1013.9 mb 0.00 in0.0 mm 0.00 in0.0 mm 0.00 in0.0 mm
06:01 PM 41.4°F5.2°C 35.9°F2.2°C 81% 5.0 mph 8.0 kmh -- 29.94 in1013.9 mb 0.00 in0.0 mm 0.00 in0.0 mm 0.00 in0.0 mm
06:02 PM 41.4°F5.2°C 35.9°F2.2°C 81% 5.0 mph WNW8.0 kmh WNW -- 29.94 in1013.9 mb 0.00 in0.0 mm 0.00 in0.0 mm 0.00 in0.0 mm
06:03 PM 41.4°F5.2°C 35.9°F2.2°C 81% 5.0 mph NNE8.0 kmh NNE -- 29.94 in1013.9 mb 0.00 in0.0 mm 0.00 in0.0 mm 0.00 in0.0 mm
06:04 PM 41.4°F5.2°C 35.9°F2.2°C 81% 4.0 mph NW6.4 kmh NW -- 29.94 in1013.9 mb 0.00 in0.0 mm 0.00 in0.0 mm 0.00 in0.0 mm
06:05 PM 41.4°F5.2°C 35.9°F2.2°C 81% 4.0 mph NNW6.4 kmh NNW -- 29.94 in1013.9 mb 0.00 in0.0 mm 0.00 in0.0 mm 0.00 in0.0 mm
06:06 PM 41.4°F5.2°C 35.9°F2.2°C 81% 5.0 mph NNW8.0 kmh NNW -- 29.94 in1013.9 mb 0.00 in0.0 mm 0.00 in0.0 mm 0.00 in0.0 mm
06:07 PM 41.4°F5.2°C 35.9°F2.2°C 81% 5.0 mph 8.0 kmh -- 29.94 in1013.9 mb 0.00 in0.0 mm 0.00 in0.0 mm 0.00 in0.0 mm
06:08 PM 41.4°F5.2°C 35.9°F2.2°C 81% 6.0 mph NNW9.7 kmh NNW -- 29.94 in1013.9 mb 0.00 in0.0 mm 0.00 in0.0 mm 0.00 in0.0 mm
06:09 PM 41.4°F5.2°C 35.9°F2.2°C 81% 4.0 mph NE6.4 kmh NE -- 29.94 in1013.9 mb 0.00 in0.0 mm 0.00 in0.0 mm 0.00 in0.0 mm
06:10 PM 41.4°F5.2°C 35.9°F2.2°C 81% 6.0 mph NNW9.7 kmh NNW -- 29.94 in1013.9 mb 0.00 in0.0 mm 0.00 in0.0 mm 0.00 in0.0 mm
06:11 PM 41.1°F5.1°C 35.7°F2.1°C 81% 4.0 mph NNE6.4 kmh NNE -- 29.94 in1013.9 mb 0.00 in0.0 mm 0.00 in0.0 mm 0.00 in0.0 mm
06:12 PM 41.1°F5.1°C 35.7°F2.1°C 81% 6.0 mph NNW9.7 kmh NNW -- 29.94 in1013.9 mb 0.00 in0.0 mm 0.00 in0.0 mm 0.00 in0.0 mm
06:13 PM 41.1°F5.1°C 35.7°F2.1°C 81% 5.0 mph NNW8.0 kmh NNW -- 29.94 in1013.9 mb 0.00 in0.0 mm 0.00 in0.0 mm 0.00 in0.0 mm
06:14 PM 41.1°F5.1°C 35.7°F2.1°C 81% 5.0 mph 8.0 kmh -- 29.94 in1013.9 mb 0.00 in0.0 mm 0.00 in0.0 mm 0.00 in0.0 mm
06:15 PM 40.9°F4.9°C 35.4°F1.9°C 81% 6.0 mph NW9.7 kmh NW -- 29.94 in1013.9 mb 0.00 in0.0 mm 0.00 in0.0 mm 0.00 in0.0 mm
06:16 PM 40.9°F4.9°C 35.4°F1.9°C 81% 5.0 mph NNE8.0 kmh NNE -- 29.94 in1013.9 mb 0.00 in0.0 mm 0.00 in0.0 mm 0.00 in0.0 mm
06:17 PM 40.9°F4.9°C 35.4°F1.9°C 81% 6.0 mph 9.7 kmh -- 29.94 in1013.9 mb 0.00 in0.0 mm 0.00 in0.0 mm 0.00 in0.0 mm
06:18 PM 40.9°F4.9°C 35.4°F1.9°C 81% 7.0 mph NNE11.3 kmh NNE -- 29.94 in1013.9 mb 0.00 in0.0 mm 0.00 in0.0 mm 0.00 in0.0 mm
06:19 PM 40.9°F4.9°C 35.4°F1.9°C 81% 6.0 mph NNW9.7 kmh NNW -- 29.94 in1013.9 mb 0.00 in0.0 mm 0.00 in0.0 mm 0.00 in0.0 mm
06:20 PM 40.7°F4.8°C 35.2°F1.8°C 81% 6.0 mph NNE9.7 kmh NNE -- 29.94 in1013.9 mb 0.00 in0.0 mm 0.00 in0.0 mm 0.00 in0.0 mm
06:21 PM 40.7°F4.8°C 35.2°F1.8°C 81% 6.0 mph NW9.7 kmh NW -- 29.94 in1013.9 mb 0.00 in0.0 mm 0.00 in0.0 mm 0.00 in0.0 mm
06:22 PM 40.7°F4.8°C 35.2°F1.8°C 81% 4.0 mph 6.4 kmh -- 29.94 in1013.9 mb 0.00 in0.0 mm 0.00 in0.0 mm 0.00 in0.0 mm
06:23 PM 40.5°F4.7°C 35.6°F2.0°C 83% 3.0 mph NNW4.8 kmh NNW -- 29.95 in1014.2 mb 0.00 in0.0 mm 0.00 in0.0 mm 0.00 in0.0 mm
06:24 PM 40.7°F4.8°C 35.8°F2.1°C 83% 5.0 mph NNW8.0 kmh NNW -- 29.94 in1013.9 mb 0.00 in0.0 mm 0.00 in0.0 mm 0.00 in0.0 mm
06:25 PM 40.7°F4.8°C 35.8°F2.1°C 83% 6.0 mph NNE9.7 kmh NNE -- 29.94 in1013.9 mb 0.00 in0.0 mm 0.00 in0.0 mm 0.00 in0.0 mm
06:26 PM 40.7°F4.8°C 35.8°F2.1°C 83% 7.0 mph 11.3 kmh -- 29.94 in1013.9 mb 0.00 in0.0 mm 0.00 in0.0 mm 0.00 in0.0 mm
06:27 PM 40.7°F4.8°C 35.8°F2.1°C 83% 4.0 mph NNW6.4 kmh NNW -- 29.94 in1013.9 mb 0.00 in0.0 mm 0.00 in0.0 mm 0.00 in0.0 mm
06:28 PM 40.7°F4.8°C 35.8°F2.1°C 83% 6.0 mph 9.7 kmh -- 29.94 in1013.9 mb 0.00 in0.0 mm 0.00 in0.0 mm 0.00 in0.0 mm
06:29 PM 40.7°F4.8°C 35.8°F2.1°C 83% 6.0 mph NNW9.7 kmh NNW -- 29.94 in1013.9 mb 0.00 in0.0 mm 0.00 in0.0 mm 0.00 in0.0 mm
06:30 PM 40.7°F4.8°C 35.8°F2.1°C 83% 4.0 mph NW6.4 kmh NW -- 29.94 in1013.9 mb 0.00 in0.0 mm 0.00 in0.0 mm 0.00 in0.0 mm
06:31 PM 40.5°F4.7°C 35.6°F2.0°C 83% 6.0 mph WNW9.7 kmh WNW -- 29.94 in1013.9 mb 0.00 in0.0 mm 0.00 in0.0 mm 0.00 in0.0 mm
06:32 PM 40.5°F4.7°C 35.6°F2.0°C 83% 6.0 mph NNW9.7 kmh NNW -- 29.94 in1013.9 mb 0.00 in0.0 mm 0.00 in0.0 mm 0.00 in0.0 mm
06:33 PM 40.5°F4.7°C 35.6°F2.0°C 83% 5.0 mph NNW8.0 kmh NNW -- 29.94 in1013.9 mb 0.00 in0.0 mm 0.00 in0.0 mm 0.00 in0.0 mm
06:34 PM 40.5°F4.7°C 35.6°F2.0°C 83% 3.0 mph NNW4.8 kmh NNW -- 29.94 in1013.9 mb 0.00 in0.0 mm 0.00 in0.0 mm 0.00 in0.0 mm
06:35 PM 40.5°F4.7°C 35.6°F2.0°C 83% 7.0 mph NNW11.3 kmh NNW -- 29.94 in1013.9 mb 0.00 in0.0 mm 0.00 in0.0 mm 0.00 in0.0 mm
06:37 PM 40.5°F4.7°C 35.6°F2.0°C 83% 6.0 mph NW9.7 kmh NW -- 29.94 in1013.9 mb 0.00 in0.0 mm 0.00 in0.0 mm 0.00 in0.0 mm
06:38 PM 40.2°F4.6°C 35.5°F1.9°C 83% 9.0 mph 14.5 kmh -- 29.94 in1013.9 mb 0.00 in0.0 mm 0.00 in0.0 mm 0.00 in0.0 mm
06:39 PM 40.2°F4.6°C 35.5°F1.9°C 83% 8.0 mph NNW12.9 kmh NNW -- 29.94 in1013.9 mb 0.00 in0.0 mm 0.00 in0.0 mm 0.00 in0.0 mm
06:40 PM 40.2°F4.6°C 35.5°F1.9°C 83% 7.0 mph NW11.3 kmh NW -- 29.94 in1013.9 mb 0.00 in0.0 mm 0.00 in0.0 mm 0.00 in0.0 mm
06:41 PM 40.0°F4.4°C 35.1°F1.7°C 83% 5.0 mph 8.0 kmh -- 29.94 in1013.9 mb 0.00 in0.0 mm 0.00 in0.0 mm 0.00 in0.0 mm
06:42 PM 40.0°F4.4°C 35.1°F1.7°C 83% 4.0 mph NNE6.4 kmh NNE -- 29.94 in1013.9 mb 0.00 in0.0 mm 0.00 in0.0 mm 0.00 in0.0 mm
06:44 PM 40.0°F4.4°C 35.1°F1.7°C 83% 3.0 mph 4.8 kmh -- 29.94 in1013.9 mb 0.00 in0.0 mm 0.00 in0.0 mm 0.00 in0.0 mm
06:45 PM 40.0°F4.4°C 35.1°F1.7°C 83% 2.0 mph NNE3.2 kmh NNE -- 29.94 in1013.9 mb 0.00 in0.0 mm 0.00 in0.0 mm 0.00 in0.0 mm
06:46 PM 40.0°F4.4°C 35.1°F1.7°C 83% 3.0 mph NNW4.8 kmh NNW -- 29.94 in1013.9 mb 0.00 in0.0 mm 0.00 in0.0 mm 0.00 in0.0 mm
06:47 PM 40.2°F4.6°C 35.5°F1.9°C 83% 4.0 mph 6.4 kmh -- 29.95 in1014.2 mb 0.00 in0.0 mm 0.00 in0.0 mm 0.00 in0.0 mm
06:48 PM 40.2°F4.6°C 35.5°F1.9°C 83% 5.0 mph WNW8.0 kmh WNW -- 29.94 in1013.9 mb 0.00 in0.0 mm 0.00 in0.0 mm 0.00 in0.0 mm
06:49 PM 40.2°F4.6°C 35.5°F1.9°C 83% 7.0 mph NW11.3 kmh NW -- 29.94 in1013.9 mb 0.00 in0.0 mm 0.00 in0.0 mm 0.00 in0.0 mm
06:50 PM 40.2°F4.6°C 35.5°F1.9°C 83% 4.0 mph NNW6.4 kmh NNW -- 29.95 in1014.2 mb 0.00 in0.0 mm 0.00 in0.0 mm 0.00 in0.0 mm
06:51 PM 40.2°F4.6°C 35.5°F1.9°C 83% 5.0 mph NNW8.0 kmh NNW -- 29.94 in1013.9 mb 0.00 in0.0 mm 0.00 in0.0 mm 0.00 in0.0 mm
06:52 PM 40.2°F4.6°C 35.5°F1.9°C 83% 6.0 mph NNE9.7 kmh NNE -- 29.94 in1013.9 mb 0.00 in0.0 mm 0.00 in0.0 mm 0.00 in0.0 mm
06:53 PM 40.0°F4.4°C 35.1°F1.7°C 83% 5.0 mph 8.0 kmh -- 29.94 in1013.9 mb 0.00 in0.0 mm 0.00 in0.0 mm 0.00 in0.0 mm
06:54 PM 40.0°F4.4°C 35.1°F1.7°C 83% 6.0 mph NE9.7 kmh NE -- 29.94 in1013.9 mb 0.00 in0.0 mm 0.00 in0.0 mm 0.00 in0.0 mm
06:55 PM 40.0°F4.4°C 35.1°F1.7°C 83% 8.0 mph NNE12.9 kmh NNE -- 29.94 in1013.9 mb 0.00 in0.0 mm 0.00 in0.0 mm 0.00 in0.0 mm
06:56 PM 39.9°F4.4°C 35.1°F1.7°C 83% 6.0 mph ENE9.7 kmh ENE -- 29.94 in1013.9 mb 0.00 in0.0 mm 0.00 in0.0 mm 0.00 in0.0 mm
06:57 PM 39.9°F4.4°C 35.1°F1.7°C 83% 5.0 mph NNE8.0 kmh NNE -- 29.94 in1013.9 mb 0.00 in0.0 mm 0.00 in0.0 mm 0.00 in0.0 mm
06:58 PM 39.9°F4.4°C 35.1°F1.7°C 83% 5.0 mph NNW8.0 kmh NNW -- 29.94 in1013.9 mb 0.00 in0.0 mm 0.00 in0.0 mm 0.00 in0.0 mm
06:59 PM 39.9°F4.4°C 35.1°F1.7°C 83% 6.0 mph NW9.7 kmh NW -- 29.94 in1013.9 mb 0.00 in0.0 mm 0.00 in0.0 mm 0.00 in0.0 mm
07:00 PM 39.7°F4.3°C 34.9°F1.6°C 83% 9.0 mph 14.5 kmh -- 29.94 in1013.9 mb 0.00 in0.0 mm 0.00 in0.0 mm 0.00 in0.0 mm
07:01 PM 39.7°F4.3°C 35.5°F1.9°C 85% 6.0 mph 9.7 kmh -- 29.94 in1013.9 mb 0.00 in0.0 mm 0.00 in0.0 mm 0.00 in0.0 mm
07:02 PM 39.5°F4.2°C 35.4°F1.9°C 85% 5.0 mph 8.0 kmh -- 29.94 in1013.9 mb 0.00 in0.0 mm 0.00 in0.0 mm 0.00 in0.0 mm
07:03 PM 39.5°F4.2°C 35.4°F1.9°C 85% 8.0 mph 12.9 kmh -- 29.94 in1013.9 mb 0.00 in0.0 mm 0.00 in0.0 mm 0.00 in0.0 mm
07:04 PM 39.5°F4.2°C 35.7°F2.1°C 86% 6.0 mph NNW9.7 kmh NNW -- 29.94 in1013.9 mb 0.00 in0.0 mm 0.00 in0.0 mm 0.00 in0.0 mm
07:05 PM 39.4°F4.1°C 35.5°F1.9°C 86% 8.0 mph 12.9 kmh -- 29.94 in1013.9 mb 0.00 in0.0 mm 0.00 in0.0 mm 0.00 in0.0 mm
07:06 PM 39.4°F4.1°C 35.5°F1.9°C 86% 6.0 mph NNE9.7 kmh NNE -- 29.94 in1013.9 mb 0.00 in0.0 mm 0.00 in0.0 mm 0.00 in0.0 mm
07:07 PM 39.2°F4.0°C 35.3°F1.8°C 86% 7.0 mph NNW11.3 kmh NNW -- 29.94 in1013.9 mb 0.00 in0.0 mm 0.00 in0.0 mm 0.00 in0.0 mm
07:08 PM 39.2°F4.0°C 35.3°F1.8°C 86% 4.0 mph 6.4 kmh -- 29.95 in1014.2 mb 0.00 in0.0 mm 0.00 in0.0 mm 0.00 in0.0 mm
07:09 PM 39.2°F4.0°C 35.3°F1.8°C 86% 6.0 mph 9.7 kmh -- 29.95 in1014.2 mb 0.00 in0.0 mm 0.00 in0.0 mm 0.00 in0.0 mm
07:10 PM 39.2°F4.0°C 35.3°F1.8°C 86% 7.0 mph NNW11.3 kmh NNW -- 29.95 in1014.2 mb 0.00 in0.0 mm 0.00 in0.0 mm 0.00 in0.0 mm
07:12 PM 39.2°F4.0°C 35.3°F1.8°C 86% 6.0 mph 9.7 kmh -- 29.95 in1014.2 mb 0.00 in0.0 mm 0.00 in0.0 mm 0.00 in0.0 mm
07:13 PM 39.2°F4.0°C 35.3°F1.8°C 86% 8.0 mph NNE12.9 kmh NNE -- 29.95 in1014.2 mb 0.00 in0.0 mm 0.00 in0.0 mm 0.00 in0.0 mm
07:14 PM 39.2°F4.0°C 35.3°F1.8°C 86% 7.0 mph NNE11.3 kmh NNE -- 29.95 in1014.2 mb 0.00 in0.0 mm 0.00 in0.0 mm 0.00 in0.0 mm
07:15 PM 39.0°F3.9°C 35.1°F1.7°C 86% 7.0 mph NNE11.3 kmh NNE -- 29.95 in1014.2 mb 0.00 in0.0 mm 0.00 in0.0 mm 0.00 in0.0 mm
07:16 PM 39.0°F3.9°C 35.1°F1.7°C 86% 4.0 mph 6.4 kmh -- 29.95 in1014.2 mb 0.00 in0.0 mm 0.00 in0.0 mm 0.00 in0.0 mm
07:18 PM 39.0°F3.9°C 35.1°F1.7°C 86% 5.0 mph 8.0 kmh -- 29.95 in1014.2 mb 0.00 in0.0 mm 0.00 in0.0 mm 0.00 in0.0 mm
07:19 PM 39.0°F3.9°C 35.1°F1.7°C 86% 5.0 mph NNW8.0 kmh NNW -- 29.95 in1014.2 mb 0.00 in0.0 mm 0.00 in0.0 mm 0.00 in0.0 mm
07:20 PM 39.0°F3.9°C 35.1°F1.7°C 86% 6.0 mph NNE9.7 kmh NNE -- 29.95 in1014.2 mb 0.00 in0.0 mm 0.00 in0.0 mm 0.00 in0.0 mm
07:21 PM 39.0°F3.9°C 35.1°F1.7°C 86% 7.0 mph NNW11.3 kmh NNW -- 29.95 in1014.2 mb 0.00 in0.0 mm 0.00 in0.0 mm 0.00 in0.0 mm
07:22 PM 39.0°F3.9°C 35.1°F1.7°C 86% 7.0 mph 11.3 kmh -- 29.95 in1014.2 mb 0.00 in0.0 mm 0.00 in0.0 mm 0.00 in0.0 mm
07:23 PM 38.7°F3.7°C 34.8°F1.6°C 86% 8.0 mph NNW12.9 kmh NNW -- 29.95 in1014.2 mb 0.00 in0.0 mm 0.00 in0.0 mm 0.00 in0.0 mm
07:24 PM 38.7°F3.7°C 34.8°F1.6°C 86% 7.0 mph NNW11.3 kmh NNW -- 29.95 in1014.2 mb 0.00 in0.0 mm 0.00 in0.0 mm 0.00 in0.0 mm
07:26 PM 38.7°F3.7°C 34.8°F1.6°C 86% 8.0 mph NNW12.9 kmh NNW -- 29.95 in1014.2 mb 0.00 in0.0 mm 0.00 in0.0 mm 0.00 in0.0 mm
07:27 PM 38.7°F3.7°C 34.8°F1.6°C 86% 6.0 mph NNW9.7 kmh NNW -- 29.95 in1014.2 mb 0.00 in0.0 mm 0.00 in0.0 mm 0.00 in0.0 mm
07:28 PM 38.7°F3.7°C 34.8°F1.6°C 86% 7.0 mph NNW11.3 kmh NNW -- 29.95 in1014.2 mb 0.00 in0.0 mm 0.00 in0.0 mm 0.00 in0.0 mm
07:29 PM 38.4°F3.6°C 34.6°F1.4°C 86% 7.0 mph NNE11.3 kmh NNE -- 29.95 in1014.2 mb 0.00 in0.0 mm 0.00 in0.0 mm 0.00 in0.0 mm
07:30 PM 38.4°F3.6°C 34.6°F1.4°C 86% 5.0 mph NNE8.0 kmh NNE -- 29.95 in1014.2 mb 0.00 in0.0 mm 0.00 in0.0 mm 0.00 in0.0 mm
07:32 PM 38.4°F3.6°C 35.2°F1.8°C 88% 6.0 mph NNE9.7 kmh NNE -- 29.96 in1014.6 mb 0.00 in0.0 mm 0.00 in0.0 mm 0.00 in0.0 mm
07:33 PM 38.4°F3.6°C 35.2°F1.8°C 88% 7.0 mph NNE11.3 kmh NNE -- 29.95 in1014.2 mb 0.00 in0.0 mm 0.00 in0.0 mm 0.00 in0.0 mm
07:34 PM 38.2°F3.4°C 34.8°F1.6°C 88% 5.0 mph NNE8.0 kmh NNE -- 29.96 in1014.6 mb 0.00 in0.0 mm 0.00 in0.0 mm 0.00 in0.0 mm
07:35 PM 38.2°F3.4°C 34.8°F1.6°C 88% 5.0 mph 8.0 kmh -- 29.96 in1014.6 mb 0.00 in0.0 mm 0.00 in0.0 mm 0.00 in0.0 mm
07:36 PM 38.2°F3.4°C 34.8°F1.6°C 88% 6.0 mph 9.7 kmh -- 29.96 in1014.6 mb 0.00 in0.0 mm 0.00 in0.0 mm 0.00 in0.0 mm
07:37 PM 38.2°F3.4°C 34.8°F1.6°C 88% 6.0 mph NNE9.7 kmh NNE -- 29.96 in1014.6 mb 0.00 in0.0 mm 0.00 in0.0 mm 0.00 in0.0 mm
07:38 PM 38.2°F3.4°C 34.8°F1.6°C 88% 5.0 mph NNW8.0 kmh NNW -- 29.97 in1014.9 mb 0.00 in0.0 mm 0.00 in0.0 mm 0.00 in0.0 mm
07:39 PM 38.2°F3.4°C 34.8°F1.6°C 88% 5.0 mph ENE8.0 kmh ENE -- 29.97 in1014.9 mb 0.00 in0.0 mm 0.00 in0.0 mm 0.00 in0.0 mm
07:40 PM 38.0°F3.3°C 34.7°F1.5°C 88% 7.0 mph NNE11.3 kmh NNE -- 29.97 in1014.9 mb 0.00 in0.0 mm 0.00 in0.0 mm 0.00 in0.0 mm
07:41 PM 38.0°F3.3°C 34.7°F1.5°C 88% 5.0 mph NNW8.0 kmh NNW -- 29.97 in1014.9 mb 0.00 in0.0 mm 0.00 in0.0 mm 0.00 in0.0 mm
07:42 PM 37.8°F3.2°C 34.5°F1.4°C 88% 7.0 mph NW11.3 kmh NW -- 29.97 in1014.9 mb 0.00 in0.0 mm 0.00 in0.0 mm 0.00 in0.0 mm
07:43 PM 37.8°F3.2°C 34.5°F1.4°C 88% 9.0 mph 14.5 kmh -- 29.97 in1014.9 mb 0.00 in0.0 mm 0.00 in0.0 mm 0.00 in0.0 mm
07:44 PM 37.7°F3.2°C 34.5°F1.4°C 88% 8.0 mph WNW12.9 kmh WNW -- 29.97 in1014.9 mb 0.00 in0.0 mm 0.00 in0.0 mm 0.00 in0.0 mm
07:45 PM 37.7°F3.2°C 34.5°F1.4°C 88% 6.0 mph 9.7 kmh -- 29.96 in1014.6 mb 0.00 in0.0 mm 0.00 in0.0 mm 0.00 in0.0 mm
07:46 PM 37.7°F3.2°C 34.5°F1.4°C 88% 7.0 mph NNW11.3 kmh NNW -- 29.97 in1014.9 mb 0.00 in0.0 mm 0.00 in0.0 mm 0.00 in0.0 mm
07:47 PM 37.7°F3.2°C 34.5°F1.4°C 88% 9.0 mph NW14.5 kmh NW -- 29.96 in1014.6 mb 0.00 in0.0 mm 0.00 in0.0 mm 0.00 in0.0 mm
07:48 PM 37.7°F3.2°C 34.5°F1.4°C 88% 8.0 mph NNW12.9 kmh NNW -- 29.96 in1014.6 mb 0.00 in0.0 mm 0.00 in0.0 mm 0.00 in0.0 mm
07:49 PM 37.7°F3.2°C 34.5°F1.4°C 88% 10.0 mph 16.1 kmh -- 29.96 in1014.6 mb 0.00 in0.0 mm 0.00 in0.0 mm 0.00 in0.0 mm
07:50 PM 37.7°F3.2°C 34.5°F1.4°C 88% 7.0 mph 11.3 kmh -- 29.97 in1014.9 mb 0.00 in0.0 mm 0.00 in0.0 mm 0.00 in0.0 mm
07:51 PM 37.7°F3.2°C 34.5°F1.4°C 88% 6.0 mph 9.7 kmh -- 29.97 in1014.9 mb 0.00 in0.0 mm 0.00 in0.0 mm 0.00 in0.0 mm
07:52 PM 37.7°F3.2°C 34.5°F1.4°C 88% 4.0 mph NNE6.4 kmh NNE -- 29.97 in1014.9 mb 0.00 in0.0 mm 0.00 in0.0 mm 0.00 in0.0 mm
07:53 PM 37.7°F3.2°C 35.1°F1.7°C 90% 5.0 mph NNE8.0 kmh NNE -- 29.97 in1014.9 mb 0.00 in0.0 mm 0.00 in0.0 mm 0.00 in0.0 mm
07:54 PM 37.7°F3.2°C 35.3°F1.8°C 91% 6.0 mph 9.7 kmh -- 29.97 in1014.9 mb 0.00 in0.0 mm 0.00 in0.0 mm 0.00 in0.0 mm
07:55 PM 37.5°F3.1°C 35.2°F1.8°C 91% 5.0 mph 8.0 kmh -- 29.97 in1014.9 mb 0.00 in0.0 mm 0.00 in0.0 mm 0.00 in0.0 mm
07:57 PM 37.5°F3.1°C 35.2°F1.8°C 91% 4.0 mph NNW6.4 kmh NNW -- 29.97 in1014.9 mb 0.00 in0.0 mm 0.00 in0.0 mm 0.00 in0.0 mm
07:58 PM 37.4°F3.0°C 35.0°F1.7°C 91% 5.0 mph W8.0 kmh W -- 29.97 in1014.9 mb 0.00 in0.0 mm 0.00 in0.0 mm 0.00 in0.0 mm
07:59 PM 37.2°F2.9°C 34.8°F1.6°C 91% 5.0 mph NW8.0 kmh NW -- 29.97 in1014.9 mb 0.00 in0.0 mm 0.00 in0.0 mm 0.00 in0.0 mm
08:00 PM 37.0°F2.8°C 34.6°F1.4°C 91% 7.0 mph WNW11.3 kmh WNW -- 29.97 in1014.9 mb 0.00 in0.0 mm 0.00 in0.0 mm 0.00 in0.0 mm
08:01 PM 37.0°F2.8°C 35.2°F1.8°C 93% 5.0 mph NW8.0 kmh NW -- 29.97 in1014.9 mb 0.00 in0.0 mm 0.00 in0.0 mm 0.00 in0.0 mm
08:02 PM 37.0°F2.8°C 35.2°F1.8°C 93% 10.0 mph NW16.1 kmh NW -- 29.97 in1014.9 mb 0.00 in0.0 mm 0.00 in0.0 mm 0.00 in0.0 mm
08:03 PM 37.0°F2.8°C 34.6°F1.4°C 91% 9.0 mph NNW14.5 kmh NNW -- 29.97 in1014.9 mb 0.00 in0.0 mm 0.00 in0.0 mm 0.00 in0.0 mm
08:04 PM 37.0°F2.8°C 34.6°F1.4°C 91% 10.0 mph 16.1 kmh -- 29.97 in1014.9 mb 0.00 in0.0 mm 0.00 in0.0 mm 0.00 in0.0 mm
08:05 PM 37.0°F2.8°C 34.6°F1.4°C 91% 9.0 mph WNW14.5 kmh WNW -- 29.97 in1014.9 mb 0.00 in0.0 mm 0.00 in0.0 mm 0.00 in0.0 mm
08:06 PM 37.0°F2.8°C 34.6°F1.4°C 91% 12.0 mph NNW19.3 kmh NNW -- 29.97 in1014.9 mb 0.00 in0.0 mm 0.00 in0.0 mm 0.00 in0.0 mm
08:07 PM 37.0°F2.8°C 34.6°F1.4°C 91% 12.0 mph NNE19.3 kmh NNE -- 29.97 in1014.9 mb 0.00 in0.0 mm 0.00 in0.0 mm 0.00 in0.0 mm
08:08 PM 37.0°F2.8°C 34.3°F1.3°C 90% 11.0 mph NNE17.7 kmh NNE -- 29.97 in1014.9 mb 0.00 in0.0 mm 0.00 in0.0 mm 0.00 in0.0 mm
08:09 PM 37.0°F2.8°C 34.3°F1.3°C 90% 11.0 mph NNW17.7 kmh NNW -- 29.97 in1014.9 mb 0.00 in0.0 mm 0.00 in0.0 mm 0.00 in0.0 mm
08:10 PM 37.0°F2.8°C 34.3°F1.3°C 90% 13.0 mph NE20.9 kmh NE -- 29.97 in1014.9 mb 0.00 in0.0 mm 0.00 in0.0 mm 0.00 in0.0 mm
08:11 PM 37.0°F2.8°C 34.3°F1.3°C 90% 13.0 mph NW20.9 kmh NW -- 29.97 in1014.9 mb 0.00 in0.0 mm 0.00 in0.0 mm 0.00 in0.0 mm
08:12 PM 37.0°F2.8°C 34.3°F1.3°C 90% 11.0 mph NNW17.7 kmh NNW -- 29.97 in1014.9 mb 0.00 in0.0 mm 0.00 in0.0 mm 0.00 in0.0 mm
08:13 PM 37.0°F2.8°C 34.6°F1.4°C 91% 12.0 mph NNW19.3 kmh NNW -- 29.97 in1014.9 mb 0.00 in0.0 mm 0.00 in0.0 mm 0.00 in0.0 mm
08:14 PM 36.9°F2.7°C 34.4°F1.3°C 91% 16.0 mph NNW25.7 kmh NNW -- 29.97 in1014.9 mb 0.00 in0.0 mm 0.00 in0.0 mm 0.00 in0.0 mm
08:15 PM 36.9°F2.7°C 34.4°F1.3°C 91% 11.0 mph NNW17.7 kmh NNW -- 29.97 in1014.9 mb 0.00 in0.0 mm 0.00 in0.0 mm 0.00 in0.0 mm
08:16 PM 36.9°F2.7°C 34.4°F1.3°C 91% 9.0 mph NNW14.5 kmh NNW -- 29.97 in1014.9 mb 0.00 in0.0 mm 0.00 in0.0 mm 0.00 in0.0 mm
08:17 PM 36.9°F2.7°C 34.4°F1.3°C 91% 10.0 mph 16.1 kmh -- 29.97 in1014.9 mb 0.00 in0.0 mm 0.00 in0.0 mm 0.00 in0.0 mm
08:18 PM 36.9°F2.7°C 34.4°F1.3°C 91% 9.0 mph NNE14.5 kmh NNE -- 29.97 in1014.9 mb 0.00 in0.0 mm 0.00 in0.0 mm 0.00 in0.0 mm
08:19 PM 36.7°F2.6°C 34.3°F1.3°C 91% 10.0 mph NNW16.1 kmh NNW -- 29.97 in1014.9 mb 0.00 in0.0 mm 0.00 in0.0 mm 0.00 in0.0 mm
08:20 PM 36.7°F2.6°C 34.3°F1.3°C 91% 8.0 mph NNW12.9 kmh NNW -- 29.97 in1014.9 mb 0.00 in0.0 mm 0.00 in0.0 mm 0.00 in0.0 mm
08:21 PM 36.7°F2.6°C 34.3°F1.3°C 91% 12.0 mph NNW19.3 kmh NNW -- 29.97 in1014.9 mb 0.00 in0.0 mm 0.00 in0.0 mm 0.00 in0.0 mm
08:22 PM 36.7°F2.6°C 34.3°F1.3°C 91% 10.0 mph NNW16.1 kmh NNW -- 29.98 in1015.2 mb 0.00 in0.0 mm 0.00 in0.0 mm 0.00 in0.0 mm
08:23 PM 36.7°F2.6°C 34.3°F1.3°C 91% 10.0 mph 16.1 kmh -- 29.98 in1015.2 mb 0.00 in0.0 mm 0.00 in0.0 mm 0.00 in0.0 mm
08:24 PM 36.7°F2.6°C 34.3°F1.3°C 91% 7.0 mph NNW11.3 kmh NNW -- 29.98 in1015.2 mb 0.00 in0.0 mm 0.00 in0.0 mm 0.00 in0.0 mm
08:25 PM 36.7°F2.6°C 34.3°F1.3°C 91% 7.0 mph NNE11.3 kmh NNE -- 29.98 in1015.2 mb 0.00 in0.0 mm 0.00 in0.0 mm 0.00 in0.0 mm
08:26 PM 36.5°F2.5°C 34.1°F1.2°C 91% 10.0 mph NNE16.1 kmh NNE -- 29.98 in1015.2 mb 0.00 in0.0 mm 0.00 in0.0 mm 0.00 in0.0 mm
08:27 PM 36.5°F2.5°C 34.1°F1.2°C 91% 5.0 mph ENE8.0 kmh ENE -- 29.98 in1015.2 mb 0.00 in0.0 mm 0.00 in0.0 mm 0.00 in0.0 mm
08:28 PM 36.5°F2.5°C 34.1°F1.2°C 91% 7.0 mph NNE11.3 kmh NNE -- 29.98 in1015.2 mb 0.00 in0.0 mm 0.00 in0.0 mm 0.00 in0.0 mm
08:30 PM 36.5°F2.5°C 34.1°F1.2°C 91% 9.0 mph NW14.5 kmh NW -- 29.98 in1015.2 mb 0.00 in0.0 mm 0.00 in0.0 mm 0.00 in0.0 mm
08:31 PM 36.5°F2.5°C 34.1°F1.2°C 91% 4.0 mph NE6.4 kmh NE -- 29.98 in1015.2 mb 0.00 in0.0 mm 0.00 in0.0 mm 0.00 in0.0 mm
08:32 PM 36.5°F2.5°C 34.1°F1.2°C 91% 8.0 mph NW12.9 kmh NW -- 29.98 in1015.2 mb 0.00 in0.0 mm 0.00 in0.0 mm 0.00 in0.0 mm
08:33 PM 36.5°F2.5°C 34.1°F1.2°C 91% 7.0 mph NNW11.3 kmh NNW -- 29.98 in1015.2 mb 0.00 in0.0 mm 0.00 in0.0 mm 0.00 in0.0 mm
08:34 PM 36.5°F2.5°C 34.1°F1.2°C 91% 11.0 mph NW17.7 kmh NW -- 29.98 in1015.2 mb 0.00 in0.0 mm 0.00 in0.0 mm 0.00 in0.0 mm
08:36 PM 36.5°F2.5°C 34.1°F1.2°C 91% 12.0 mph NNW19.3 kmh NNW -- 29.97 in1014.9 mb 0.00 in0.0 mm 0.00 in0.0 mm 0.00 in0.0 mm
08:37 PM 36.5°F2.5°C 34.1°F1.2°C 91% 9.0 mph 14.5 kmh -- 29.97 in1014.9 mb 0.00 in0.0 mm 0.00 in0.0 mm 0.00 in0.0 mm
08:38 PM 36.5°F2.5°C 34.1°F1.2°C 91% 10.0 mph NNE16.1 kmh NNE -- 29.97 in1014.9 mb 0.00 in0.0 mm 0.00 in0.0 mm 0.00 in0.0 mm
08:39 PM 36.5°F2.5°C 34.1°F1.2°C 91% 10.0 mph 16.1 kmh -- 29.97 in1014.9 mb 0.00 in0.0 mm 0.00 in0.0 mm 0.00 in0.0 mm
08:40 PM 36.5°F2.5°C 34.1°F1.2°C 91% 11.0 mph NNW17.7 kmh NNW -- 29.98 in1015.2 mb 0.00 in0.0 mm 0.00 in0.0 mm 0.00 in0.0 mm
08:41 PM 36.5°F2.5°C 33.8°F1.0°C 90% 8.0 mph NW12.9 kmh NW -- 29.97 in1014.9 mb 0.00 in0.0 mm 0.00 in0.0 mm 0.00 in0.0 mm
08:42 PM 36.5°F2.5°C 33.8°F1.0°C 90% 7.0 mph NNW11.3 kmh NNW -- 29.98 in1015.2 mb 0.00 in0.0 mm 0.00 in0.0 mm 0.00 in0.0 mm
08:43 PM 36.5°F2.5°C 33.8°F1.0°C 90% 8.0 mph NW12.9 kmh NW -- 29.98 in1015.2 mb 0.00 in0.0 mm 0.00 in0.0 mm 0.00 in0.0 mm
08:44 PM 36.5°F2.5°C 33.8°F1.0°C 90% 6.0 mph 9.7 kmh -- 29.98 in1015.2 mb 0.00 in0.0 mm 0.00 in0.0 mm 0.00 in0.0 mm
08:45 PM 36.5°F2.5°C 33.8°F1.0°C 90% 7.0 mph NNE11.3 kmh NNE -- 29.98 in1015.2 mb 0.00 in0.0 mm 0.00 in0.0 mm 0.00 in0.0 mm
08:46 PM 36.5°F2.5°C 33.8°F1.0°C 90% 4.0 mph NNE6.4 kmh NNE -- 29.99 in1015.6 mb 0.00 in0.0 mm 0.00 in0.0 mm 0.00 in0.0 mm
08:47 PM 36.5°F2.5°C 33.8°F1.0°C 90% 4.0 mph NNW6.4 kmh NNW -- 29.99 in1015.6 mb 0.00 in0.0 mm 0.00 in0.0 mm 0.00 in0.0 mm
08:48 PM 36.5°F2.5°C 33.8°F1.0°C 90% 7.0 mph NNE11.3 kmh NNE -- 29.99 in1015.6 mb 0.00 in0.0 mm 0.00 in0.0 mm 0.00 in0.0 mm
08:49 PM 36.5°F2.5°C 33.8°F1.0°C 90% 7.0 mph 11.3 kmh -- 29.99 in1015.6 mb 0.00 in0.0 mm 0.00 in0.0 mm 0.00 in0.0 mm
08:50 PM 36.5°F2.5°C 33.8°F1.0°C 90% 7.0 mph NNE11.3 kmh NNE -- 30.00 in1015.9 mb 0.00 in0.0 mm 0.00 in0.0 mm 0.00 in0.0 mm
08:51 PM 36.5°F2.5°C 33.8°F1.0°C 90% 3.0 mph 4.8 kmh -- 30.00 in1015.9 mb 0.00 in0.0 mm 0.00 in0.0 mm 0.00 in0.0 mm
08:52 PM 36.5°F2.5°C 33.8°F1.0°C 90% 4.0 mph NNW6.4 kmh NNW -- 30.00 in1015.9 mb 0.00 in0.0 mm 0.00 in0.0 mm 0.00 in0.0 mm
08:53 PM 36.5°F2.5°C 33.8°F1.0°C 90% 5.0 mph NNE8.0 kmh NNE -- 30.00 in1015.9 mb 0.00 in0.0 mm 0.00 in0.0 mm 0.00 in0.0 mm
08:54 PM 36.5°F2.5°C 33.8°F1.0°C 90% 4.0 mph NNE6.4 kmh NNE -- 30.00 in1015.9 mb 0.00 in0.0 mm 0.00 in0.0 mm 0.00 in0.0 mm
08:55 PM 36.5°F2.5°C 33.8°F1.0°C 90% 5.0 mph NNE8.0 kmh NNE -- 30.00 in1015.9 mb 0.00 in0.0 mm 0.00 in0.0 mm 0.00 in0.0 mm
08:56 PM 36.5°F2.5°C 33.8°F1.0°C 90% 4.0 mph NNW6.4 kmh NNW -- 30.00 in1015.9 mb 0.00 in0.0 mm 0.00 in0.0 mm